QFA982 YSSY-KIAD
Flight info
| Callsign | QFA982 |
|---|---|
| Flight time | 16h 15m |
| Altitude | 31000 |
| Route | NOBAR A579 NN V430 LAVAV DCT HOI/N0500F330 DCT PUPIS DCT 09S170W 01S160W 07N150W/N0485F350 15N140W 22N130W/N0471F370 27N120W 31N110W DCT CME/N0470F390 J166 SPS DCT FSM DCT CNG DCT JARLO GIBBZ5 |
| Aircraft | A388/J-SADE2E3FGHIJ3J4J5M1RWXY/LB1D1 |
Departure
| Time | 2026-04-21 05:50 |
|---|---|
| Airport | Sydney Kingsford Smith International Airport (YSSY) |
Arrival
| Time | 2026-04-21 22:06 |
|---|---|
| Airport | Washington Dulles International Airport (KIAD) |
| Time | Latitude | Longitude | Altitude | Speed | Heading |
|---|---|---|---|---|---|
| 2026-04-21 05:16 | -33.94019 | 151.16617 | 35 ft | 0 kts | 345° |
| 2026-04-21 05:35 | -33.94031 | 151.16622 | 34 ft | 4 kts | 344° |
| 2026-04-21 05:35 | -33.94057 | 151.16631 | 34 ft | 4 kts | 343° |
| 2026-04-21 05:36 | -33.94080 | 151.16639 | 33 ft | 4 kts | 348° |
| 2026-04-21 05:36 | -33.94102 | 151.16635 | 33 ft | 4 kts | 49° |
| 2026-04-21 05:36 | -33.94115 | 151.16608 | 33 ft | 4 kts | 71° |
| 2026-04-21 05:36 | -33.94120 | 151.16589 | 32 ft | 1 kts | 74° |
| 2026-04-21 05:37 | -33.94120 | 151.16587 | 32 ft | 0 kts | 74° |
| 2026-04-21 05:40 | -33.94118 | 151.16597 | 35 ft | 3 kts | 73° |
| 2026-04-21 05:40 | -33.94107 | 151.16641 | 35 ft | 7 kts | 75° |
| 2026-04-21 05:40 | -33.94090 | 151.16714 | 35 ft | 11 kts | 73° |
| 2026-04-21 05:40 | -33.94067 | 151.16809 | 35 ft | 13 kts | 73° |
| 2026-04-21 05:41 | -33.94038 | 151.16924 | 35 ft | 16 kts | 73° |
| 2026-04-21 05:41 | -33.94010 | 151.17059 | 34 ft | 18 kts | 76° |
| 2026-04-21 05:41 | -33.93979 | 151.17210 | 34 ft | 19 kts | 76° |
| 2026-04-21 05:41 | -33.93937 | 151.17368 | 31 ft | 11 kts | 47° |
| 2026-04-21 05:42 | -33.93933 | 151.17371 | 31 ft | 1 kts | 36° |
| 2026-04-21 05:42 | -33.93931 | 151.17374 | 31 ft | 1 kts | 36° |
| 2026-04-21 05:42 | -33.93928 | 151.17376 | 31 ft | 0 kts | 46° |
| 2026-04-21 05:42 | -33.93914 | 151.17405 | 31 ft | 14 kts | 72° |
| 2026-04-21 05:43 | -33.93893 | 151.17548 | 33 ft | 6 kts | 72° |
| 2026-04-21 05:43 | -33.93877 | 151.17581 | 34 ft | 3 kts | 32° |
| 2026-04-21 05:43 | -33.93851 | 151.17591 | 34 ft | 5 kts | 5° |
| 2026-04-21 05:43 | -33.93783 | 151.17579 | 34 ft | 18 kts | 348° |
| 2026-04-21 05:44 | -33.93632 | 151.17541 | 34 ft | 20 kts | 348° |
| 2026-04-21 05:44 | -33.93493 | 151.17506 | 34 ft | 21 kts | 352° |
| 2026-04-21 05:44 | -33.93348 | 151.17495 | 35 ft | 21 kts | 349° |
| 2026-04-21 05:44 | -33.93197 | 151.17454 | 35 ft | 24 kts | 347° |
| 2026-04-21 05:45 | -33.93091 | 151.17427 | 35 ft | 6 kts | 349° |
| 2026-04-21 05:45 | -33.93039 | 151.17415 | 35 ft | 9 kts | 349° |
| 2026-04-21 05:45 | -33.92976 | 151.17379 | 35 ft | 10 kts | 300° |
| 2026-04-21 05:45 | -33.92961 | 151.17325 | 35 ft | 0 kts | 280° |
| 2026-04-21 05:47 | -33.92960 | 151.17313 | 35 ft | 4 kts | 279° |
| 2026-04-21 05:47 | -33.92956 | 151.17250 | 35 ft | 11 kts | 262° |
| 2026-04-21 05:47 | -33.93003 | 151.17183 | 35 ft | 12 kts | 184° |
| 2026-04-21 05:47 | -33.93043 | 151.17188 | 35 ft | 0 kts | 167° |
| 2026-04-21 05:49 | -33.93051 | 151.17190 | 35 ft | 12 kts | 167° |
| 2026-04-21 05:49 | -33.93355 | 151.17269 | 33 ft | 77 kts | 168° |
| 2026-04-21 05:49 | -33.94056 | 151.17449 | 31 ft | 126 kts | 168° |
| 2026-04-21 05:50 | -33.95021 | 151.17699 | 35 ft | 156 kts | 168° |
| 2026-04-21 05:50 | -33.96117 | 151.17996 | 247 ft | 162 kts | 166° |
| 2026-04-21 05:50 | -33.97207 | 151.18288 | 673 ft | 160 kts | 169° |
| 2026-04-21 05:50 | -33.98262 | 151.18518 | 1187 ft | 153 kts | 174° |
| 2026-04-21 05:51 | -33.99355 | 151.18380 | 1395 ft | 164 kts | 192° |
| 2026-04-21 05:51 | -34.00491 | 151.17990 | 1498 ft | 173 kts | 192° |
| 2026-04-21 05:51 | -34.01702 | 151.17691 | 1559 ft | 182 kts | 186° |
| 2026-04-21 05:51 | -34.02978 | 151.17645 | 1648 ft | 186 kts | 173° |
| 2026-04-21 05:52 | -34.04263 | 151.17998 | 1700 ft | 190 kts | 165° |
| 2026-04-21 05:52 | -34.05549 | 151.18448 | 1738 ft | 195 kts | 165° |
| 2026-04-21 05:52 | -34.06912 | 151.18910 | 1803 ft | 213 kts | 166° |
| 2026-04-21 05:52 | -34.08336 | 151.19503 | 1926 ft | 231 kts | 150° |
| 2026-04-21 05:53 | -34.09485 | 151.20941 | 2254 ft | 246 kts | 120° |
| 2026-04-21 05:53 | -34.09886 | 151.22968 | 2817 ft | 256 kts | 95° |
| 2026-04-21 05:53 | -34.09833 | 151.25144 | 3318 ft | 260 kts | 93° |
| 2026-04-21 05:53 | -34.09775 | 151.27340 | 3820 ft | 264 kts | 93° |
| 2026-04-21 05:54 | -34.09719 | 151.29570 | 4346 ft | 266 kts | 92° |
| 2026-04-21 05:54 | -34.09672 | 151.31792 | 4936 ft | 265 kts | 92° |
| 2026-04-21 05:54 | -34.09618 | 151.34003 | 5444 ft | 268 kts | 93° |
| 2026-04-21 05:54 | -34.09564 | 151.36293 | 5854 ft | 273 kts | 93° |
| 2026-04-21 05:55 | -34.09528 | 151.38590 | 6401 ft | 274 kts | 93° |
| 2026-04-21 05:55 | -34.09482 | 151.40912 | 6887 ft | 277 kts | 92° |
| 2026-04-21 05:55 | -34.09063 | 151.43179 | 7315 ft | 287 kts | 68° |
| 2026-04-21 05:55 | -34.07991 | 151.45238 | 7816 ft | 291 kts | 57° |
| 2026-04-21 05:56 | -34.06767 | 151.47209 | 8270 ft | 294 kts | 57° |
| 2026-04-21 05:56 | -34.05576 | 151.49218 | 8793 ft | 295 kts | 59° |
| 2026-04-21 05:56 | -34.04443 | 151.51293 | 9283 ft | 296 kts | 60° |
| 2026-04-21 05:56 | -34.03349 | 151.53412 | 9775 ft | 298 kts | 62° |
| 2026-04-21 05:57 | -34.02268 | 151.55566 | 10191 ft | 304 kts | 62° |
| 2026-04-21 05:57 | -34.01157 | 151.57806 | 10304 ft | 318 kts | 62° |
| 2026-04-21 05:57 | -34.00011 | 151.60120 | 10435 ft | 331 kts | 62° |
| 2026-04-21 05:57 | -33.98805 | 151.62544 | 10551 ft | 343 kts | 62° |
| 2026-04-21 05:58 | -33.97560 | 151.65038 | 10815 ft | 351 kts | 62° |
| 2026-04-21 05:58 | -33.96293 | 151.67565 | 11253 ft | 352 kts | 62° |
| 2026-04-21 05:58 | -33.95019 | 151.70106 | 11635 ft | 355 kts | 62° |
| 2026-04-21 05:58 | -33.93745 | 151.72647 | 12082 ft | 356 kts | 62° |
| 2026-04-21 05:59 | -33.92453 | 151.75224 | 12448 ft | 360 kts | 62° |
| 2026-04-21 05:59 | -33.91154 | 151.77813 | 12874 ft | 362 kts | 62° |
| 2026-04-21 05:59 | -33.89844 | 151.80424 | 13291 ft | 364 kts | 62° |
| 2026-04-21 06:00 | -33.87215 | 151.85655 | 14081 ft | 370 kts | 62° |
| 2026-04-21 06:00 | -33.85876 | 151.88318 | 14428 ft | 372 kts | 62° |
| 2026-04-21 06:00 | -33.84530 | 151.90993 | 14788 ft | 374 kts | 62° |
| 2026-04-21 06:00 | -33.83180 | 151.93673 | 15169 ft | 376 kts | 62° |
| 2026-04-21 06:01 | -33.81812 | 151.96386 | 15475 ft | 379 kts | 61° |
| 2026-04-21 06:01 | -33.80441 | 151.99103 | 15869 ft | 381 kts | 61° |
| 2026-04-21 06:01 | -33.79083 | 152.01794 | 16230 ft | 382 kts | 61° |
| 2026-04-21 06:01 | -33.77694 | 152.04541 | 16561 ft | 385 kts | 61° |
| 2026-04-21 06:02 | -33.76301 | 152.07294 | 16914 ft | 387 kts | 61° |
| 2026-04-21 06:02 | -33.74898 | 152.10068 | 17289 ft | 388 kts | 61° |
| 2026-04-21 06:02 | -33.73486 | 152.12856 | 17605 ft | 391 kts | 61° |
| 2026-04-21 06:02 | -33.72070 | 152.15650 | 17944 ft | 393 kts | 61° |
| 2026-04-21 06:03 | -33.70643 | 152.18464 | 18297 ft | 394 kts | 61° |
| 2026-04-21 06:03 | -33.69213 | 152.21281 | 18599 ft | 396 kts | 61° |
| 2026-04-21 06:03 | -33.67774 | 152.24114 | 18894 ft | 398 kts | 61° |
| 2026-04-21 06:03 | -33.66348 | 152.26919 | 19185 ft | 399 kts | 61° |
| 2026-04-21 06:04 | -33.64894 | 152.29776 | 19446 ft | 402 kts | 61° |
| 2026-04-21 06:04 | -33.63432 | 152.32648 | 19713 ft | 403 kts | 61° |
| 2026-04-21 06:04 | -33.61966 | 152.35525 | 19997 ft | 405 kts | 61° |
| 2026-04-21 06:04 | -33.60491 | 152.38416 | 20258 ft | 407 kts | 61° |
| 2026-04-21 06:05 | -33.59486 | 152.40387 | 20431 ft | 409 kts | 62° |
| 2026-04-21 06:05 | -33.58016 | 152.43265 | 20685 ft | 411 kts | 62° |
| 2026-04-21 06:05 | -33.56517 | 152.46198 | 20949 ft | 412 kts | 62° |
| 2026-04-21 06:05 | -33.55015 | 152.49133 | 21204 ft | 414 kts | 62° |
| 2026-04-21 06:06 | -33.53502 | 152.52089 | 21464 ft | 416 kts | 62° |
| 2026-04-21 06:06 | -33.51979 | 152.55062 | 21714 ft | 418 kts | 62° |
| 2026-04-21 06:06 | -33.50451 | 152.58042 | 21972 ft | 420 kts | 62° |
| 2026-04-21 06:06 | -33.48911 | 152.61042 | 22223 ft | 422 kts | 62° |
| 2026-04-21 06:07 | -33.47389 | 152.64005 | 22450 ft | 424 kts | 62° |
| 2026-04-21 06:07 | -33.45839 | 152.67020 | 22703 ft | 426 kts | 62° |
| 2026-04-21 06:07 | -33.44280 | 152.70051 | 22959 ft | 428 kts | 62° |
| 2026-04-21 06:07 | -33.42714 | 152.73092 | 23203 ft | 430 kts | 62° |
| 2026-04-21 06:08 | -33.41141 | 152.76145 | 23447 ft | 431 kts | 62° |
| 2026-04-21 06:08 | -33.39561 | 152.79209 | 23678 ft | 433 kts | 62° |
| 2026-04-21 06:08 | -33.37971 | 152.82289 | 23907 ft | 435 kts | 62° |
| 2026-04-21 06:08 | -33.36375 | 152.85377 | 24131 ft | 436 kts | 62° |
| 2026-04-21 06:09 | -33.34775 | 152.88472 | 24333 ft | 438 kts | 62° |
| 2026-04-21 06:09 | -33.33185 | 152.91544 | 24538 ft | 439 kts | 62° |
| 2026-04-21 06:09 | -33.31572 | 152.94660 | 24742 ft | 441 kts | 62° |
| 2026-04-21 06:09 | -33.29952 | 152.97785 | 24941 ft | 443 kts | 62° |
| 2026-04-21 06:10 | -33.28319 | 153.00932 | 25144 ft | 444 kts | 62° |
| 2026-04-21 06:10 | -33.26684 | 153.04080 | 25347 ft | 446 kts | 62° |
| 2026-04-21 06:10 | -33.25042 | 153.07239 | 25555 ft | 447 kts | 62° |
| 2026-04-21 06:10 | -33.23397 | 153.10403 | 25771 ft | 449 kts | 62° |
| 2026-04-21 06:11 | -33.21764 | 153.13539 | 26005 ft | 451 kts | 62° |
| 2026-04-21 06:11 | -33.20103 | 153.16726 | 26211 ft | 453 kts | 62° |
| 2026-04-21 06:11 | -33.18434 | 153.19927 | 26463 ft | 454 kts | 62° |
| 2026-04-21 06:11 | -33.16757 | 153.23140 | 26672 ft | 456 kts | 62° |
| 2026-04-21 06:12 | -33.15073 | 153.26365 | 26907 ft | 458 kts | 62° |
| 2026-04-21 06:12 | -33.13378 | 153.29605 | 27149 ft | 460 kts | 62° |
| 2026-04-21 06:12 | -33.11698 | 153.32816 | 27378 ft | 462 kts | 62° |
| 2026-04-21 06:12 | -33.09993 | 153.36071 | 27617 ft | 464 kts | 62° |
| 2026-04-21 06:13 | -33.08275 | 153.39348 | 27859 ft | 466 kts | 62° |
| 2026-04-21 06:13 | -33.06550 | 153.42634 | 28083 ft | 468 kts | 62° |
| 2026-04-21 06:13 | -33.04815 | 153.45938 | 28303 ft | 471 kts | 62° |
| 2026-04-21 06:13 | -33.03072 | 153.49254 | 28543 ft | 473 kts | 62° |
| 2026-04-21 06:14 | -33.01344 | 153.52539 | 28783 ft | 475 kts | 62° |
| 2026-04-21 06:14 | -32.99577 | 153.55894 | 29024 ft | 477 kts | 62° |
| 2026-04-21 06:14 | -32.97809 | 153.59249 | 29264 ft | 479 kts | 62° |
| 2026-04-21 06:14 | -32.96027 | 153.62625 | 29496 ft | 481 kts | 61° |
| 2026-04-21 06:15 | -32.94243 | 153.66003 | 29734 ft | 483 kts | 61° |
| 2026-04-21 06:15 | -32.92472 | 153.69355 | 29958 ft | 485 kts | 61° |
| 2026-04-21 06:15 | -32.90669 | 153.72763 | 30198 ft | 487 kts | 61° |
| 2026-04-21 06:15 | -32.88860 | 153.76180 | 30406 ft | 490 kts | 62° |
| 2026-04-21 06:16 | -32.87031 | 153.79631 | 30612 ft | 492 kts | 62° |
| 2026-04-21 06:16 | -32.85203 | 153.83076 | 30870 ft | 492 kts | 62° |
| 2026-04-21 06:16 | -32.83370 | 153.86529 | 31074 ft | 494 kts | 61° |
| 2026-04-21 06:16 | -32.81528 | 153.89995 | 31264 ft | 497 kts | 61° |
| 2026-04-21 06:17 | -32.79670 | 153.93490 | 31235 ft | 504 kts | 61° |
| 2026-04-21 06:17 | -32.75884 | 154.00601 | 31238 ft | 518 kts | 61° |
| 2026-04-21 06:18 | -32.71973 | 154.07925 | 31239 ft | 526 kts | 61° |
| 2026-04-21 06:18 | -32.68047 | 154.15259 | 31228 ft | 525 kts | 61° |
| 2026-04-21 06:19 | -32.64152 | 154.22526 | 31228 ft | 525 kts | 61° |
| 2026-04-21 06:19 | -32.60227 | 154.29838 | 31227 ft | 525 kts | 61° |
| 2026-04-21 06:20 | -32.56296 | 154.37144 | 31246 ft | 526 kts | 61° |
| 2026-04-21 06:20 | -32.52349 | 154.44466 | 31226 ft | 526 kts | 61° |
| 2026-04-21 06:21 | -32.48427 | 154.51728 | 31223 ft | 526 kts | 61° |
| 2026-04-21 06:21 | -32.44477 | 154.59030 | 31219 ft | 526 kts | 61° |
| 2026-04-21 06:22 | -32.40548 | 154.66285 | 31220 ft | 526 kts | 61° |
| 2026-04-21 06:22 | -32.36687 | 154.73641 | 31210 ft | 525 kts | 64° |
| 2026-04-21 06:23 | -32.33048 | 154.81142 | 31216 ft | 525 kts | 64° |
| 2026-04-21 06:23 | -32.29389 | 154.88622 | 31216 ft | 525 kts | 64° |
| 2026-04-21 06:24 | -32.25722 | 154.96034 | 31210 ft | 525 kts | 64° |
| 2026-04-21 06:24 | -32.22018 | 155.03492 | 31204 ft | 526 kts | 64° |
| 2026-04-21 06:25 | -32.18310 | 155.10940 | 31213 ft | 525 kts | 64° |
| 2026-04-21 06:25 | -32.14614 | 155.18353 | 31196 ft | 526 kts | 64° |
| 2026-04-21 06:26 | -32.10894 | 155.25800 | 31205 ft | 525 kts | 64° |
| 2026-04-21 06:26 | -32.07196 | 155.33186 | 31202 ft | 525 kts | 64° |
| 2026-04-21 06:27 | -32.03475 | 155.40605 | 31200 ft | 525 kts | 64° |
| 2026-04-21 06:27 | -31.99745 | 155.48026 | 31192 ft | 525 kts | 64° |
| 2026-04-21 06:28 | -31.96021 | 155.55420 | 31198 ft | 524 kts | 64° |
| 2026-04-21 06:28 | -31.92315 | 155.62767 | 31215 ft | 525 kts | 64° |
| 2026-04-21 06:29 | -31.88572 | 155.70170 | 31194 ft | 525 kts | 64° |
| 2026-04-21 06:29 | -31.84827 | 155.77563 | 31181 ft | 525 kts | 64° |
| 2026-04-21 06:30 | -31.81093 | 155.84920 | 31175 ft | 525 kts | 64° |
| 2026-04-21 06:30 | -31.77338 | 155.92305 | 31183 ft | 525 kts | 64° |
| 2026-04-21 06:31 | -31.73572 | 155.99700 | 31237 ft | 528 kts | 64° |
| 2026-04-21 06:31 | -31.71682 | 156.03406 | 31524 ft | 528 kts | 64° |
| 2026-04-21 06:31 | -31.69812 | 156.07067 | 31738 ft | 531 kts | 64° |
| 2026-04-21 06:31 | -31.67906 | 156.10794 | 31958 ft | 532 kts | 64° |
| 2026-04-21 06:32 | -31.65994 | 156.14531 | 32173 ft | 534 kts | 63° |
| 2026-04-21 06:32 | -31.64075 | 156.18276 | 32387 ft | 536 kts | 63° |
| 2026-04-21 06:32 | -31.62144 | 156.22042 | 32665 ft | 537 kts | 63° |
| 2026-04-21 06:32 | -31.60217 | 156.25794 | 33016 ft | 536 kts | 64° |
| 2026-04-21 06:33 | -31.58289 | 156.29546 | 33155 ft | 536 kts | 63° |
| 2026-04-21 06:33 | -31.54458 | 156.36991 | 33171 ft | 535 kts | 63° |
| 2026-04-21 06:34 | -31.50603 | 156.44469 | 33170 ft | 535 kts | 63° |
| 2026-04-21 06:34 | -31.46735 | 156.51959 | 33155 ft | 535 kts | 63° |
| 2026-04-21 06:35 | -31.42935 | 156.59301 | 33164 ft | 535 kts | 63° |
| 2026-04-21 06:35 | -31.39067 | 156.66759 | 33141 ft | 534 kts | 63° |
| 2026-04-21 06:36 | -31.35211 | 156.74180 | 33135 ft | 533 kts | 63° |
| 2026-04-21 06:36 | -31.31380 | 156.81541 | 33128 ft | 533 kts | 63° |
| 2026-04-21 06:37 | -31.27500 | 156.88983 | 33278 ft | 537 kts | 63° |
| 2026-04-21 06:37 | -31.25547 | 156.92723 | 33566 ft | 538 kts | 63° |
| 2026-04-21 06:37 | -31.23624 | 156.96402 | 33863 ft | 538 kts | 63° |
| 2026-04-21 06:37 | -31.21668 | 157.00138 | 34152 ft | 537 kts | 63° |
| 2026-04-21 06:38 | -31.19715 | 157.03866 | 34404 ft | 537 kts | 63° |
| 2026-04-21 06:38 | -31.17760 | 157.07595 | 34653 ft | 537 kts | 63° |
| 2026-04-21 06:38 | -31.15806 | 157.11317 | 34885 ft | 537 kts | 63° |
| 2026-04-21 06:38 | -31.13847 | 157.15046 | 35105 ft | 537 kts | 63° |
| 2026-04-21 06:39 | -31.11911 | 157.18731 | 35143 ft | 541 kts | 63° |
| 2026-04-21 06:39 | -31.08003 | 157.26146 | 35140 ft | 533 kts | 63° |
| 2026-04-21 06:40 | -31.04103 | 157.33543 | 35139 ft | 535 kts | 63° |
| 2026-04-21 06:40 | -31.00218 | 157.40902 | 35137 ft | 536 kts | 63° |
| 2026-04-21 06:41 | -30.96289 | 157.48290 | 35132 ft | 536 kts | 63° |
| 2026-04-21 06:41 | -30.92356 | 157.55689 | 35160 ft | 536 kts | 63° |
| 2026-04-21 06:42 | -30.88447 | 157.63049 | 35140 ft | 537 kts | 63° |
| 2026-04-21 06:42 | -30.84513 | 157.70443 | 35131 ft | 537 kts | 62° |
| 2026-04-21 06:43 | -30.80573 | 157.77830 | 35133 ft | 536 kts | 62° |
| 2026-04-21 06:43 | -30.76627 | 157.85209 | 35120 ft | 536 kts | 62° |
| 2026-04-21 06:44 | -30.72706 | 157.92528 | 35127 ft | 536 kts | 62° |
| 2026-04-21 06:44 | -30.68756 | 157.99887 | 35122 ft | 536 kts | 62° |
| 2026-04-21 06:45 | -30.64808 | 158.07228 | 35109 ft | 535 kts | 62° |
| 2026-04-21 06:45 | -30.60860 | 158.14553 | 35108 ft | 535 kts | 62° |
| 2026-04-21 06:46 | -30.56907 | 158.21876 | 35130 ft | 535 kts | 62° |
| 2026-04-21 06:46 | -30.52966 | 158.29164 | 35109 ft | 535 kts | 62° |
| 2026-04-21 06:47 | -30.49007 | 158.36471 | 35111 ft | 534 kts | 62° |
| 2026-04-21 06:47 | -30.45069 | 158.43726 | 35102 ft | 534 kts | 62° |
| 2026-04-21 06:48 | -30.41100 | 158.51024 | 35101 ft | 534 kts | 62° |
| 2026-04-21 06:48 | -30.37132 | 158.58306 | 35102 ft | 534 kts | 62° |
| 2026-04-21 06:49 | -30.33159 | 158.65587 | 35100 ft | 535 kts | 62° |
| 2026-04-21 06:49 | -30.29201 | 158.72825 | 35100 ft | 535 kts | 62° |
| 2026-04-21 06:50 | -30.25216 | 158.80100 | 35095 ft | 535 kts | 61° |
| 2026-04-21 06:50 | -30.21226 | 158.87371 | 35127 ft | 535 kts | 61° |
| 2026-04-21 06:51 | -30.17219 | 158.94659 | 35104 ft | 536 kts | 61° |
| 2026-04-21 06:51 | -30.13892 | 159.00699 | 35105 ft | 536 kts | 61° |
| 2026-04-21 06:52 | -30.09227 | 159.09154 | 35106 ft | 536 kts | 61° |
| 2026-04-21 06:52 | -30.05866 | 159.15237 | 35097 ft | 535 kts | 60° |
| 2026-04-21 06:53 | -30.01876 | 159.22444 | 35098 ft | 536 kts | 60° |
| 2026-04-21 06:53 | -29.97859 | 159.29686 | 35089 ft | 535 kts | 60° |
| 2026-04-21 06:54 | -29.93842 | 159.36916 | 35094 ft | 535 kts | 60° |
| 2026-04-21 06:54 | -29.89819 | 159.44143 | 35086 ft | 534 kts | 60° |
| 2026-04-21 06:55 | -29.85821 | 159.51314 | 35071 ft | 534 kts | 60° |
| 2026-04-21 06:55 | -29.81791 | 159.58531 | 35090 ft | 534 kts | 59° |
| 2026-04-21 06:56 | -29.77793 | 159.65673 | 35093 ft | 534 kts | 59° |
| 2026-04-21 06:56 | -29.73761 | 159.72865 | 35083 ft | 534 kts | 59° |
| 2026-04-21 06:57 | -29.69724 | 159.80055 | 35071 ft | 534 kts | 59° |
| 2026-04-21 06:57 | -29.65716 | 159.87180 | 35082 ft | 534 kts | 59° |
| 2026-04-21 06:58 | -29.61677 | 159.94349 | 35073 ft | 534 kts | 59° |
| 2026-04-21 06:58 | -29.57634 | 160.01510 | 35072 ft | 534 kts | 59° |
| 2026-04-21 06:59 | -29.53586 | 160.08668 | 35067 ft | 534 kts | 59° |
| 2026-04-21 06:59 | -29.49556 | 160.15782 | 35068 ft | 534 kts | 59° |
| 2026-04-21 07:00 | -29.45500 | 160.22929 | 35072 ft | 534 kts | 58° |
| 2026-04-21 07:00 | -29.41440 | 160.30073 | 35062 ft | 534 kts | 58° |
| 2026-04-21 07:01 | -29.37373 | 160.37214 | 35059 ft | 534 kts | 58° |
| 2026-04-21 07:01 | -29.31302 | 160.47852 | 35053 ft | 534 kts | 58° |
| 2026-04-21 07:02 | -29.27217 | 160.54994 | 35080 ft | 534 kts | 58° |
| 2026-04-21 07:02 | -29.23131 | 160.62126 | 35058 ft | 535 kts | 58° |
| 2026-04-21 07:03 | -29.19044 | 160.69247 | 35059 ft | 535 kts | 58° |
| 2026-04-21 07:03 | -29.14977 | 160.76322 | 35056 ft | 535 kts | 58° |
| 2026-04-21 07:04 | -29.10883 | 160.83432 | 35056 ft | 535 kts | 58° |
| 2026-04-21 07:04 | -29.06782 | 160.90541 | 35048 ft | 535 kts | 58° |
| 2026-04-21 07:05 | -29.02703 | 160.97600 | 35059 ft | 535 kts | 58° |
| 2026-04-21 07:05 | -28.98597 | 161.04696 | 35042 ft | 535 kts | 57° |
| 2026-04-21 07:06 | -28.94479 | 161.11796 | 35040 ft | 535 kts | 57° |
| 2026-04-21 07:06 | -28.90361 | 161.18886 | 35035 ft | 536 kts | 57° |
| 2026-04-21 07:07 | -28.86256 | 161.25944 | 35037 ft | 537 kts | 57° |
| 2026-04-21 07:07 | -28.82115 | 161.33050 | 35041 ft | 537 kts | 57° |
| 2026-04-21 07:08 | -28.78001 | 161.40097 | 35024 ft | 537 kts | 56° |
| 2026-04-21 07:08 | -28.73852 | 161.47193 | 35022 ft | 538 kts | 56° |
| 2026-04-21 07:09 | -28.69689 | 161.54300 | 35036 ft | 538 kts | 56° |
| 2026-04-21 07:09 | -28.65545 | 161.61364 | 35040 ft | 539 kts | 56° |
| 2026-04-21 07:10 | -28.61369 | 161.68470 | 35041 ft | 540 kts | 55° |
| 2026-04-21 07:10 | -28.57185 | 161.75577 | 35044 ft | 540 kts | 55° |
| 2026-04-21 07:11 | -28.53015 | 161.82650 | 35039 ft | 540 kts | 54° |
| 2026-04-21 07:11 | -28.48819 | 161.89754 | 35028 ft | 541 kts | 54° |
| 2026-04-21 07:12 | -28.44606 | 161.96873 | 35037 ft | 542 kts | 54° |
| 2026-04-21 07:12 | -28.40415 | 162.03946 | 35036 ft | 542 kts | 54° |
| 2026-04-21 07:13 | -28.36194 | 162.11057 | 35042 ft | 542 kts | 54° |
| 2026-04-21 07:13 | -28.31970 | 162.18163 | 35019 ft | 542 kts | 54° |
| 2026-04-21 07:14 | -28.27734 | 162.25275 | 35024 ft | 543 kts | 54° |
| 2026-04-21 07:14 | -28.23520 | 162.32339 | 35024 ft | 544 kts | 53° |
| 2026-04-21 07:15 | -28.19268 | 162.39453 | 35021 ft | 545 kts | 53° |
| 2026-04-21 07:15 | -28.15001 | 162.46580 | 35029 ft | 545 kts | 53° |
| 2026-04-21 07:16 | -28.10736 | 162.53695 | 34995 ft | 546 kts | 53° |
| 2026-04-21 07:16 | -28.06491 | 162.60765 | 35032 ft | 546 kts | 52° |
| 2026-04-21 07:17 | -28.02199 | 162.67900 | 35008 ft | 548 kts | 52° |
| 2026-04-21 07:17 | -27.97891 | 162.75047 | 35018 ft | 549 kts | 52° |
| 2026-04-21 07:18 | -27.93611 | 162.82142 | 35023 ft | 549 kts | 52° |
| 2026-04-21 07:18 | -27.89292 | 162.89293 | 35030 ft | 550 kts | 52° |
| 2026-04-21 07:19 | -27.84971 | 162.96441 | 35017 ft | 550 kts | 51° |
| 2026-04-21 07:19 | -27.80633 | 163.03591 | 35010 ft | 551 kts | 51° |
| 2026-04-21 07:20 | -27.76296 | 163.10693 | 35018 ft | 551 kts | 51° |
| 2026-04-21 07:20 | -27.71945 | 163.17834 | 35024 ft | 552 kts | 51° |
| 2026-04-21 07:21 | -27.67588 | 163.24988 | 35019 ft | 552 kts | 51° |
| 2026-04-21 07:21 | -27.63255 | 163.32092 | 34996 ft | 552 kts | 50° |
| 2026-04-21 07:22 | -27.58901 | 163.39211 | 35018 ft | 551 kts | 50° |
| 2026-04-21 07:22 | -27.54536 | 163.46332 | 35016 ft | 550 kts | 50° |
| 2026-04-21 07:23 | -27.50207 | 163.53385 | 35019 ft | 550 kts | 50° |
| 2026-04-21 07:23 | -27.45845 | 163.60480 | 35017 ft | 550 kts | 50° |
| 2026-04-21 07:24 | -27.41488 | 163.67558 | 35022 ft | 549 kts | 49° |
| 2026-04-21 07:24 | -27.37156 | 163.74587 | 35015 ft | 548 kts | 48° |
| 2026-04-21 07:25 | -27.32804 | 163.81629 | 35010 ft | 547 kts | 48° |
| 2026-04-21 07:25 | -27.28455 | 163.88657 | 35005 ft | 547 kts | 48° |
| 2026-04-21 07:26 | -27.24134 | 163.95628 | 35000 ft | 546 kts | 48° |
| 2026-04-21 07:26 | -27.19779 | 164.02646 | 35000 ft | 546 kts | 47° |
| 2026-04-21 07:27 | -27.15426 | 164.09649 | 34999 ft | 546 kts | 47° |
| 2026-04-21 07:27 | -27.11085 | 164.16623 | 35003 ft | 544 kts | 47° |
| 2026-04-21 07:28 | -27.06762 | 164.23551 | 35001 ft | 544 kts | 47° |
| 2026-04-21 07:28 | -27.02411 | 164.30517 | 35001 ft | 544 kts | 47° |
| 2026-04-21 07:29 | -26.98079 | 164.37442 | 35011 ft | 544 kts | 46° |
| 2026-04-21 07:29 | -26.93718 | 164.44405 | 35012 ft | 544 kts | 46° |
| 2026-04-21 07:30 | -26.89358 | 164.51352 | 35007 ft | 543 kts | 46° |
| 2026-04-21 07:30 | -26.85033 | 164.58233 | 35004 ft | 543 kts | 46° |
| 2026-04-21 07:31 | -26.80674 | 164.65158 | 34996 ft | 542 kts | 46° |
| 2026-04-21 07:31 | -26.76350 | 164.72017 | 34984 ft | 542 kts | 46° |
| 2026-04-21 07:32 | -26.71997 | 164.78914 | 35005 ft | 540 kts | 46° |
| 2026-04-21 07:32 | -26.67652 | 164.85783 | 35005 ft | 540 kts | 46° |
| 2026-04-21 07:33 | -26.63342 | 164.92592 | 35004 ft | 537 kts | 45° |
| 2026-04-21 07:33 | -26.59017 | 164.99410 | 35002 ft | 537 kts | 45° |
| 2026-04-21 07:34 | -26.54693 | 165.06216 | 34991 ft | 536 kts | 45° |
| 2026-04-21 07:34 | -26.50376 | 165.13002 | 34992 ft | 535 kts | 45° |
| 2026-04-21 07:35 | -26.46082 | 165.19741 | 34987 ft | 535 kts | 45° |
| 2026-04-21 07:35 | -26.41759 | 165.26515 | 34989 ft | 535 kts | 45° |
| 2026-04-21 07:36 | -26.37470 | 165.33230 | 34984 ft | 533 kts | 45° |
| 2026-04-21 07:36 | -26.33157 | 165.39968 | 34984 ft | 533 kts | 45° |
| 2026-04-21 07:37 | -26.28839 | 165.46705 | 34988 ft | 534 kts | 45° |
| 2026-04-21 07:37 | -26.24536 | 165.53408 | 34989 ft | 534 kts | 45° |
| 2026-04-21 07:38 | -26.20206 | 165.60144 | 34992 ft | 535 kts | 45° |
| 2026-04-21 07:38 | -26.15872 | 165.66877 | 34992 ft | 535 kts | 44° |
| 2026-04-21 07:39 | -26.11561 | 165.73565 | 35000 ft | 534 kts | 44° |
| 2026-04-21 07:39 | -26.07227 | 165.80280 | 35000 ft | 533 kts | 44° |
| 2026-04-21 07:40 | -26.02895 | 165.86981 | 35007 ft | 533 kts | 44° |
| 2026-04-21 07:40 | -25.98564 | 165.93669 | 35000 ft | 532 kts | 44° |
| 2026-04-21 07:41 | -25.94965 | 165.99219 | 34993 ft | 531 kts | 44° |
| 2026-04-21 07:41 | -25.89936 | 166.06965 | 34987 ft | 530 kts | 44° |
| 2026-04-21 07:42 | -25.86354 | 166.12478 | 34988 ft | 528 kts | 43° |
| 2026-04-21 07:42 | -25.82045 | 166.19098 | 34988 ft | 527 kts | 42° |
| 2026-04-21 07:43 | -25.77036 | 166.26775 | 34981 ft | 527 kts | 42° |
| 2026-04-21 07:43 | -25.73458 | 166.32254 | 34979 ft | 527 kts | 42° |
| 2026-04-21 07:44 | -25.69159 | 166.38829 | 34980 ft | 526 kts | 42° |
| 2026-04-21 07:44 | -25.64844 | 166.45418 | 34979 ft | 526 kts | 42° |
| 2026-04-21 07:45 | -25.60568 | 166.51943 | 34973 ft | 525 kts | 41° |
| 2026-04-21 07:45 | -25.56272 | 166.58486 | 34986 ft | 524 kts | 41° |
| 2026-04-21 07:46 | -25.51969 | 166.65028 | 34986 ft | 524 kts | 41° |
| 2026-04-21 07:46 | -25.47699 | 166.71513 | 34986 ft | 524 kts | 41° |
| 2026-04-21 07:47 | -25.43400 | 166.78034 | 34984 ft | 524 kts | 41° |
| 2026-04-21 07:47 | -25.39097 | 166.84550 | 34983 ft | 524 kts | 41° |
| 2026-04-21 07:48 | -25.34791 | 166.91068 | 34974 ft | 522 kts | 40° |
| 2026-04-21 07:48 | -25.30531 | 166.97505 | 34994 ft | 521 kts | 40° |
| 2026-04-21 07:49 | -25.26245 | 167.03965 | 34988 ft | 520 kts | 40° |
| 2026-04-21 07:49 | -25.21959 | 167.10421 | 34986 ft | 520 kts | 40° |
| 2026-04-21 07:50 | -25.17678 | 167.16861 | 34985 ft | 520 kts | 40° |
| 2026-04-21 07:50 | -25.13417 | 167.23261 | 34960 ft | 519 kts | 39° |
| 2026-04-21 07:51 | -25.09137 | 167.29685 | 34960 ft | 518 kts | 39° |
| 2026-04-21 07:51 | -25.04895 | 167.36041 | 34981 ft | 517 kts | 39° |
| 2026-04-21 07:52 | -25.00621 | 167.42434 | 34977 ft | 517 kts | 39° |
| 2026-04-21 07:52 | -24.96339 | 167.48831 | 34982 ft | 517 kts | 39° |
| 2026-04-21 07:53 | -24.92090 | 167.55172 | 34985 ft | 518 kts | 39° |
| 2026-04-21 07:53 | -24.87807 | 167.61563 | 34993 ft | 517 kts | 39° |
| 2026-04-21 07:54 | -24.83528 | 167.67939 | 34991 ft | 517 kts | 39° |
| 2026-04-21 07:54 | -24.79243 | 167.74312 | 34968 ft | 517 kts | 39° |
| 2026-04-21 07:55 | -24.74978 | 167.80621 | 34972 ft | 517 kts | 39° |
| 2026-04-21 07:55 | -24.70680 | 167.86977 | 34977 ft | 518 kts | 39° |
| 2026-04-21 07:56 | -24.66376 | 167.93349 | 34982 ft | 518 kts | 39° |
| 2026-04-21 07:56 | -24.62090 | 167.99690 | 34990 ft | 518 kts | 39° |
| 2026-04-21 07:57 | -24.57776 | 168.06060 | 35000 ft | 519 kts | 39° |
| 2026-04-21 07:57 | -24.53461 | 168.12420 | 34963 ft | 519 kts | 39° |
| 2026-04-21 07:58 | -24.49177 | 168.18728 | 34993 ft | 518 kts | 39° |
| 2026-04-21 07:58 | -24.44862 | 168.25071 | 34990 ft | 518 kts | 39° |
| 2026-04-21 07:59 | -24.40537 | 168.31422 | 34989 ft | 518 kts | 39° |
| 2026-04-21 07:59 | -24.36257 | 168.37700 | 34996 ft | 516 kts | 39° |
| 2026-04-21 08:00 | -24.31956 | 168.43998 | 34999 ft | 515 kts | 39° |
| 2026-04-21 08:00 | -24.27654 | 168.50291 | 34990 ft | 515 kts | 39° |
| 2026-04-21 08:01 | -24.23371 | 168.56546 | 34986 ft | 515 kts | 39° |
| 2026-04-21 08:02 | -24.16922 | 168.65952 | 34984 ft | 514 kts | 39° |
| 2026-04-21 08:02 | -24.12618 | 168.72220 | 34990 ft | 513 kts | 39° |
| 2026-04-21 08:03 | -24.08325 | 168.78464 | 34989 ft | 513 kts | 39° |
| 2026-04-21 08:03 | -24.04059 | 168.84660 | 34985 ft | 512 kts | 39° |
| 2026-04-21 08:04 | -23.99759 | 168.90897 | 34985 ft | 512 kts | 39° |
| 2026-04-21 08:04 | -23.95496 | 168.97075 | 34987 ft | 511 kts | 39° |
| 2026-04-21 08:05 | -23.91211 | 169.03275 | 34987 ft | 510 kts | 39° |
| 2026-04-21 08:05 | -23.86921 | 169.09474 | 34986 ft | 510 kts | 39° |
| 2026-04-21 08:06 | -23.82659 | 169.15626 | 34985 ft | 510 kts | 39° |
| 2026-04-21 08:06 | -23.78368 | 169.21812 | 34987 ft | 510 kts | 39° |
| 2026-04-21 08:07 | -23.74068 | 169.28003 | 34994 ft | 510 kts | 39° |
| 2026-04-21 08:07 | -23.69791 | 169.34154 | 34941 ft | 511 kts | 39° |
| 2026-04-21 08:08 | -23.65501 | 169.40318 | 34999 ft | 509 kts | 39° |
| 2026-04-21 08:08 | -23.61199 | 169.46488 | 34991 ft | 509 kts | 39° |
| 2026-04-21 08:09 | -23.56935 | 169.52597 | 34995 ft | 509 kts | 39° |
| 2026-04-21 08:09 | -23.52631 | 169.58757 | 34995 ft | 510 kts | 39° |
| 2026-04-21 08:10 | -23.48326 | 169.64911 | 34996 ft | 510 kts | 39° |
| 2026-04-21 08:10 | -23.44023 | 169.71054 | 34998 ft | 510 kts | 39° |
| 2026-04-21 08:11 | -23.39745 | 169.77154 | 34963 ft | 509 kts | 40° |
| 2026-04-21 08:11 | -23.35431 | 169.83296 | 34974 ft | 510 kts | 40° |
| 2026-04-21 08:12 | -23.31108 | 169.89445 | 34977 ft | 511 kts | 40° |
| 2026-04-21 08:12 | -23.26802 | 169.95563 | 34990 ft | 513 kts | 40° |
| 2026-04-21 08:13 | -23.22452 | 170.01736 | 34996 ft | 514 kts | 40° |
| 2026-04-21 08:13 | -23.18095 | 170.07913 | 35002 ft | 514 kts | 40° |
| 2026-04-21 08:14 | -23.13761 | 170.14050 | 35004 ft | 515 kts | 40° |
| 2026-04-21 08:14 | -23.09395 | 170.20223 | 35006 ft | 513 kts | 40° |
| 2026-04-21 08:15 | -23.05045 | 170.26368 | 34997 ft | 513 kts | 40° |
| 2026-04-21 08:15 | -23.00688 | 170.32514 | 34995 ft | 512 kts | 40° |
| 2026-04-21 08:16 | -22.96363 | 170.38608 | 34996 ft | 512 kts | 40° |
| 2026-04-21 08:16 | -22.92010 | 170.44733 | 34988 ft | 512 kts | 40° |
| 2026-04-21 08:17 | -22.87659 | 170.50850 | 35003 ft | 511 kts | 40° |
| 2026-04-21 08:17 | -22.83308 | 170.56957 | 35001 ft | 510 kts | 40° |
| 2026-04-21 08:18 | -22.78994 | 170.63007 | 34994 ft | 509 kts | 41° |
| 2026-04-21 08:18 | -22.74649 | 170.69094 | 34990 ft | 509 kts | 41° |
| 2026-04-21 08:19 | -22.70309 | 170.75166 | 34990 ft | 509 kts | 41° |
| 2026-04-21 08:19 | -22.65995 | 170.81194 | 34990 ft | 509 kts | 41° |
| 2026-04-21 08:20 | -22.61649 | 170.87260 | 34989 ft | 509 kts | 41° |
| 2026-04-21 08:20 | -22.57304 | 170.93318 | 35021 ft | 507 kts | 41° |
| 2026-04-21 08:21 | -22.52998 | 170.99317 | 35012 ft | 507 kts | 41° |
| 2026-04-21 08:21 | -22.48683 | 171.05318 | 35013 ft | 504 kts | 42° |
| 2026-04-21 08:22 | -22.44381 | 171.11297 | 35003 ft | 503 kts | 41° |
| 2026-04-21 08:22 | -22.40112 | 171.17221 | 34997 ft | 501 kts | 41° |
| 2026-04-21 08:23 | -22.35823 | 171.23168 | 34994 ft | 500 kts | 41° |
| 2026-04-21 08:23 | -22.31546 | 171.29089 | 34963 ft | 499 kts | 42° |
| 2026-04-21 08:24 | -22.27286 | 171.34979 | 34952 ft | 500 kts | 42° |
| 2026-04-21 08:24 | -22.22990 | 171.40915 | 34960 ft | 501 kts | 42° |
| 2026-04-21 08:25 | -22.18686 | 171.46856 | 34969 ft | 502 kts | 43° |
| 2026-04-21 08:25 | -22.14394 | 171.52777 | 34978 ft | 504 kts | 43° |
| 2026-04-21 08:26 | -22.10068 | 171.58738 | 34990 ft | 505 kts | 43° |
| 2026-04-21 08:26 | -22.05741 | 171.64678 | 35012 ft | 506 kts | 43° |
| 2026-04-21 08:27 | -22.01373 | 171.70669 | 34996 ft | 508 kts | 43° |
| 2026-04-21 08:27 | -21.97003 | 171.76665 | 35003 ft | 509 kts | 43° |
| 2026-04-21 08:28 | -21.92648 | 171.82639 | 34996 ft | 509 kts | 43° |
| 2026-04-21 08:28 | -21.88256 | 171.88651 | 35000 ft | 509 kts | 43° |
| 2026-04-21 08:29 | -21.83868 | 171.94651 | 34993 ft | 510 kts | 43° |
| 2026-04-21 08:29 | -21.79506 | 172.00609 | 34997 ft | 510 kts | 43° |
| 2026-04-21 08:30 | -21.75111 | 172.06605 | 34993 ft | 509 kts | 43° |
| 2026-04-21 08:30 | -21.70719 | 172.12592 | 34993 ft | 509 kts | 43° |
| 2026-04-21 08:31 | -21.66321 | 172.18577 | 34992 ft | 509 kts | 43° |
| 2026-04-21 08:31 | -21.61930 | 172.24549 | 34989 ft | 509 kts | 43° |
| 2026-04-21 08:32 | -21.57568 | 172.30472 | 34991 ft | 507 kts | 44° |
| 2026-04-21 08:32 | -21.53188 | 172.36416 | 34989 ft | 506 kts | 43° |
| 2026-04-21 08:33 | -21.48829 | 172.42323 | 34985 ft | 505 kts | 44° |
| 2026-04-21 08:33 | -21.44465 | 172.48233 | 34995 ft | 504 kts | 44° |
| 2026-04-21 08:34 | -21.40128 | 172.54098 | 34984 ft | 504 kts | 44° |
| 2026-04-21 08:34 | -21.35764 | 172.59993 | 34986 ft | 503 kts | 44° |
| 2026-04-21 08:35 | -21.32139 | 172.64886 | 34987 ft | 503 kts | 44° |
| 2026-04-21 08:35 | -21.27784 | 172.70757 | 34981 ft | 503 kts | 44° |
| 2026-04-21 08:36 | -21.23427 | 172.76627 | 34975 ft | 502 kts | 44° |
| 2026-04-21 08:36 | -21.19067 | 172.82493 | 34979 ft | 503 kts | 44° |
| 2026-04-21 08:37 | -21.14730 | 172.88322 | 34977 ft | 503 kts | 44° |
| 2026-04-21 08:37 | -21.10355 | 172.94196 | 34979 ft | 503 kts | 44° |
| 2026-04-21 08:38 | -21.05999 | 173.00038 | 34983 ft | 503 kts | 44° |
| 2026-04-21 08:38 | -21.01620 | 173.05905 | 34986 ft | 504 kts | 44° |
| 2026-04-21 08:39 | -20.97270 | 173.11727 | 34977 ft | 504 kts | 44° |
| 2026-04-21 08:39 | -20.92878 | 173.17600 | 34979 ft | 505 kts | 44° |
| 2026-04-21 08:40 | -20.88479 | 173.23475 | 34979 ft | 506 kts | 44° |
| 2026-04-21 08:40 | -20.84070 | 173.29359 | 34983 ft | 506 kts | 44° |
| 2026-04-21 08:41 | -20.79675 | 173.35216 | 34992 ft | 507 kts | 44° |
| 2026-04-21 08:41 | -20.75250 | 173.41110 | 34995 ft | 508 kts | 44° |
| 2026-04-21 08:42 | -20.70855 | 173.46955 | 34996 ft | 508 kts | 44° |
| 2026-04-21 08:42 | -20.66426 | 173.52841 | 34981 ft | 508 kts | 44° |
| 2026-04-21 08:43 | -20.61992 | 173.58727 | 34992 ft | 507 kts | 44° |
| 2026-04-21 08:43 | -20.57586 | 173.64569 | 34992 ft | 507 kts | 44° |
| 2026-04-21 08:44 | -20.53147 | 173.70450 | 34990 ft | 507 kts | 44° |
| 2026-04-21 08:44 | -20.48737 | 173.76285 | 34986 ft | 507 kts | 44° |
| 2026-04-21 08:45 | -20.44300 | 173.82151 | 34986 ft | 507 kts | 44° |
| 2026-04-21 08:45 | -20.39864 | 173.88010 | 34980 ft | 507 kts | 44° |
| 2026-04-21 08:46 | -20.35457 | 173.93824 | 34984 ft | 506 kts | 45° |
| 2026-04-21 08:46 | -20.31022 | 173.99669 | 34988 ft | 505 kts | 45° |
| 2026-04-21 08:47 | -20.26602 | 174.05488 | 34983 ft | 504 kts | 45° |
| 2026-04-21 08:47 | -20.22211 | 174.11264 | 34973 ft | 504 kts | 45° |
| 2026-04-21 08:48 | -20.17794 | 174.17068 | 34969 ft | 503 kts | 45° |
| 2026-04-21 08:48 | -20.13382 | 174.22860 | 34967 ft | 503 kts | 45° |
| 2026-04-21 08:49 | -20.08996 | 174.28611 | 34961 ft | 503 kts | 45° |
| 2026-04-21 08:49 | -20.04585 | 174.34389 | 34935 ft | 503 kts | 45° |
| 2026-04-21 08:50 | -20.00164 | 174.40174 | 34933 ft | 504 kts | 45° |
| 2026-04-21 08:50 | -19.95733 | 174.45969 | 34944 ft | 505 kts | 45° |
| 2026-04-21 08:51 | -19.91317 | 174.51736 | 34960 ft | 507 kts | 45° |
| 2026-04-21 08:51 | -19.86850 | 174.57566 | 34972 ft | 508 kts | 45° |
| 2026-04-21 08:52 | -19.82368 | 174.63409 | 34978 ft | 509 kts | 45° |
| 2026-04-21 08:52 | -19.77914 | 174.69210 | 34973 ft | 510 kts | 45° |
| 2026-04-21 08:53 | -19.73422 | 174.75055 | 34978 ft | 511 kts | 45° |
| 2026-04-21 08:53 | -19.68923 | 174.80901 | 34967 ft | 511 kts | 46° |
| 2026-04-21 08:54 | -19.64418 | 174.86753 | 34968 ft | 511 kts | 46° |
| 2026-04-21 08:54 | -19.59936 | 174.92567 | 34970 ft | 511 kts | 46° |
| 2026-04-21 08:55 | -19.55424 | 174.98416 | 34971 ft | 511 kts | 46° |
| 2026-04-21 08:55 | -19.50909 | 175.04261 | 34970 ft | 511 kts | 46° |
| 2026-04-21 08:56 | -19.46428 | 175.10057 | 34981 ft | 511 kts | 46° |
| 2026-04-21 08:56 | -19.41916 | 175.15888 | 34965 ft | 510 kts | 46° |
| 2026-04-21 08:57 | -19.37409 | 175.21707 | 34967 ft | 510 kts | 46° |
| 2026-04-21 08:57 | -19.32933 | 175.27482 | 34969 ft | 509 kts | 46° |
| 2026-04-21 08:58 | -19.28433 | 175.33286 | 34974 ft | 509 kts | 46° |
| 2026-04-21 08:58 | -19.23927 | 175.39085 | 34961 ft | 509 kts | 46° |
| 2026-04-21 08:59 | -19.19453 | 175.44834 | 34980 ft | 508 kts | 46° |
| 2026-04-21 08:59 | -19.14959 | 175.50608 | 34976 ft | 508 kts | 46° |
| 2026-04-21 09:00 | -19.10462 | 175.56381 | 34972 ft | 507 kts | 46° |
| 2026-04-21 09:00 | -19.05967 | 175.62145 | 34952 ft | 506 kts | 46° |
| 2026-04-21 09:01 | -19.01514 | 175.67852 | 34967 ft | 505 kts | 46° |
| 2026-04-21 09:01 | -18.97033 | 175.73589 | 34961 ft | 505 kts | 46° |
| 2026-04-21 09:02 | -18.92561 | 175.79308 | 34950 ft | 504 kts | 46° |
| 2026-04-21 09:02 | -18.88121 | 175.84982 | 34966 ft | 503 kts | 46° |
| 2026-04-21 09:03 | -18.81432 | 175.93519 | 34966 ft | 502 kts | 46° |
| 2026-04-21 09:03 | -18.76973 | 175.99204 | 34956 ft | 502 kts | 46° |
| 2026-04-21 09:04 | -18.72531 | 176.04860 | 34938 ft | 501 kts | 47° |
| 2026-04-21 09:04 | -18.68078 | 176.10522 | 34950 ft | 501 kts | 46° |
| 2026-04-21 09:05 | -18.63643 | 176.16153 | 34951 ft | 501 kts | 46° |
| 2026-04-21 09:05 | -18.59177 | 176.21820 | 34949 ft | 501 kts | 46° |
| 2026-04-21 09:06 | -18.54710 | 176.27482 | 34957 ft | 502 kts | 46° |
| 2026-04-21 09:06 | -18.50269 | 176.33106 | 34954 ft | 502 kts | 46° |
| 2026-04-21 09:07 | -18.45789 | 176.38774 | 34958 ft | 503 kts | 46° |
| 2026-04-21 09:07 | -18.41308 | 176.44439 | 34961 ft | 503 kts | 46° |
| 2026-04-21 09:08 | -18.36850 | 176.50069 | 34959 ft | 503 kts | 47° |
| 2026-04-21 09:08 | -18.32363 | 176.55733 | 34960 ft | 503 kts | 47° |
| 2026-04-21 09:09 | -18.27868 | 176.61400 | 34962 ft | 503 kts | 47° |
| 2026-04-21 09:09 | -18.23404 | 176.67023 | 34963 ft | 503 kts | 47° |
| 2026-04-21 09:10 | -18.18910 | 176.72679 | 34964 ft | 503 kts | 47° |
| 2026-04-21 09:10 | -18.14419 | 176.78326 | 34960 ft | 503 kts | 47° |
| 2026-04-21 09:11 | -18.09929 | 176.83968 | 34963 ft | 503 kts | 47° |
| 2026-04-21 09:11 | -18.05433 | 176.89613 | 34960 ft | 502 kts | 46° |
| 2026-04-21 09:12 | -18.00965 | 176.95218 | 34950 ft | 502 kts | 47° |
| 2026-04-21 09:12 | -17.96484 | 177.00836 | 34964 ft | 501 kts | 47° |
| 2026-04-21 09:13 | -17.91997 | 177.06455 | 34958 ft | 500 kts | 47° |
| 2026-04-21 09:13 | -17.87549 | 177.12020 | 34953 ft | 500 kts | 47° |
| 2026-04-21 09:14 | -17.83073 | 177.17616 | 34944 ft | 499 kts | 46° |
| 2026-04-21 09:14 | -17.78601 | 177.23203 | 34966 ft | 499 kts | 46° |
| 2026-04-21 09:15 | -17.74126 | 177.28787 | 34975 ft | 499 kts | 46° |
| 2026-04-21 09:15 | -17.69681 | 177.34330 | 34985 ft | 499 kts | 47° |
| 2026-04-21 09:16 | -17.65253 | 177.39957 | 34987 ft | 501 kts | 51° |
| 2026-04-21 09:16 | -17.61362 | 177.46035 | 34983 ft | 502 kts | 53° |
| 2026-04-21 09:17 | -17.57498 | 177.52118 | 34953 ft | 502 kts | 53° |
| 2026-04-21 09:17 | -17.53611 | 177.58219 | 34968 ft | 502 kts | 53° |
| 2026-04-21 09:18 | -17.49748 | 177.64280 | 34972 ft | 503 kts | 53° |
| 2026-04-21 09:18 | -17.45859 | 177.70375 | 34967 ft | 503 kts | 53° |
| 2026-04-21 09:19 | -17.41973 | 177.76461 | 34982 ft | 502 kts | 53° |
| 2026-04-21 09:19 | -17.38103 | 177.82516 | 34973 ft | 502 kts | 53° |
| 2026-04-21 09:20 | -17.34214 | 177.88596 | 34969 ft | 501 kts | 53° |
| 2026-04-21 09:20 | -17.30328 | 177.94666 | 34956 ft | 501 kts | 53° |
| 2026-04-21 09:21 | -17.26467 | 178.00691 | 34961 ft | 501 kts | 53° |
| 2026-04-21 09:21 | -17.22578 | 178.06754 | 34975 ft | 501 kts | 53° |
| 2026-04-21 09:22 | -17.18687 | 178.12815 | 34964 ft | 501 kts | 53° |
| 2026-04-21 09:22 | -17.14828 | 178.18822 | 34963 ft | 501 kts | 53° |
| 2026-04-21 09:23 | -17.10935 | 178.24876 | 34962 ft | 501 kts | 53° |
| 2026-04-21 09:23 | -17.07033 | 178.30939 | 34965 ft | 501 kts | 53° |
| 2026-04-21 09:24 | -17.03152 | 178.36963 | 34954 ft | 501 kts | 53° |
| 2026-04-21 09:24 | -16.99249 | 178.43015 | 34962 ft | 502 kts | 53° |
| 2026-04-21 09:25 | -16.95366 | 178.49032 | 34956 ft | 502 kts | 53° |
| 2026-04-21 09:25 | -16.91452 | 178.55092 | 34962 ft | 503 kts | 53° |
| 2026-04-21 09:26 | -16.87537 | 178.61149 | 34968 ft | 503 kts | 53° |
| 2026-04-21 09:26 | -16.84274 | 178.66192 | 34978 ft | 504 kts | 53° |
| 2026-04-21 09:27 | -16.80344 | 178.72261 | 34976 ft | 504 kts | 53° |
| 2026-04-21 09:27 | -16.76409 | 178.78334 | 34986 ft | 504 kts | 53° |
| 2026-04-21 09:28 | -16.72494 | 178.84371 | 34989 ft | 504 kts | 53° |
| 2026-04-21 09:28 | -16.68560 | 178.90431 | 34990 ft | 503 kts | 53° |
| 2026-04-21 09:29 | -16.64626 | 178.96486 | 34988 ft | 503 kts | 53° |
| 2026-04-21 09:29 | -16.60720 | 179.02491 | 34979 ft | 502 kts | 53° |
| 2026-04-21 09:30 | -16.56797 | 179.08519 | 34977 ft | 502 kts | 53° |
| 2026-04-21 09:30 | -16.52873 | 179.14544 | 34972 ft | 501 kts | 53° |
| 2026-04-21 09:31 | -16.48954 | 179.20555 | 34969 ft | 501 kts | 52° |
| 2026-04-21 09:31 | -16.45060 | 179.26523 | 34986 ft | 500 kts | 52° |
| 2026-04-21 09:32 | -16.41142 | 179.32522 | 34982 ft | 499 kts | 52° |
| 2026-04-21 09:32 | -16.37105 | 179.38391 | 34977 ft | 498 kts | 51° |
| 2026-04-21 09:33 | -16.33055 | 179.44208 | 34962 ft | 497 kts | 51° |
| 2026-04-21 09:33 | -16.29012 | 179.50057 | 34961 ft | 497 kts | 51° |
| 2026-04-21 09:34 | -16.24971 | 179.55914 | 34960 ft | 497 kts | 51° |
| 2026-04-21 09:34 | -16.20957 | 179.61726 | 34960 ft | 497 kts | 51° |
| 2026-04-21 09:35 | -16.16913 | 179.67574 | 34972 ft | 496 kts | 51° |
| 2026-04-21 09:35 | -16.12878 | 179.73405 | 34968 ft | 496 kts | 51° |
| 2026-04-21 09:36 | -16.08841 | 179.79232 | 34965 ft | 495 kts | 51° |
| 2026-04-21 09:36 | -16.04830 | 179.85018 | 34961 ft | 495 kts | 51° |
| 2026-04-21 09:37 | -16.00795 | 179.90833 | 34955 ft | 495 kts | 51° |
| 2026-04-21 09:37 | -15.96765 | 179.96637 | 34951 ft | 495 kts | 51° |
| 2026-04-21 09:38 | -15.92748 | -179.97582 | 34958 ft | 495 kts | 51° |
| 2026-04-21 09:38 | -15.88715 | -179.91783 | 34958 ft | 494 kts | 51° |
| 2026-04-21 09:39 | -15.84708 | -179.86025 | 34960 ft | 495 kts | 51° |
| 2026-04-21 09:39 | -15.80670 | -179.80227 | 34960 ft | 495 kts | 51° |
| 2026-04-21 09:40 | -15.76631 | -179.74432 | 34961 ft | 495 kts | 51° |
| 2026-04-21 09:40 | -15.72617 | -179.68679 | 34961 ft | 495 kts | 51° |
| 2026-04-21 09:41 | -15.68570 | -179.62881 | 34961 ft | 495 kts | 51° |
| 2026-04-21 09:41 | -15.64547 | -179.57123 | 34962 ft | 495 kts | 51° |
| 2026-04-21 09:42 | -15.60500 | -179.51336 | 34964 ft | 495 kts | 51° |
| 2026-04-21 09:42 | -15.56446 | -179.45542 | 34963 ft | 495 kts | 51° |
| 2026-04-21 09:43 | -15.52419 | -179.39792 | 34960 ft | 495 kts | 51° |
| 2026-04-21 09:43 | -15.48374 | -179.34020 | 34961 ft | 495 kts | 51° |
| 2026-04-21 09:44 | -15.44315 | -179.28232 | 34960 ft | 495 kts | 51° |
| 2026-04-21 09:44 | -15.40291 | -179.22499 | 34950 ft | 495 kts | 51° |
| 2026-04-21 09:45 | -15.36236 | -179.16727 | 34945 ft | 495 kts | 51° |
| 2026-04-21 09:45 | -15.32178 | -179.10953 | 34955 ft | 495 kts | 51° |
| 2026-04-21 09:46 | -15.28132 | -179.05202 | 34955 ft | 496 kts | 52° |
| 2026-04-21 09:46 | -15.24065 | -178.99425 | 34958 ft | 496 kts | 52° |
| 2026-04-21 09:47 | -15.19992 | -178.93643 | 34960 ft | 497 kts | 52° |
| 2026-04-21 09:47 | -15.15907 | -178.87850 | 34963 ft | 497 kts | 52° |
| 2026-04-21 09:48 | -15.11822 | -178.82061 | 34957 ft | 497 kts | 52° |
| 2026-04-21 09:48 | -15.07761 | -178.76309 | 34960 ft | 498 kts | 52° |
| 2026-04-21 09:49 | -15.03672 | -178.70522 | 34964 ft | 498 kts | 52° |
| 2026-04-21 09:49 | -14.99576 | -178.64730 | 34965 ft | 498 kts | 52° |
| 2026-04-21 09:50 | -14.95479 | -178.58941 | 34961 ft | 498 kts | 52° |
| 2026-04-21 09:50 | -14.91404 | -178.53187 | 34957 ft | 498 kts | 52° |
| 2026-04-21 09:51 | -14.87304 | -178.47402 | 34956 ft | 498 kts | 52° |
| 2026-04-21 09:51 | -14.83204 | -178.41621 | 34952 ft | 499 kts | 52° |
| 2026-04-21 09:52 | -14.79092 | -178.35827 | 34955 ft | 499 kts | 52° |
| 2026-04-21 09:52 | -14.75012 | -178.30080 | 34958 ft | 499 kts | 52° |
| 2026-04-21 09:53 | -14.70898 | -178.24291 | 34959 ft | 499 kts | 52° |
| 2026-04-21 09:53 | -14.66776 | -178.18497 | 34961 ft | 500 kts | 52° |
| 2026-04-21 09:54 | -14.62684 | -178.12751 | 34961 ft | 500 kts | 52° |
| 2026-04-21 09:54 | -14.58559 | -178.06961 | 34978 ft | 499 kts | 52° |
| 2026-04-21 09:55 | -14.54444 | -178.01188 | 34970 ft | 499 kts | 52° |
| 2026-04-21 09:55 | -14.50329 | -177.95419 | 34961 ft | 498 kts | 52° |
| 2026-04-21 09:56 | -14.46243 | -177.89696 | 34959 ft | 498 kts | 52° |
| 2026-04-21 09:56 | -14.42138 | -177.83948 | 34954 ft | 497 kts | 52° |
| 2026-04-21 09:57 | -14.38023 | -177.78192 | 34956 ft | 497 kts | 52° |
| 2026-04-21 09:57 | -14.33917 | -177.72453 | 34952 ft | 497 kts | 52° |
| 2026-04-21 09:58 | -14.29841 | -177.66759 | 34963 ft | 496 kts | 52° |
| 2026-04-21 09:58 | -14.25739 | -177.61033 | 34958 ft | 496 kts | 52° |
| 2026-04-21 09:59 | -14.21631 | -177.55302 | 34958 ft | 496 kts | 52° |
| 2026-04-21 09:59 | -14.17529 | -177.49585 | 34955 ft | 496 kts | 52° |
| 2026-04-21 10:00 | -14.13424 | -177.43865 | 34964 ft | 495 kts | 52° |
| 2026-04-21 10:00 | -14.09349 | -177.38194 | 34960 ft | 495 kts | 52° |
| 2026-04-21 10:01 | -14.05238 | -177.32475 | 34961 ft | 496 kts | 52° |
| 2026-04-21 10:01 | -14.01129 | -177.26763 | 34951 ft | 496 kts | 52° |
| 2026-04-21 10:02 | -13.94963 | -177.18198 | 34961 ft | 496 kts | 52° |
| 2026-04-21 10:03 | -13.90876 | -177.12527 | 34956 ft | 496 kts | 52° |
| 2026-04-21 10:03 | -13.86758 | -177.06816 | 34958 ft | 496 kts | 52° |
| 2026-04-21 10:04 | -13.82658 | -177.01134 | 34952 ft | 496 kts | 52° |
| 2026-04-21 10:04 | -13.78539 | -176.95429 | 34962 ft | 496 kts | 52° |
| 2026-04-21 10:05 | -13.74414 | -176.89720 | 34960 ft | 497 kts | 52° |
| 2026-04-21 10:05 | -13.70280 | -176.84002 | 34960 ft | 497 kts | 52° |
| 2026-04-21 10:06 | -13.66176 | -176.78329 | 34959 ft | 497 kts | 52° |
| 2026-04-21 10:06 | -13.62040 | -176.72617 | 34954 ft | 498 kts | 52° |
| 2026-04-21 10:07 | -13.57899 | -176.66900 | 34964 ft | 498 kts | 52° |
| 2026-04-21 10:07 | -13.53781 | -176.61220 | 34964 ft | 498 kts | 52° |
| 2026-04-21 10:08 | -13.49640 | -176.55511 | 34968 ft | 498 kts | 52° |
| 2026-04-21 10:08 | -13.45487 | -176.49791 | 34957 ft | 498 kts | 53° |
| 2026-04-21 10:09 | -13.41357 | -176.44105 | 34961 ft | 498 kts | 53° |
| 2026-04-21 10:09 | -13.37206 | -176.38394 | 34958 ft | 499 kts | 53° |
| 2026-04-21 10:10 | -13.33072 | -176.32708 | 34961 ft | 499 kts | 53° |
| 2026-04-21 10:10 | -13.28914 | -176.26991 | 34959 ft | 499 kts | 53° |
| 2026-04-21 10:11 | -13.24748 | -176.21269 | 34967 ft | 499 kts | 53° |
| 2026-04-21 10:11 | -13.20944 | -176.15359 | 34956 ft | 499 kts | 58° |
| 2026-04-21 10:12 | -13.17230 | -176.09316 | 34953 ft | 499 kts | 58° |
| 2026-04-21 10:12 | -13.13527 | -176.03314 | 34957 ft | 500 kts | 58° |
| 2026-04-21 10:13 | -13.09795 | -175.97278 | 34955 ft | 500 kts | 58° |
| 2026-04-21 10:13 | -13.06065 | -175.91249 | 34957 ft | 500 kts | 58° |
| 2026-04-21 10:14 | -13.02353 | -175.85255 | 34959 ft | 500 kts | 58° |
| 2026-04-21 10:14 | -12.98619 | -175.79230 | 34957 ft | 500 kts | 58° |
| 2026-04-21 10:15 | -12.94883 | -175.73206 | 34961 ft | 500 kts | 58° |
| 2026-04-21 10:15 | -12.91142 | -175.67179 | 34961 ft | 500 kts | 58° |
| 2026-04-21 10:16 | -12.87427 | -175.61197 | 34957 ft | 500 kts | 57° |
| 2026-04-21 10:16 | -12.83686 | -175.55177 | 34956 ft | 500 kts | 57° |
| 2026-04-21 10:17 | -12.79948 | -175.49166 | 34950 ft | 500 kts | 57° |
| 2026-04-21 10:17 | -12.76230 | -175.43192 | 34945 ft | 500 kts | 57° |
| 2026-04-21 10:18 | -12.72489 | -175.37186 | 34950 ft | 500 kts | 58° |
| 2026-04-21 10:18 | -12.68747 | -175.31179 | 34946 ft | 500 kts | 58° |
| 2026-04-21 10:19 | -12.65020 | -175.25202 | 34949 ft | 500 kts | 58° |
| 2026-04-21 10:19 | -12.61272 | -175.19195 | 34952 ft | 500 kts | 58° |
| 2026-04-21 10:20 | -12.58156 | -175.14203 | 34949 ft | 500 kts | 58° |
| 2026-04-21 10:20 | -12.54402 | -175.08194 | 34953 ft | 500 kts | 58° |
| 2026-04-21 10:21 | -12.50036 | -175.01209 | 34946 ft | 501 kts | 58° |
| 2026-04-21 10:21 | -12.46909 | -174.96210 | 34947 ft | 501 kts | 58° |
| 2026-04-21 10:22 | -12.43141 | -174.90190 | 34951 ft | 502 kts | 58° |
| 2026-04-21 10:22 | -12.39375 | -174.84176 | 34953 ft | 502 kts | 58° |
| 2026-04-21 10:23 | -12.35598 | -174.78149 | 34961 ft | 502 kts | 58° |
| 2026-04-21 10:23 | -12.31852 | -174.72176 | 34980 ft | 501 kts | 58° |
| 2026-04-21 10:24 | -12.28082 | -174.66168 | 34968 ft | 500 kts | 59° |
| 2026-04-21 10:24 | -12.24341 | -174.60209 | 34954 ft | 500 kts | 58° |
| 2026-04-21 10:25 | -12.20581 | -174.54224 | 34953 ft | 499 kts | 58° |
| 2026-04-21 10:25 | -12.16829 | -174.48255 | 34947 ft | 499 kts | 58° |
| 2026-04-21 10:26 | -12.13061 | -174.42266 | 34935 ft | 499 kts | 58° |
| 2026-04-21 10:26 | -12.09329 | -174.36337 | 34943 ft | 499 kts | 58° |
| 2026-04-21 10:27 | -12.05572 | -174.30372 | 34945 ft | 499 kts | 58° |
| 2026-04-21 10:27 | -12.01827 | -174.24430 | 34934 ft | 500 kts | 59° |
| 2026-04-21 10:28 | -11.98050 | -174.18441 | 34945 ft | 501 kts | 58° |
| 2026-04-21 10:28 | -11.94269 | -174.12448 | 34961 ft | 501 kts | 58° |
| 2026-04-21 10:29 | -11.90485 | -174.06455 | 34960 ft | 501 kts | 59° |
| 2026-04-21 10:29 | -11.86722 | -174.00499 | 34960 ft | 502 kts | 58° |
| 2026-04-21 10:30 | -11.82937 | -173.94512 | 34962 ft | 501 kts | 58° |
| 2026-04-21 10:30 | -11.79150 | -173.88523 | 34973 ft | 500 kts | 58° |
| 2026-04-21 10:31 | -11.75372 | -173.82555 | 34963 ft | 500 kts | 58° |
| 2026-04-21 10:31 | -11.71599 | -173.76597 | 34956 ft | 499 kts | 58° |
| 2026-04-21 10:32 | -11.67859 | -173.70695 | 34947 ft | 498 kts | 58° |
| 2026-04-21 10:32 | -11.64094 | -173.64758 | 34942 ft | 497 kts | 58° |
| 2026-04-21 10:33 | -11.60357 | -173.58868 | 34945 ft | 497 kts | 58° |
| 2026-04-21 10:33 | -11.56592 | -173.52937 | 34948 ft | 497 kts | 58° |
| 2026-04-21 10:34 | -11.52829 | -173.47012 | 34945 ft | 497 kts | 58° |
| 2026-04-21 10:34 | -11.49102 | -173.41148 | 34946 ft | 497 kts | 58° |
| 2026-04-21 10:35 | -11.45332 | -173.35219 | 34949 ft | 497 kts | 58° |
| 2026-04-21 10:35 | -11.41565 | -173.29299 | 34944 ft | 497 kts | 58° |
| 2026-04-21 10:36 | -11.37818 | -173.23414 | 34946 ft | 497 kts | 58° |
| 2026-04-21 10:36 | -11.34044 | -173.17489 | 34947 ft | 498 kts | 58° |
| 2026-04-21 10:37 | -11.30267 | -173.11564 | 34949 ft | 498 kts | 58° |
| 2026-04-21 10:37 | -11.26512 | -173.05676 | 34949 ft | 498 kts | 58° |
| 2026-04-21 10:38 | -11.22735 | -172.99758 | 34944 ft | 498 kts | 58° |
| 2026-04-21 10:38 | -11.18954 | -172.93835 | 34962 ft | 497 kts | 58° |
| 2026-04-21 10:39 | -11.15204 | -172.87967 | 34960 ft | 496 kts | 58° |
| 2026-04-21 10:39 | -11.11439 | -172.82076 | 34951 ft | 496 kts | 58° |
| 2026-04-21 10:40 | -11.07676 | -172.76192 | 34951 ft | 495 kts | 58° |
| 2026-04-21 10:40 | -11.03914 | -172.70314 | 34948 ft | 494 kts | 58° |
| 2026-04-21 10:41 | -11.00181 | -172.64483 | 34941 ft | 494 kts | 58° |
| 2026-04-21 10:41 | -10.96428 | -172.58624 | 34934 ft | 494 kts | 58° |
| 2026-04-21 10:42 | -10.92666 | -172.52755 | 34931 ft | 494 kts | 58° |
| 2026-04-21 10:42 | -10.88905 | -172.46891 | 34936 ft | 494 kts | 58° |
| 2026-04-21 10:43 | -10.85145 | -172.41032 | 34942 ft | 494 kts | 58° |
| 2026-04-21 10:43 | -10.81402 | -172.35202 | 34943 ft | 495 kts | 58° |
| 2026-04-21 10:44 | -10.77630 | -172.29332 | 34953 ft | 495 kts | 58° |
| 2026-04-21 10:44 | -10.73885 | -172.23504 | 34963 ft | 494 kts | 58° |
| 2026-04-21 10:45 | -10.70110 | -172.17634 | 34952 ft | 494 kts | 58° |
| 2026-04-21 10:45 | -10.66362 | -172.11810 | 34948 ft | 494 kts | 58° |
| 2026-04-21 10:46 | -10.62578 | -172.05932 | 34939 ft | 494 kts | 58° |
| 2026-04-21 10:46 | -10.58836 | -172.00122 | 34943 ft | 494 kts | 58° |
| 2026-04-21 10:47 | -10.55068 | -171.94276 | 34936 ft | 494 kts | 58° |
| 2026-04-21 10:47 | -10.51299 | -171.88430 | 34929 ft | 494 kts | 58° |
| 2026-04-21 10:48 | -10.47529 | -171.82587 | 34929 ft | 494 kts | 57° |
| 2026-04-21 10:48 | -10.43777 | -171.76775 | 34930 ft | 494 kts | 57° |
| 2026-04-21 10:49 | -10.40003 | -171.70931 | 34935 ft | 494 kts | 58° |
| 2026-04-21 10:49 | -10.36223 | -171.65081 | 34939 ft | 495 kts | 58° |
| 2026-04-21 10:50 | -10.32461 | -171.59263 | 34933 ft | 495 kts | 58° |
| 2026-04-21 10:50 | -10.28669 | -171.53399 | 34938 ft | 496 kts | 58° |
| 2026-04-21 10:51 | -10.24877 | -171.47541 | 34949 ft | 496 kts | 58° |
| 2026-04-21 10:51 | -10.21107 | -171.41718 | 34948 ft | 496 kts | 58° |
| 2026-04-21 10:52 | -10.17309 | -171.35855 | 34948 ft | 496 kts | 58° |
| 2026-04-21 10:52 | -10.13504 | -171.29986 | 34942 ft | 496 kts | 58° |
| 2026-04-21 10:53 | -10.09726 | -171.24158 | 34943 ft | 496 kts | 58° |
| 2026-04-21 10:53 | -10.05917 | -171.18285 | 34937 ft | 496 kts | 58° |
| 2026-04-21 10:54 | -10.02138 | -171.12461 | 34939 ft | 496 kts | 58° |
| 2026-04-21 10:54 | -9.97939 | -171.06881 | 34935 ft | 498 kts | 49° |
| 2026-04-21 10:55 | -9.93234 | -171.01772 | 34928 ft | 498 kts | 49° |
| 2026-04-21 10:55 | -9.88528 | -170.96606 | 34933 ft | 498 kts | 49° |
| 2026-04-21 10:56 | -9.83817 | -170.91439 | 34939 ft | 498 kts | 49° |
| 2026-04-21 10:56 | -9.79127 | -170.86304 | 34941 ft | 498 kts | 49° |
| 2026-04-21 10:57 | -9.74407 | -170.81139 | 34939 ft | 498 kts | 49° |
| 2026-04-21 10:57 | -9.69692 | -170.75981 | 34936 ft | 498 kts | 49° |
| 2026-04-21 10:58 | -9.65005 | -170.70856 | 34933 ft | 498 kts | 49° |
| 2026-04-21 10:58 | -9.60284 | -170.65697 | 34932 ft | 498 kts | 49° |
| 2026-04-21 10:59 | -9.55559 | -170.60536 | 34934 ft | 498 kts | 49° |
| 2026-04-21 10:59 | -9.50872 | -170.55417 | 34934 ft | 498 kts | 49° |
| 2026-04-21 11:00 | -9.46149 | -170.50262 | 34945 ft | 499 kts | 49° |
| 2026-04-21 11:00 | -9.41419 | -170.45102 | 34930 ft | 499 kts | 49° |
| 2026-04-21 11:01 | -9.36685 | -170.39939 | 34931 ft | 499 kts | 49° |
| 2026-04-21 11:01 | -9.31985 | -170.34816 | 34927 ft | 500 kts | 49° |
| 2026-04-21 11:02 | -9.24874 | -170.27069 | 34930 ft | 500 kts | 49° |
| 2026-04-21 11:02 | -9.20134 | -170.21908 | 34932 ft | 500 kts | 49° |
| 2026-04-21 11:03 | -9.15394 | -170.16748 | 34934 ft | 500 kts | 49° |
| 2026-04-21 11:03 | -9.10668 | -170.11608 | 34931 ft | 501 kts | 49° |
| 2026-04-21 11:04 | -9.05916 | -170.06439 | 34933 ft | 501 kts | 49° |
| 2026-04-21 11:04 | -9.01188 | -170.01299 | 34934 ft | 501 kts | 49° |
| 2026-04-21 11:05 | -8.96772 | -169.95873 | 34927 ft | 499 kts | 54° |
| 2026-04-21 11:05 | -8.92492 | -169.90373 | 34916 ft | 499 kts | 54° |
| 2026-04-21 11:06 | -8.88182 | -169.84843 | 34921 ft | 500 kts | 54° |
| 2026-04-21 11:06 | -8.83874 | -169.79314 | 34923 ft | 500 kts | 54° |
| 2026-04-21 11:07 | -8.79560 | -169.73779 | 34919 ft | 501 kts | 54° |
| 2026-04-21 11:07 | -8.75269 | -169.68276 | 34921 ft | 501 kts | 54° |
| 2026-04-21 11:08 | -8.70946 | -169.62733 | 34923 ft | 501 kts | 54° |
| 2026-04-21 11:08 | -8.66643 | -169.57219 | 34924 ft | 501 kts | 54° |
| 2026-04-21 11:09 | -8.62319 | -169.51680 | 34929 ft | 501 kts | 54° |
| 2026-04-21 11:09 | -8.57993 | -169.46141 | 34929 ft | 501 kts | 54° |
| 2026-04-21 11:10 | -8.53665 | -169.40603 | 34915 ft | 502 kts | 54° |
| 2026-04-21 11:10 | -8.49356 | -169.35091 | 34918 ft | 502 kts | 54° |
| 2026-04-21 11:11 | -8.45015 | -169.29542 | 34921 ft | 503 kts | 54° |
| 2026-04-21 11:11 | -8.40669 | -169.23987 | 34923 ft | 503 kts | 54° |
| 2026-04-21 11:12 | -8.36343 | -169.18462 | 34925 ft | 503 kts | 54° |
| 2026-04-21 11:12 | -8.32721 | -169.13836 | 34924 ft | 504 kts | 54° |
| 2026-04-21 11:13 | -8.28365 | -169.08276 | 34926 ft | 504 kts | 54° |
| 2026-04-21 11:13 | -8.24012 | -169.02721 | 34921 ft | 504 kts | 54° |
| 2026-04-21 11:14 | -8.19685 | -168.97202 | 34920 ft | 504 kts | 54° |
| 2026-04-21 11:14 | -8.15317 | -168.91633 | 34920 ft | 505 kts | 54° |
| 2026-04-21 11:15 | -8.10956 | -168.86075 | 34922 ft | 505 kts | 54° |
| 2026-04-21 11:15 | -8.06616 | -168.80546 | 34922 ft | 505 kts | 54° |
| 2026-04-21 11:16 | -8.02254 | -168.74991 | 34927 ft | 505 kts | 54° |
| 2026-04-21 11:16 | -7.97883 | -168.69427 | 34923 ft | 505 kts | 54° |
| 2026-04-21 11:17 | -7.93513 | -168.63866 | 34917 ft | 505 kts | 54° |
| 2026-04-21 11:17 | -7.89165 | -168.58335 | 34917 ft | 505 kts | 54° |
| 2026-04-21 11:18 | -7.84786 | -168.52767 | 34917 ft | 505 kts | 54° |
| 2026-04-21 11:18 | -7.80408 | -168.47202 | 34923 ft | 505 kts | 54° |
| 2026-04-21 11:19 | -7.76061 | -168.41679 | 34926 ft | 505 kts | 53° |
| 2026-04-21 11:19 | -7.71683 | -168.36119 | 34924 ft | 505 kts | 53° |
| 2026-04-21 11:20 | -7.67312 | -168.30569 | 34914 ft | 505 kts | 53° |
| 2026-04-21 11:20 | -7.62967 | -168.25054 | 34916 ft | 504 kts | 53° |
| 2026-04-21 11:21 | -7.58599 | -168.19512 | 34915 ft | 504 kts | 53° |
| 2026-04-21 11:21 | -7.54228 | -168.13969 | 34912 ft | 504 kts | 53° |
| 2026-04-21 11:22 | -7.49886 | -168.08464 | 34912 ft | 504 kts | 53° |
| 2026-04-21 11:22 | -7.45513 | -168.02922 | 34911 ft | 504 kts | 53° |
| 2026-04-21 11:23 | -7.41137 | -167.97378 | 34917 ft | 504 kts | 53° |
| 2026-04-21 11:23 | -7.36797 | -167.91881 | 34919 ft | 504 kts | 53° |
| 2026-04-21 11:24 | -7.32421 | -167.86342 | 34917 ft | 505 kts | 53° |
| 2026-04-21 11:24 | -7.28042 | -167.80799 | 34914 ft | 505 kts | 53° |
| 2026-04-21 11:25 | -7.23658 | -167.75253 | 34909 ft | 505 kts | 53° |
| 2026-04-21 11:25 | -7.19303 | -167.69745 | 34914 ft | 505 kts | 53° |
| 2026-04-21 11:26 | -7.14914 | -167.64196 | 34914 ft | 506 kts | 53° |
| 2026-04-21 11:26 | -7.10525 | -167.58650 | 34917 ft | 506 kts | 53° |
| 2026-04-21 11:27 | -7.06155 | -167.53129 | 34903 ft | 507 kts | 53° |
| 2026-04-21 11:27 | -7.01754 | -167.47570 | 34922 ft | 507 kts | 53° |
| 2026-04-21 11:28 | -6.97341 | -167.42000 | 34924 ft | 508 kts | 53° |
| 2026-04-21 11:28 | -6.92959 | -167.36468 | 34917 ft | 508 kts | 53° |
| 2026-04-21 11:29 | -6.88546 | -167.30900 | 34914 ft | 508 kts | 53° |
| 2026-04-21 11:29 | -6.84125 | -167.25325 | 34920 ft | 508 kts | 53° |
| 2026-04-21 11:30 | -6.79707 | -167.19754 | 34920 ft | 508 kts | 53° |
| 2026-04-21 11:30 | -6.75321 | -167.14226 | 34919 ft | 509 kts | 53° |
| 2026-04-21 11:31 | -6.70904 | -167.08660 | 34901 ft | 509 kts | 53° |
| 2026-04-21 11:31 | -6.66485 | -167.03094 | 34903 ft | 509 kts | 53° |
| 2026-04-21 11:32 | -6.62072 | -166.97537 | 34929 ft | 507 kts | 53° |
| 2026-04-21 11:32 | -6.57661 | -166.91985 | 34919 ft | 506 kts | 53° |
| 2026-04-21 11:33 | -6.53290 | -166.86485 | 34904 ft | 506 kts | 53° |
| 2026-04-21 11:33 | -6.48884 | -166.80941 | 34893 ft | 505 kts | 53° |
| 2026-04-21 11:34 | -6.44490 | -166.75414 | 34894 ft | 505 kts | 53° |
| 2026-04-21 11:34 | -6.40126 | -166.69927 | 34895 ft | 506 kts | 53° |
| 2026-04-21 11:35 | -6.35724 | -166.64394 | 34897 ft | 506 kts | 53° |
| 2026-04-21 11:35 | -6.31321 | -166.58863 | 34898 ft | 506 kts | 53° |
| 2026-04-21 11:36 | -6.26917 | -166.53331 | 34920 ft | 506 kts | 53° |
| 2026-04-21 11:36 | -6.22530 | -166.47823 | 34921 ft | 506 kts | 53° |
| 2026-04-21 11:37 | -6.18122 | -166.42289 | 34902 ft | 506 kts | 53° |
| 2026-04-21 11:37 | -6.13751 | -166.36803 | 34899 ft | 505 kts | 53° |
| 2026-04-21 11:38 | -6.09349 | -166.31281 | 34905 ft | 505 kts | 53° |
| 2026-04-21 11:38 | -6.04953 | -166.25767 | 34902 ft | 505 kts | 53° |
| 2026-04-21 11:39 | -6.00587 | -166.20292 | 34899 ft | 504 kts | 53° |
| 2026-04-21 11:39 | -5.96189 | -166.14779 | 34901 ft | 504 kts | 53° |
| 2026-04-21 11:40 | -5.91822 | -166.09307 | 34899 ft | 504 kts | 53° |
| 2026-04-21 11:40 | -5.87431 | -166.03807 | 34918 ft | 503 kts | 54° |
| 2026-04-21 11:41 | -5.83047 | -165.98316 | 34921 ft | 502 kts | 54° |
| 2026-04-21 11:41 | -5.78677 | -165.92844 | 34901 ft | 501 kts | 54° |
| 2026-04-21 11:42 | -5.74338 | -165.87412 | 34898 ft | 501 kts | 54° |
| 2026-04-21 11:42 | -5.69976 | -165.81953 | 34895 ft | 500 kts | 54° |
| 2026-04-21 11:43 | -5.65619 | -165.76503 | 34902 ft | 500 kts | 54° |
| 2026-04-21 11:43 | -5.61296 | -165.71096 | 34898 ft | 499 kts | 54° |
| 2026-04-21 11:44 | -5.56945 | -165.65654 | 34897 ft | 499 kts | 54° |
| 2026-04-21 11:44 | -5.52591 | -165.60212 | 34895 ft | 499 kts | 54° |
| 2026-04-21 11:45 | -5.48275 | -165.54818 | 34903 ft | 498 kts | 54° |
| 2026-04-21 11:45 | -5.43925 | -165.49382 | 34897 ft | 498 kts | 54° |
| 2026-04-21 11:46 | -5.39613 | -165.43995 | 34893 ft | 497 kts | 54° |
| 2026-04-21 11:46 | -5.35270 | -165.38573 | 34896 ft | 497 kts | 54° |
| 2026-04-21 11:47 | -5.30928 | -165.33151 | 34893 ft | 497 kts | 54° |
| 2026-04-21 11:47 | -5.26586 | -165.27732 | 34895 ft | 497 kts | 54° |
| 2026-04-21 11:48 | -5.22274 | -165.22351 | 34896 ft | 497 kts | 54° |
| 2026-04-21 11:48 | -5.17935 | -165.16937 | 34897 ft | 498 kts | 54° |
| 2026-04-21 11:49 | -5.13617 | -165.11551 | 34891 ft | 498 kts | 54° |
| 2026-04-21 11:49 | -5.09267 | -165.06126 | 34897 ft | 498 kts | 54° |
| 2026-04-21 11:50 | -5.04921 | -165.00709 | 34895 ft | 498 kts | 54° |
| 2026-04-21 11:50 | -5.00602 | -164.95326 | 34896 ft | 498 kts | 54° |
| 2026-04-21 11:51 | -4.96253 | -164.89906 | 34895 ft | 498 kts | 54° |
| 2026-04-21 11:51 | -4.91910 | -164.84495 | 34893 ft | 498 kts | 54° |
| 2026-04-21 11:52 | -4.87565 | -164.79083 | 34895 ft | 498 kts | 54° |
| 2026-04-21 11:52 | -4.83237 | -164.73694 | 34895 ft | 498 kts | 54° |
| 2026-04-21 11:53 | -4.78909 | -164.68305 | 34897 ft | 497 kts | 54° |
| 2026-04-21 11:53 | -4.74559 | -164.62891 | 34898 ft | 497 kts | 54° |
| 2026-04-21 11:54 | -4.70213 | -164.57483 | 34891 ft | 497 kts | 54° |
| 2026-04-21 11:54 | -4.65870 | -164.52079 | 34890 ft | 497 kts | 54° |
| 2026-04-21 11:55 | -4.61547 | -164.46703 | 34886 ft | 497 kts | 54° |
| 2026-04-21 11:55 | -4.57199 | -164.41295 | 34887 ft | 497 kts | 54° |
| 2026-04-21 11:56 | -4.52879 | -164.35924 | 34891 ft | 497 kts | 54° |
| 2026-04-21 11:56 | -4.48529 | -164.30517 | 34895 ft | 497 kts | 54° |
| 2026-04-21 11:57 | -4.44201 | -164.25138 | 34890 ft | 497 kts | 54° |
| 2026-04-21 11:57 | -4.39850 | -164.19732 | 34891 ft | 497 kts | 54° |
| 2026-04-21 11:58 | -4.35506 | -164.14335 | 34895 ft | 497 kts | 54° |
| 2026-04-21 11:58 | -4.31161 | -164.08939 | 34892 ft | 497 kts | 54° |
| 2026-04-21 11:59 | -4.26845 | -164.03580 | 34890 ft | 496 kts | 54° |
| 2026-04-21 11:59 | -4.22497 | -163.98182 | 34888 ft | 496 kts | 54° |
| 2026-04-21 12:00 | -4.18184 | -163.92827 | 34875 ft | 496 kts | 54° |
| 2026-04-21 12:00 | -4.13843 | -163.87440 | 34889 ft | 496 kts | 54° |
| 2026-04-21 12:01 | -4.09522 | -163.82078 | 34883 ft | 496 kts | 54° |
| 2026-04-21 12:01 | -4.05179 | -163.76691 | 34881 ft | 496 kts | 54° |
| 2026-04-21 12:02 | -3.98691 | -163.68643 | 34883 ft | 496 kts | 54° |
| 2026-04-21 12:03 | -3.94350 | -163.63261 | 34892 ft | 496 kts | 54° |
| 2026-04-21 12:03 | -3.90007 | -163.57878 | 34890 ft | 496 kts | 54° |
| 2026-04-21 12:04 | -3.85665 | -163.52495 | 34889 ft | 496 kts | 54° |
| 2026-04-21 12:04 | -3.81352 | -163.47150 | 34887 ft | 496 kts | 54° |
| 2026-04-21 12:05 | -3.77013 | -163.41774 | 34884 ft | 496 kts | 54° |
| 2026-04-21 12:05 | -3.73401 | -163.37299 | 34882 ft | 495 kts | 54° |
| 2026-04-21 12:06 | -3.69069 | -163.31933 | 34880 ft | 495 kts | 54° |
| 2026-04-21 12:06 | -3.64735 | -163.26565 | 34884 ft | 495 kts | 54° |
| 2026-04-21 12:07 | -3.60422 | -163.21224 | 34885 ft | 495 kts | 54° |
| 2026-04-21 12:07 | -3.56090 | -163.15861 | 34879 ft | 495 kts | 54° |
| 2026-04-21 12:08 | -3.51754 | -163.10494 | 34883 ft | 495 kts | 54° |
| 2026-04-21 12:08 | -3.47422 | -163.05132 | 34881 ft | 495 kts | 54° |
| 2026-04-21 12:09 | -3.43119 | -162.99807 | 34881 ft | 495 kts | 54° |
| 2026-04-21 12:09 | -3.38786 | -162.94447 | 34885 ft | 495 kts | 54° |
| 2026-04-21 12:10 | -3.34478 | -162.89118 | 34886 ft | 494 kts | 54° |
| 2026-04-21 12:10 | -3.30149 | -162.83764 | 34885 ft | 494 kts | 54° |
| 2026-04-21 12:11 | -3.25819 | -162.78408 | 34880 ft | 494 kts | 54° |
| 2026-04-21 12:11 | -3.21489 | -162.73054 | 34880 ft | 494 kts | 54° |
| 2026-04-21 12:12 | -3.17157 | -162.67698 | 34877 ft | 494 kts | 54° |
| 2026-04-21 12:12 | -3.12850 | -162.62375 | 34881 ft | 494 kts | 54° |
| 2026-04-21 12:13 | -3.08519 | -162.57022 | 34884 ft | 494 kts | 54° |
| 2026-04-21 12:13 | -3.04186 | -162.51667 | 34882 ft | 494 kts | 54° |
| 2026-04-21 12:14 | -2.99880 | -162.46347 | 34885 ft | 494 kts | 54° |
| 2026-04-21 12:14 | -2.95547 | -162.40995 | 34882 ft | 494 kts | 54° |
| 2026-04-21 12:15 | -2.91221 | -162.35650 | 34884 ft | 494 kts | 54° |
| 2026-04-21 12:15 | -2.86920 | -162.30336 | 34862 ft | 495 kts | 53° |
| 2026-04-21 12:16 | -2.82577 | -162.24973 | 34872 ft | 496 kts | 53° |
| 2026-04-21 12:16 | -2.78219 | -162.19592 | 34874 ft | 498 kts | 53° |
| 2026-04-21 12:17 | -2.73849 | -162.14198 | 34882 ft | 499 kts | 53° |
| 2026-04-21 12:17 | -2.69475 | -162.08799 | 34887 ft | 500 kts | 53° |
| 2026-04-21 12:18 | -2.65118 | -162.03420 | 34893 ft | 500 kts | 53° |
| 2026-04-21 12:18 | -2.60732 | -161.98008 | 34896 ft | 500 kts | 53° |
| 2026-04-21 12:19 | -2.56345 | -161.92594 | 34897 ft | 500 kts | 53° |
| 2026-04-21 12:19 | -2.51986 | -161.87214 | 34871 ft | 501 kts | 52° |
| 2026-04-21 12:20 | -2.47583 | -161.81784 | 34873 ft | 502 kts | 52° |
| 2026-04-21 12:20 | -2.43174 | -161.76344 | 34875 ft | 503 kts | 52° |
| 2026-04-21 12:21 | -2.38761 | -161.70902 | 34890 ft | 503 kts | 52° |
| 2026-04-21 12:21 | -2.34374 | -161.65492 | 34888 ft | 504 kts | 52° |
| 2026-04-21 12:22 | -2.29949 | -161.60036 | 34889 ft | 504 kts | 52° |
| 2026-04-21 12:22 | -2.25514 | -161.54567 | 34890 ft | 505 kts | 52° |
| 2026-04-21 12:23 | -2.21118 | -161.49148 | 34886 ft | 505 kts | 52° |
| 2026-04-21 12:23 | -2.16693 | -161.43693 | 34883 ft | 505 kts | 52° |
| 2026-04-21 12:24 | -2.12261 | -161.38229 | 34876 ft | 505 kts | 52° |
| 2026-04-21 12:24 | -2.07857 | -161.32803 | 34876 ft | 505 kts | 52° |
| 2026-04-21 12:25 | -2.03422 | -161.27336 | 34881 ft | 505 kts | 52° |
| 2026-04-21 12:25 | -1.98987 | -161.21871 | 34886 ft | 505 kts | 52° |
| 2026-04-21 12:26 | -1.94579 | -161.16440 | 34890 ft | 506 kts | 52° |
| 2026-04-21 12:26 | -1.90138 | -161.10968 | 34885 ft | 506 kts | 52° |
| 2026-04-21 12:27 | -1.85698 | -161.05499 | 34884 ft | 506 kts | 52° |
| 2026-04-21 12:27 | -1.81285 | -161.00064 | 34881 ft | 506 kts | 52° |
| 2026-04-21 12:28 | -1.76842 | -160.94591 | 34877 ft | 506 kts | 52° |
| 2026-04-21 12:28 | -1.72402 | -160.89123 | 34874 ft | 506 kts | 52° |
| 2026-04-21 12:29 | -1.67984 | -160.83682 | 34880 ft | 507 kts | 52° |
| 2026-04-21 12:29 | -1.63526 | -160.78193 | 34885 ft | 507 kts | 52° |
| 2026-04-21 12:30 | -1.59081 | -160.72720 | 34888 ft | 507 kts | 52° |
| 2026-04-21 12:30 | -1.54656 | -160.67272 | 34885 ft | 507 kts | 52° |
| 2026-04-21 12:31 | -1.50200 | -160.61786 | 34879 ft | 507 kts | 52° |
| 2026-04-21 12:31 | -1.45776 | -160.56340 | 34877 ft | 507 kts | 52° |
| 2026-04-21 12:32 | -1.41324 | -160.50860 | 34866 ft | 508 kts | 52° |
| 2026-04-21 12:32 | -1.36865 | -160.45371 | 34875 ft | 508 kts | 51° |
| 2026-04-21 12:33 | -1.32404 | -160.39881 | 34880 ft | 508 kts | 51° |
| 2026-04-21 12:33 | -1.27940 | -160.34388 | 34884 ft | 509 kts | 52° |
| 2026-04-21 12:34 | -1.23497 | -160.28920 | 34883 ft | 509 kts | 52° |
| 2026-04-21 12:34 | -1.19027 | -160.23419 | 34880 ft | 509 kts | 52° |
| 2026-04-21 12:35 | -1.14557 | -160.17919 | 34888 ft | 509 kts | 51° |
| 2026-04-21 12:35 | -1.10092 | -160.12424 | 34890 ft | 509 kts | 51° |
| 2026-04-21 12:36 | -1.05617 | -160.06918 | 34886 ft | 508 kts | 51° |
| 2026-04-21 12:36 | -1.01185 | -160.01466 | 34888 ft | 508 kts | 51° |
| 2026-04-21 12:37 | -0.96740 | -159.95977 | 34884 ft | 507 kts | 51° |
| 2026-04-21 12:37 | -0.92306 | -159.90468 | 34877 ft | 507 kts | 52° |
| 2026-04-21 12:38 | -0.87910 | -159.85008 | 34875 ft | 507 kts | 51° |
| 2026-04-21 12:38 | -0.83480 | -159.79512 | 34871 ft | 507 kts | 51° |
| 2026-04-21 12:39 | -0.79051 | -159.74016 | 34873 ft | 507 kts | 51° |
| 2026-04-21 12:39 | -0.74624 | -159.68524 | 34875 ft | 507 kts | 51° |
| 2026-04-21 12:40 | -0.70223 | -159.63063 | 34875 ft | 507 kts | 51° |
| 2026-04-21 12:40 | -0.65785 | -159.57557 | 34875 ft | 508 kts | 51° |
| 2026-04-21 12:41 | -0.61346 | -159.52051 | 34877 ft | 508 kts | 51° |
| 2026-04-21 12:41 | -0.56934 | -159.46577 | 34880 ft | 508 kts | 51° |
| 2026-04-21 12:42 | -0.52494 | -159.41070 | 34884 ft | 508 kts | 51° |
| 2026-04-21 12:42 | -0.48057 | -159.35565 | 34887 ft | 508 kts | 51° |
| 2026-04-21 12:43 | -0.43614 | -159.30055 | 34886 ft | 508 kts | 51° |
| 2026-04-21 12:43 | -0.39207 | -159.24588 | 34887 ft | 508 kts | 51° |
| 2026-04-21 12:44 | -0.34772 | -159.19087 | 34875 ft | 508 kts | 51° |
| 2026-04-21 12:44 | -0.30358 | -159.13611 | 34861 ft | 509 kts | 51° |
| 2026-04-21 12:45 | -0.25916 | -159.08102 | 34868 ft | 509 kts | 51° |
| 2026-04-21 12:45 | -0.21464 | -159.02581 | 34873 ft | 509 kts | 51° |
| 2026-04-21 12:46 | -0.17041 | -158.97095 | 34886 ft | 509 kts | 51° |
| 2026-04-21 12:46 | -0.12585 | -158.91568 | 34882 ft | 510 kts | 51° |
| 2026-04-21 12:47 | -0.08148 | -158.86065 | 34879 ft | 510 kts | 50° |
| 2026-04-21 12:47 | -0.03693 | -158.80539 | 34880 ft | 511 kts | 51° |
| 2026-04-21 12:48 | 0.00766 | -158.75009 | 34886 ft | 511 kts | 51° |
| 2026-04-21 12:48 | 0.05230 | -158.69472 | 34882 ft | 511 kts | 50° |
| 2026-04-21 12:49 | 0.09691 | -158.63939 | 34886 ft | 511 kts | 50° |
| 2026-04-21 12:49 | 0.14129 | -158.58435 | 34880 ft | 511 kts | 50° |
| 2026-04-21 12:50 | 0.18590 | -158.52903 | 34880 ft | 511 kts | 50° |
| 2026-04-21 12:50 | 0.23058 | -158.47361 | 34876 ft | 511 kts | 50° |
| 2026-04-21 12:51 | 0.27492 | -158.41860 | 34876 ft | 511 kts | 50° |
| 2026-04-21 12:51 | 0.31952 | -158.36329 | 34878 ft | 511 kts | 50° |
| 2026-04-21 12:52 | 0.36416 | -158.30792 | 34875 ft | 511 kts | 50° |
| 2026-04-21 12:52 | 0.40877 | -158.25258 | 34876 ft | 511 kts | 50° |
| 2026-04-21 12:53 | 0.45313 | -158.19756 | 34875 ft | 511 kts | 50° |
| 2026-04-21 12:53 | 0.49780 | -158.14215 | 34882 ft | 511 kts | 50° |
| 2026-04-21 12:54 | 0.54238 | -158.08685 | 34882 ft | 510 kts | 50° |
| 2026-04-21 12:54 | 0.58698 | -158.03153 | 34881 ft | 510 kts | 50° |
| 2026-04-21 12:55 | 0.63123 | -157.97663 | 34875 ft | 510 kts | 50° |
| 2026-04-21 12:55 | 0.67583 | -157.92131 | 34875 ft | 510 kts | 50° |
| 2026-04-21 12:56 | 0.71288 | -157.87535 | 34871 ft | 510 kts | 50° |
| 2026-04-21 12:56 | 0.76480 | -157.81092 | 34869 ft | 511 kts | 50° |
| 2026-04-21 12:57 | 0.80920 | -157.75585 | 34874 ft | 511 kts | 50° |
| 2026-04-21 12:57 | 0.84633 | -157.70977 | 34872 ft | 511 kts | 50° |
| 2026-04-21 12:58 | 0.89102 | -157.65433 | 34875 ft | 511 kts | 50° |
| 2026-04-21 12:58 | 0.93573 | -157.59885 | 34873 ft | 512 kts | 50° |
| 2026-04-21 12:59 | 0.98042 | -157.54339 | 34876 ft | 512 kts | 50° |
| 2026-04-21 12:59 | 1.02483 | -157.48828 | 34875 ft | 512 kts | 50° |
| 2026-04-21 13:00 | 1.06954 | -157.43279 | 34866 ft | 512 kts | 50° |
| 2026-04-21 13:00 | 1.11429 | -157.37726 | 34870 ft | 512 kts | 50° |
| 2026-04-21 13:01 | 1.15907 | -157.32168 | 34876 ft | 512 kts | 50° |
| 2026-04-21 13:01 | 1.20356 | -157.26646 | 34873 ft | 513 kts | 50° |
| 2026-04-21 13:02 | 1.24833 | -157.21089 | 34875 ft | 513 kts | 50° |
| 2026-04-21 13:02 | 1.31550 | -157.12750 | 34876 ft | 513 kts | 50° |
| 2026-04-21 13:03 | 1.35994 | -157.07233 | 34880 ft | 512 kts | 50° |
| 2026-04-21 13:03 | 1.40470 | -157.01677 | 34873 ft | 512 kts | 50° |
| 2026-04-21 13:04 | 1.44941 | -156.96124 | 34865 ft | 512 kts | 50° |
| 2026-04-21 13:04 | 1.49418 | -156.90566 | 34874 ft | 513 kts | 50° |
| 2026-04-21 13:05 | 1.53875 | -156.85031 | 34878 ft | 513 kts | 50° |
| 2026-04-21 13:05 | 1.58351 | -156.79472 | 34875 ft | 513 kts | 50° |
| 2026-04-21 13:06 | 1.62804 | -156.73942 | 34882 ft | 513 kts | 50° |
| 2026-04-21 13:06 | 1.67286 | -156.68374 | 34882 ft | 513 kts | 50° |
| 2026-04-21 13:07 | 1.71766 | -156.62809 | 34871 ft | 513 kts | 50° |
| 2026-04-21 13:07 | 1.76216 | -156.57281 | 34865 ft | 513 kts | 50° |
| 2026-04-21 13:08 | 1.80700 | -156.51709 | 34872 ft | 513 kts | 50° |
| 2026-04-21 13:08 | 1.85178 | -156.46147 | 34871 ft | 513 kts | 50° |
| 2026-04-21 13:09 | 1.89662 | -156.40574 | 34878 ft | 513 kts | 50° |
| 2026-04-21 13:09 | 1.94113 | -156.35043 | 34878 ft | 513 kts | 50° |
| 2026-04-21 13:10 | 1.98600 | -156.29466 | 34877 ft | 514 kts | 50° |
| 2026-04-21 13:10 | 2.03082 | -156.23895 | 34883 ft | 514 kts | 50° |
| 2026-04-21 13:11 | 2.07569 | -156.18317 | 34872 ft | 513 kts | 50° |
| 2026-04-21 13:11 | 2.12017 | -156.12787 | 34880 ft | 513 kts | 50° |
| 2026-04-21 13:12 | 2.16501 | -156.07212 | 34878 ft | 513 kts | 50° |
| 2026-04-21 13:12 | 2.20953 | -156.01676 | 34879 ft | 513 kts | 50° |
| 2026-04-21 13:13 | 2.25434 | -155.96103 | 34874 ft | 513 kts | 50° |
| 2026-04-21 13:13 | 2.29916 | -155.90529 | 34881 ft | 513 kts | 50° |
| 2026-04-21 13:14 | 2.34394 | -155.84959 | 34867 ft | 513 kts | 50° |
| 2026-04-21 13:14 | 2.38850 | -155.79415 | 34871 ft | 513 kts | 50° |
| 2026-04-21 13:15 | 2.43319 | -155.73856 | 34879 ft | 513 kts | 50° |
| 2026-04-21 13:15 | 2.47792 | -155.68290 | 34861 ft | 513 kts | 50° |
| 2026-04-21 13:16 | 2.52247 | -155.62745 | 34864 ft | 513 kts | 50° |
| 2026-04-21 13:16 | 2.56724 | -155.57173 | 34875 ft | 513 kts | 50° |
| 2026-04-21 13:17 | 2.61203 | -155.51598 | 34873 ft | 513 kts | 50° |
| 2026-04-21 13:17 | 2.65658 | -155.46052 | 34872 ft | 513 kts | 50° |
| 2026-04-21 13:18 | 2.70142 | -155.40469 | 34877 ft | 513 kts | 50° |
| 2026-04-21 13:18 | 2.74597 | -155.34921 | 34879 ft | 513 kts | 50° |
| 2026-04-21 13:19 | 2.79079 | -155.29339 | 34858 ft | 513 kts | 50° |
| 2026-04-21 13:19 | 2.83553 | -155.23766 | 34857 ft | 513 kts | 50° |
| 2026-04-21 13:20 | 2.88009 | -155.18215 | 34863 ft | 513 kts | 50° |
| 2026-04-21 13:20 | 2.92490 | -155.12632 | 34869 ft | 513 kts | 50° |
| 2026-04-21 13:21 | 2.96945 | -155.07080 | 34873 ft | 513 kts | 50° |
| 2026-04-21 13:21 | 3.01419 | -155.01505 | 34880 ft | 514 kts | 50° |
| 2026-04-21 13:22 | 3.05871 | -154.95956 | 34881 ft | 513 kts | 50° |
| 2026-04-21 13:22 | 3.10345 | -154.90378 | 34886 ft | 513 kts | 50° |
| 2026-04-21 13:23 | 3.14812 | -154.84808 | 34880 ft | 513 kts | 50° |
| 2026-04-21 13:23 | 3.19280 | -154.79237 | 34868 ft | 513 kts | 50° |
| 2026-04-21 13:24 | 3.23717 | -154.73702 | 34866 ft | 513 kts | 50° |
| 2026-04-21 13:24 | 3.28187 | -154.68127 | 34874 ft | 513 kts | 50° |
| 2026-04-21 13:25 | 3.32656 | -154.62551 | 34874 ft | 513 kts | 50° |
| 2026-04-21 13:25 | 3.37093 | -154.57014 | 34875 ft | 513 kts | 50° |
| 2026-04-21 13:26 | 3.41559 | -154.51441 | 34876 ft | 513 kts | 50° |
| 2026-04-21 13:26 | 3.46024 | -154.45867 | 34855 ft | 513 kts | 50° |
| 2026-04-21 13:27 | 3.50475 | -154.40311 | 34867 ft | 513 kts | 50° |
| 2026-04-21 13:27 | 3.54956 | -154.34716 | 34874 ft | 514 kts | 50° |
| 2026-04-21 13:28 | 3.59408 | -154.29155 | 34879 ft | 514 kts | 50° |
| 2026-04-21 13:28 | 3.63895 | -154.23551 | 34877 ft | 515 kts | 50° |
| 2026-04-21 13:29 | 3.68376 | -154.17952 | 34883 ft | 515 kts | 50° |
| 2026-04-21 13:29 | 3.72857 | -154.12353 | 34881 ft | 515 kts | 50° |
| 2026-04-21 13:30 | 3.77309 | -154.06789 | 34884 ft | 515 kts | 50° |
| 2026-04-21 13:30 | 3.81788 | -154.01190 | 34880 ft | 514 kts | 50° |
| 2026-04-21 13:31 | 3.86264 | -153.95595 | 34866 ft | 514 kts | 50° |
| 2026-04-21 13:31 | 3.90710 | -153.90036 | 34879 ft | 514 kts | 50° |
| 2026-04-21 13:32 | 3.95180 | -153.84445 | 34874 ft | 514 kts | 50° |
| 2026-04-21 13:32 | 3.99651 | -153.78852 | 34878 ft | 514 kts | 50° |
| 2026-04-21 13:33 | 4.04119 | -153.73263 | 34876 ft | 513 kts | 50° |
| 2026-04-21 13:33 | 4.08584 | -153.67675 | 34872 ft | 513 kts | 50° |
| 2026-04-21 13:34 | 4.13053 | -153.62081 | 34855 ft | 514 kts | 50° |
| 2026-04-21 13:34 | 4.17493 | -153.56522 | 34859 ft | 514 kts | 50° |
| 2026-04-21 13:35 | 4.21967 | -153.50920 | 34858 ft | 515 kts | 50° |
| 2026-04-21 13:35 | 4.26429 | -153.45332 | 34875 ft | 516 kts | 50° |
| 2026-04-21 13:36 | 4.30913 | -153.39715 | 34885 ft | 516 kts | 50° |
| 2026-04-21 13:36 | 4.35397 | -153.34097 | 34881 ft | 516 kts | 50° |
| 2026-04-21 13:37 | 4.39879 | -153.28480 | 34887 ft | 515 kts | 50° |
| 2026-04-21 13:37 | 4.44336 | -153.22892 | 34862 ft | 515 kts | 50° |
| 2026-04-21 13:38 | 4.48825 | -153.17265 | 34864 ft | 515 kts | 50° |
| 2026-04-21 13:38 | 4.53298 | -153.11655 | 34874 ft | 514 kts | 50° |
| 2026-04-21 13:39 | 4.57737 | -153.06088 | 34878 ft | 514 kts | 50° |
| 2026-04-21 13:39 | 4.62202 | -153.00486 | 34869 ft | 514 kts | 50° |
| 2026-04-21 13:40 | 4.66675 | -152.94873 | 34864 ft | 513 kts | 50° |
| 2026-04-21 13:40 | 4.71105 | -152.89313 | 34854 ft | 513 kts | 50° |
| 2026-04-21 13:41 | 4.75565 | -152.83714 | 34857 ft | 513 kts | 50° |
| 2026-04-21 13:41 | 4.80027 | -152.78111 | 34873 ft | 513 kts | 50° |
| 2026-04-21 13:42 | 4.84488 | -152.72509 | 34866 ft | 513 kts | 50° |
| 2026-04-21 13:42 | 4.88918 | -152.66942 | 34874 ft | 514 kts | 50° |
| 2026-04-21 13:43 | 4.93379 | -152.61337 | 34879 ft | 514 kts | 50° |
| 2026-04-21 13:43 | 4.97841 | -152.55728 | 34876 ft | 513 kts | 50° |
| 2026-04-21 13:44 | 5.02304 | -152.50118 | 34883 ft | 513 kts | 50° |
| 2026-04-21 13:44 | 5.06733 | -152.44549 | 34873 ft | 513 kts | 50° |
| 2026-04-21 13:45 | 5.11185 | -152.38949 | 34865 ft | 513 kts | 50° |
| 2026-04-21 13:45 | 5.15618 | -152.33372 | 34868 ft | 512 kts | 50° |
| 2026-04-21 13:46 | 5.20067 | -152.27772 | 34861 ft | 512 kts | 50° |
| 2026-04-21 13:46 | 5.24520 | -152.22167 | 34869 ft | 512 kts | 50° |
| 2026-04-21 13:47 | 5.28938 | -152.16604 | 34873 ft | 512 kts | 50° |
| 2026-04-21 13:47 | 5.33382 | -152.11008 | 34869 ft | 511 kts | 50° |
| 2026-04-21 13:48 | 5.37068 | -152.06365 | 34871 ft | 511 kts | 50° |
| 2026-04-21 13:48 | 5.42223 | -151.99868 | 34855 ft | 512 kts | 50° |
| 2026-04-21 13:49 | 5.45943 | -151.95180 | 34876 ft | 512 kts | 50° |
| 2026-04-21 13:49 | 5.50360 | -151.89612 | 34883 ft | 512 kts | 50° |
| 2026-04-21 13:50 | 5.54805 | -151.84007 | 34879 ft | 513 kts | 50° |
| 2026-04-21 13:50 | 5.59253 | -151.78396 | 34879 ft | 513 kts | 50° |
| 2026-04-21 13:51 | 5.63680 | -151.72811 | 34881 ft | 513 kts | 50° |
| 2026-04-21 13:51 | 5.68133 | -151.67191 | 34885 ft | 513 kts | 50° |
| 2026-04-21 13:52 | 5.72580 | -151.61577 | 34883 ft | 513 kts | 50° |
| 2026-04-21 13:52 | 5.77000 | -151.55995 | 34881 ft | 513 kts | 50° |
| 2026-04-21 13:53 | 5.81447 | -151.50379 | 34879 ft | 513 kts | 50° |
| 2026-04-21 13:53 | 5.85864 | -151.44798 | 34870 ft | 513 kts | 50° |
| 2026-04-21 13:54 | 5.90312 | -151.39178 | 34876 ft | 513 kts | 50° |
| 2026-04-21 13:54 | 5.94761 | -151.33553 | 34861 ft | 513 kts | 50° |
| 2026-04-21 13:55 | 5.99206 | -151.27933 | 34878 ft | 513 kts | 50° |
| 2026-04-21 13:55 | 6.03613 | -151.22357 | 34881 ft | 513 kts | 50° |
| 2026-04-21 13:56 | 6.08055 | -151.16737 | 34876 ft | 513 kts | 50° |
| 2026-04-21 13:56 | 6.12494 | -151.11119 | 34874 ft | 513 kts | 50° |
| 2026-04-21 13:57 | 6.16939 | -151.05491 | 34868 ft | 513 kts | 50° |
| 2026-04-21 13:57 | 6.21350 | -150.99906 | 34882 ft | 513 kts | 50° |
| 2026-04-21 13:58 | 6.25787 | -150.94285 | 34888 ft | 513 kts | 50° |
| 2026-04-21 13:58 | 6.30227 | -150.88659 | 34884 ft | 512 kts | 50° |
| 2026-04-21 13:59 | 6.34634 | -150.83073 | 34889 ft | 512 kts | 50° |
| 2026-04-21 13:59 | 6.39072 | -150.77446 | 34874 ft | 512 kts | 50° |
| 2026-04-21 14:00 | 6.43500 | -150.71829 | 34879 ft | 511 kts | 50° |
| 2026-04-21 14:00 | 6.47891 | -150.66258 | 34881 ft | 511 kts | 50° |
| 2026-04-21 14:01 | 6.52313 | -150.60647 | 34880 ft | 511 kts | 50° |
| 2026-04-21 14:01 | 6.56729 | -150.55040 | 34871 ft | 511 kts | 50° |
| 2026-04-21 14:02 | 6.61147 | -150.49430 | 34874 ft | 511 kts | 50° |
| 2026-04-21 14:03 | 6.67735 | -150.41061 | 34889 ft | 510 kts | 50° |
| 2026-04-21 14:03 | 6.72154 | -150.35446 | 34890 ft | 510 kts | 50° |
| 2026-04-21 14:04 | 6.76533 | -150.29880 | 34891 ft | 509 kts | 50° |
| 2026-04-21 14:04 | 6.80935 | -150.24283 | 34877 ft | 509 kts | 50° |
| 2026-04-21 14:05 | 6.85329 | -150.18694 | 34873 ft | 509 kts | 50° |
| 2026-04-21 14:05 | 6.89701 | -150.13132 | 34889 ft | 508 kts | 50° |
| 2026-04-21 14:06 | 6.94090 | -150.07545 | 34875 ft | 508 kts | 50° |
| 2026-04-21 14:06 | 6.98478 | -150.01959 | 34874 ft | 508 kts | 50° |
| 2026-04-21 14:07 | 7.02913 | -149.96420 | 34879 ft | 507 kts | 48° |
| 2026-04-21 14:07 | 7.07450 | -149.91029 | 34884 ft | 507 kts | 47° |
| 2026-04-21 14:08 | 7.12008 | -149.85595 | 34889 ft | 507 kts | 48° |
| 2026-04-21 14:08 | 7.16556 | -149.80142 | 34890 ft | 507 kts | 48° |
| 2026-04-21 14:09 | 7.21061 | -149.74734 | 34893 ft | 507 kts | 48° |
| 2026-04-21 14:09 | 7.25601 | -149.69283 | 34874 ft | 507 kts | 48° |
| 2026-04-21 14:10 | 7.30124 | -149.63851 | 34891 ft | 508 kts | 48° |
| 2026-04-21 14:10 | 7.34676 | -149.58383 | 34874 ft | 509 kts | 48° |
| 2026-04-21 14:11 | 7.39235 | -149.52903 | 34888 ft | 510 kts | 48° |
| 2026-04-21 14:11 | 7.43800 | -149.47414 | 34901 ft | 511 kts | 48° |
| 2026-04-21 14:12 | 7.48368 | -149.41919 | 34908 ft | 511 kts | 48° |
| 2026-04-21 14:12 | 7.52912 | -149.36450 | 34889 ft | 511 kts | 48° |
| 2026-04-21 14:13 | 7.57489 | -149.30941 | 34896 ft | 512 kts | 48° |
| 2026-04-21 14:13 | 7.62032 | -149.25470 | 34904 ft | 511 kts | 48° |
| 2026-04-21 14:14 | 7.66605 | -149.19959 | 34903 ft | 511 kts | 48° |
| 2026-04-21 14:14 | 7.71172 | -149.14456 | 34898 ft | 511 kts | 48° |
| 2026-04-21 14:15 | 7.75740 | -149.08948 | 34903 ft | 511 kts | 48° |
| 2026-04-21 14:15 | 7.80277 | -149.03476 | 34901 ft | 511 kts | 48° |
| 2026-04-21 14:16 | 7.84849 | -148.97959 | 34881 ft | 511 kts | 48° |
| 2026-04-21 14:16 | 7.89384 | -148.92486 | 34886 ft | 511 kts | 48° |
| 2026-04-21 14:17 | 7.93960 | -148.86961 | 34903 ft | 512 kts | 48° |
| 2026-04-21 14:17 | 7.98532 | -148.81439 | 34898 ft | 512 kts | 48° |
| 2026-04-21 14:18 | 8.03072 | -148.75952 | 34901 ft | 512 kts | 48° |
| 2026-04-21 14:18 | 8.07646 | -148.70423 | 34908 ft | 513 kts | 48° |
| 2026-04-21 14:19 | 8.12218 | -148.64893 | 34881 ft | 513 kts | 48° |
| 2026-04-21 14:19 | 8.16803 | -148.59347 | 34884 ft | 514 kts | 48° |
| 2026-04-21 14:20 | 8.21358 | -148.53834 | 34899 ft | 515 kts | 48° |
| 2026-04-21 14:20 | 8.25948 | -148.48277 | 34904 ft | 515 kts | 48° |
| 2026-04-21 14:21 | 8.30546 | -148.42708 | 34904 ft | 515 kts | 48° |
| 2026-04-21 14:21 | 8.35135 | -148.37146 | 34912 ft | 515 kts | 48° |
| 2026-04-21 14:22 | 8.39723 | -148.31585 | 34906 ft | 515 kts | 48° |
| 2026-04-21 14:22 | 8.44290 | -148.26047 | 34901 ft | 515 kts | 47° |
| 2026-04-21 14:23 | 8.48882 | -148.20476 | 34913 ft | 516 kts | 47° |
| 2026-04-21 14:23 | 8.53485 | -148.14890 | 34918 ft | 516 kts | 48° |
| 2026-04-21 14:24 | 8.58048 | -148.09349 | 34913 ft | 516 kts | 48° |
| 2026-04-21 14:24 | 8.62646 | -148.03764 | 34913 ft | 515 kts | 48° |
| 2026-04-21 14:25 | 8.67235 | -147.98187 | 34909 ft | 515 kts | 48° |
| 2026-04-21 14:25 | 8.71793 | -147.92645 | 34893 ft | 516 kts | 48° |
| 2026-04-21 14:26 | 8.76391 | -147.87054 | 34895 ft | 516 kts | 48° |
| 2026-04-21 14:26 | 8.80993 | -147.81454 | 34912 ft | 517 kts | 48° |
| 2026-04-21 14:27 | 8.85562 | -147.75892 | 34909 ft | 517 kts | 48° |
| 2026-04-21 14:27 | 8.90161 | -147.70291 | 34923 ft | 517 kts | 48° |
| 2026-04-21 14:28 | 8.94761 | -147.64687 | 34917 ft | 517 kts | 48° |
| 2026-04-21 14:28 | 8.99338 | -147.59109 | 34901 ft | 518 kts | 48° |
| 2026-04-21 14:29 | 9.03954 | -147.53480 | 34900 ft | 518 kts | 48° |
| 2026-04-21 14:29 | 9.08539 | -147.47887 | 34903 ft | 519 kts | 48° |
| 2026-04-21 14:30 | 9.13155 | -147.42252 | 34916 ft | 520 kts | 48° |
| 2026-04-21 14:30 | 9.17780 | -147.36606 | 34916 ft | 520 kts | 48° |
| 2026-04-21 14:31 | 9.22364 | -147.31006 | 34925 ft | 520 kts | 48° |
| 2026-04-21 14:31 | 9.26980 | -147.25364 | 34915 ft | 520 kts | 48° |
| 2026-04-21 14:32 | 9.31605 | -147.19710 | 34931 ft | 520 kts | 48° |
| 2026-04-21 14:32 | 9.36222 | -147.14062 | 34930 ft | 520 kts | 48° |
| 2026-04-21 14:33 | 9.40817 | -147.08438 | 34912 ft | 520 kts | 48° |
| 2026-04-21 14:33 | 9.45432 | -147.02788 | 34926 ft | 520 kts | 48° |
| 2026-04-21 14:34 | 9.50021 | -146.97167 | 34925 ft | 520 kts | 48° |
| 2026-04-21 14:34 | 9.54642 | -146.91504 | 34912 ft | 521 kts | 48° |
| 2026-04-21 14:35 | 9.59278 | -146.85820 | 34916 ft | 522 kts | 48° |
| 2026-04-21 14:35 | 9.63902 | -146.80148 | 34913 ft | 522 kts | 48° |
| 2026-04-21 14:36 | 9.68509 | -146.74494 | 34930 ft | 523 kts | 48° |
| 2026-04-21 14:36 | 9.73148 | -146.68797 | 34929 ft | 523 kts | 48° |
| 2026-04-21 14:37 | 9.77789 | -146.63097 | 34936 ft | 524 kts | 48° |
| 2026-04-21 14:37 | 9.82399 | -146.57431 | 34941 ft | 524 kts | 48° |
| 2026-04-21 14:38 | 9.87039 | -146.51726 | 34927 ft | 524 kts | 48° |
| 2026-04-21 14:38 | 9.90895 | -146.46982 | 34935 ft | 523 kts | 48° |
| 2026-04-21 14:39 | 9.95534 | -146.41272 | 34932 ft | 523 kts | 48° |
| 2026-04-21 14:39 | 10.00138 | -146.35603 | 34937 ft | 523 kts | 48° |
| 2026-04-21 14:40 | 10.04766 | -146.29902 | 34941 ft | 523 kts | 48° |
| 2026-04-21 14:40 | 10.09401 | -146.24189 | 34936 ft | 523 kts | 48° |
| 2026-04-21 14:41 | 10.14035 | -146.18475 | 34940 ft | 524 kts | 48° |
| 2026-04-21 14:41 | 10.18644 | -146.12789 | 34945 ft | 524 kts | 48° |
| 2026-04-21 14:42 | 10.23301 | -146.07040 | 34936 ft | 525 kts | 48° |
| 2026-04-21 14:42 | 10.27908 | -146.01351 | 34942 ft | 525 kts | 48° |
| 2026-04-21 14:43 | 10.32561 | -145.95601 | 34943 ft | 525 kts | 48° |
| 2026-04-21 14:43 | 10.37176 | -145.89895 | 34926 ft | 526 kts | 48° |
| 2026-04-21 14:44 | 10.41825 | -145.84145 | 34926 ft | 526 kts | 48° |
| 2026-04-21 14:44 | 10.46477 | -145.78389 | 34925 ft | 527 kts | 48° |
| 2026-04-21 14:45 | 10.51103 | -145.72661 | 34946 ft | 527 kts | 48° |
| 2026-04-21 14:45 | 10.55749 | -145.66904 | 34951 ft | 526 kts | 48° |
| 2026-04-21 14:46 | 10.60397 | -145.61143 | 34926 ft | 527 kts | 48° |
| 2026-04-21 14:46 | 10.65021 | -145.55408 | 34922 ft | 527 kts | 48° |
| 2026-04-21 14:47 | 10.69675 | -145.49635 | 34944 ft | 527 kts | 48° |
| 2026-04-21 14:47 | 10.74324 | -145.43862 | 34948 ft | 527 kts | 49° |
| 2026-04-21 14:48 | 10.78975 | -145.38086 | 34943 ft | 527 kts | 49° |
| 2026-04-21 14:48 | 10.83625 | -145.32306 | 34933 ft | 527 kts | 49° |
| 2026-04-21 14:49 | 10.88242 | -145.26565 | 34904 ft | 528 kts | 48° |
| 2026-04-21 14:49 | 10.92890 | -145.20782 | 34933 ft | 527 kts | 49° |
| 2026-04-21 14:50 | 10.97540 | -145.14994 | 34938 ft | 528 kts | 49° |
| 2026-04-21 14:50 | 11.02191 | -145.09201 | 34947 ft | 528 kts | 49° |
| 2026-04-21 14:51 | 11.06816 | -145.03437 | 34955 ft | 528 kts | 49° |
| 2026-04-21 14:51 | 11.11463 | -144.97642 | 34948 ft | 528 kts | 49° |
| 2026-04-21 14:52 | 11.16112 | -144.91843 | 34939 ft | 528 kts | 49° |
| 2026-04-21 14:52 | 11.20734 | -144.86073 | 34940 ft | 528 kts | 49° |
| 2026-04-21 14:53 | 11.25381 | -144.80269 | 34946 ft | 528 kts | 49° |
| 2026-04-21 14:53 | 11.30040 | -144.74446 | 34943 ft | 528 kts | 49° |
| 2026-04-21 14:54 | 11.34688 | -144.68635 | 34942 ft | 528 kts | 49° |
| 2026-04-21 14:54 | 11.39298 | -144.62867 | 34932 ft | 528 kts | 49° |
| 2026-04-21 14:55 | 11.43959 | -144.57033 | 34942 ft | 528 kts | 49° |
| 2026-04-21 14:55 | 11.48577 | -144.51248 | 34946 ft | 529 kts | 49° |
| 2026-04-21 14:56 | 11.53221 | -144.45428 | 34950 ft | 529 kts | 49° |
| 2026-04-21 14:56 | 11.57885 | -144.39578 | 34946 ft | 529 kts | 49° |
| 2026-04-21 14:57 | 11.62502 | -144.33786 | 34946 ft | 529 kts | 49° |
| 2026-04-21 14:57 | 11.67146 | -144.27955 | 34948 ft | 529 kts | 49° |
| 2026-04-21 14:58 | 11.71788 | -144.22124 | 34950 ft | 528 kts | 49° |
| 2026-04-21 14:58 | 11.76400 | -144.16327 | 34948 ft | 528 kts | 49° |
| 2026-04-21 14:59 | 11.81043 | -144.10487 | 34950 ft | 528 kts | 49° |
| 2026-04-21 14:59 | 11.85644 | -144.04696 | 34950 ft | 528 kts | 49° |
| 2026-04-21 15:00 | 11.90283 | -143.98855 | 34933 ft | 529 kts | 49° |
| 2026-04-21 15:00 | 11.94932 | -143.92998 | 34946 ft | 530 kts | 49° |
| 2026-04-21 15:01 | 11.99548 | -143.87179 | 34954 ft | 530 kts | 49° |
| 2026-04-21 15:01 | 12.04199 | -143.81311 | 34961 ft | 531 kts | 49° |
| 2026-04-21 15:02 | 12.08862 | -143.75426 | 34965 ft | 531 kts | 49° |
| 2026-04-21 15:02 | 12.13488 | -143.69584 | 34979 ft | 531 kts | 50° |
| 2026-04-21 15:03 | 12.18144 | -143.63699 | 34956 ft | 532 kts | 49° |
| 2026-04-21 15:03 | 12.22804 | -143.57806 | 34959 ft | 532 kts | 49° |
| 2026-04-21 15:04 | 12.27444 | -143.51935 | 34962 ft | 533 kts | 49° |
| 2026-04-21 15:04 | 12.32107 | -143.46030 | 34963 ft | 533 kts | 49° |
| 2026-04-21 15:05 | 12.36744 | -143.40156 | 34960 ft | 533 kts | 49° |
| 2026-04-21 15:05 | 12.43741 | -143.31284 | 34962 ft | 533 kts | 49° |
| 2026-04-21 15:06 | 12.48400 | -143.25373 | 34962 ft | 533 kts | 49° |
| 2026-04-21 15:06 | 12.53030 | -143.19495 | 34987 ft | 532 kts | 50° |
| 2026-04-21 15:07 | 12.57674 | -143.13593 | 34969 ft | 531 kts | 50° |
| 2026-04-21 15:07 | 12.62309 | -143.07699 | 34973 ft | 531 kts | 50° |
| 2026-04-21 15:08 | 12.66961 | -143.01781 | 34937 ft | 533 kts | 49° |
| 2026-04-21 15:08 | 12.71588 | -142.95894 | 34953 ft | 533 kts | 50° |
| 2026-04-21 15:09 | 12.76249 | -142.89956 | 34963 ft | 534 kts | 50° |
| 2026-04-21 15:09 | 12.80879 | -142.84053 | 34972 ft | 535 kts | 50° |
| 2026-04-21 15:10 | 12.85544 | -142.78103 | 34976 ft | 535 kts | 50° |
| 2026-04-21 15:10 | 12.90218 | -142.72137 | 34970 ft | 536 kts | 50° |
| 2026-04-21 15:11 | 12.94867 | -142.66200 | 34972 ft | 537 kts | 50° |
| 2026-04-21 15:11 | 12.99543 | -142.60223 | 34974 ft | 537 kts | 50° |
| 2026-04-21 15:12 | 13.04218 | -142.54245 | 34977 ft | 537 kts | 50° |
| 2026-04-21 15:12 | 13.08888 | -142.48269 | 34983 ft | 536 kts | 50° |
| 2026-04-21 15:13 | 13.13526 | -142.42328 | 34980 ft | 536 kts | 50° |
| 2026-04-21 15:13 | 13.18188 | -142.36355 | 34976 ft | 535 kts | 50° |
| 2026-04-21 15:14 | 13.22846 | -142.30381 | 34971 ft | 535 kts | 50° |
| 2026-04-21 15:14 | 13.27469 | -142.24450 | 34973 ft | 534 kts | 50° |
| 2026-04-21 15:15 | 13.32118 | -142.18481 | 34973 ft | 534 kts | 50° |
| 2026-04-21 15:15 | 13.36759 | -142.12516 | 34968 ft | 534 kts | 50° |
| 2026-04-21 15:16 | 13.41404 | -142.06544 | 34970 ft | 534 kts | 50° |
| 2026-04-21 15:16 | 13.46010 | -142.00618 | 34973 ft | 534 kts | 50° |
| 2026-04-21 15:17 | 13.50651 | -141.94642 | 34975 ft | 534 kts | 50° |
| 2026-04-21 15:17 | 13.55267 | -141.88693 | 34977 ft | 534 kts | 50° |
| 2026-04-21 15:18 | 13.59915 | -141.82700 | 34970 ft | 535 kts | 50° |
| 2026-04-21 15:18 | 13.64565 | -141.76701 | 34981 ft | 536 kts | 50° |
| 2026-04-21 15:19 | 13.69190 | -141.70729 | 34987 ft | 536 kts | 50° |
| 2026-04-21 15:19 | 13.73837 | -141.64724 | 34988 ft | 536 kts | 50° |
| 2026-04-21 15:20 | 13.78492 | -141.58705 | 34988 ft | 537 kts | 50° |
| 2026-04-21 15:20 | 13.83141 | -141.52689 | 34976 ft | 537 kts | 50° |
| 2026-04-21 15:21 | 13.87767 | -141.46700 | 34984 ft | 537 kts | 50° |
| 2026-04-21 15:21 | 13.92435 | -141.40651 | 34986 ft | 538 kts | 50° |
| 2026-04-21 15:22 | 13.97064 | -141.34648 | 34990 ft | 538 kts | 50° |
| 2026-04-21 15:22 | 14.01718 | -141.28609 | 35001 ft | 537 kts | 50° |
| 2026-04-21 15:23 | 14.06370 | -141.22567 | 34982 ft | 538 kts | 50° |
| 2026-04-21 15:23 | 14.11019 | -141.16526 | 34990 ft | 538 kts | 50° |
| 2026-04-21 15:24 | 14.15645 | -141.10510 | 34992 ft | 538 kts | 50° |
| 2026-04-21 15:24 | 14.20299 | -141.04453 | 34994 ft | 538 kts | 50° |
| 2026-04-21 15:25 | 14.24954 | -140.98390 | 34996 ft | 539 kts | 50° |
| 2026-04-21 15:25 | 14.29583 | -140.92357 | 34981 ft | 540 kts | 50° |
| 2026-04-21 15:26 | 14.34253 | -140.86266 | 34990 ft | 541 kts | 50° |
| 2026-04-21 15:26 | 14.38929 | -140.80162 | 35003 ft | 541 kts | 50° |
| 2026-04-21 15:27 | 14.43572 | -140.74096 | 35005 ft | 542 kts | 50° |
| 2026-04-21 15:27 | 14.48246 | -140.67986 | 34998 ft | 542 kts | 50° |
| 2026-04-21 15:28 | 14.52926 | -140.61863 | 35017 ft | 542 kts | 50° |
| 2026-04-21 15:28 | 14.57590 | -140.55757 | 35014 ft | 541 kts | 50° |
| 2026-04-21 15:29 | 14.62227 | -140.49680 | 35007 ft | 541 kts | 50° |
| 2026-04-21 15:29 | 14.66889 | -140.43568 | 35003 ft | 541 kts | 50° |
| 2026-04-21 15:30 | 14.71543 | -140.37464 | 35016 ft | 539 kts | 51° |
| 2026-04-21 15:30 | 14.76154 | -140.31411 | 35008 ft | 538 kts | 51° |
| 2026-04-21 15:31 | 14.80786 | -140.25327 | 35004 ft | 538 kts | 51° |
| 2026-04-21 15:31 | 14.85412 | -140.19245 | 35000 ft | 537 kts | 51° |
| 2026-04-21 15:32 | 14.89254 | -140.14191 | 35010 ft | 536 kts | 51° |
| 2026-04-21 15:32 | 14.94618 | -140.07129 | 34991 ft | 537 kts | 51° |
| 2026-04-21 15:33 | 14.98457 | -140.02071 | 34991 ft | 537 kts | 51° |
| 2026-04-21 15:33 | 15.03057 | -139.95975 | 34996 ft | 537 kts | 51° |
| 2026-04-21 15:34 | 15.07564 | -139.89948 | 35014 ft | 537 kts | 51° |
| 2026-04-21 15:34 | 15.12119 | -139.83880 | 35010 ft | 537 kts | 51° |
| 2026-04-21 15:35 | 15.16728 | -139.77747 | 35004 ft | 538 kts | 51° |
| 2026-04-21 15:35 | 15.21338 | -139.71609 | 35024 ft | 538 kts | 51° |
| 2026-04-21 15:36 | 15.25911 | -139.65515 | 35022 ft | 538 kts | 51° |
| 2026-04-21 15:36 | 15.30519 | -139.59369 | 35022 ft | 538 kts | 51° |
| 2026-04-21 15:37 | 15.35102 | -139.53251 | 35007 ft | 538 kts | 51° |
| 2026-04-21 15:37 | 15.39660 | -139.47163 | 35018 ft | 538 kts | 51° |
| 2026-04-21 15:38 | 15.44246 | -139.41029 | 35018 ft | 537 kts | 51° |
| 2026-04-21 15:38 | 15.48803 | -139.34928 | 35019 ft | 537 kts | 51° |
| 2026-04-21 15:39 | 15.53386 | -139.28788 | 35031 ft | 537 kts | 51° |
| 2026-04-21 15:39 | 15.57964 | -139.22649 | 35017 ft | 537 kts | 51° |
| 2026-04-21 15:40 | 15.62515 | -139.16542 | 35018 ft | 538 kts | 51° |
| 2026-04-21 15:40 | 15.67094 | -139.10393 | 35023 ft | 538 kts | 51° |
| 2026-04-21 15:41 | 15.71666 | -139.04246 | 35036 ft | 537 kts | 51° |
| 2026-04-21 15:41 | 15.76210 | -138.98133 | 35020 ft | 537 kts | 51° |
| 2026-04-21 15:42 | 15.80780 | -138.91980 | 35019 ft | 538 kts | 51° |
| 2026-04-21 15:42 | 15.85350 | -138.85821 | 35026 ft | 538 kts | 51° |
| 2026-04-21 15:43 | 15.93577 | -138.74721 | 35030 ft | 538 kts | 51° |
| 2026-04-21 15:43 | 16.11762 | -138.50128 | 35043 ft | 539 kts | 51° |
| 2026-04-21 15:44 | 16.30041 | -138.25322 | 35043 ft | 539 kts | 51° |
| 2026-04-21 15:44 | 16.48311 | -138.00443 | 35045 ft | 540 kts | 51° |
| 2026-04-21 15:45 | 16.66461 | -137.75641 | 35052 ft | 541 kts | 51° |
| 2026-04-21 15:45 | 16.84694 | -137.50637 | 35054 ft | 540 kts | 51° |
| 2026-04-21 15:46 | 17.02869 | -137.25623 | 35051 ft | 540 kts | 51° |
| 2026-04-21 15:46 | 17.21026 | -137.00544 | 35054 ft | 541 kts | 51° |
| 2026-04-21 15:47 | 17.39153 | -136.75414 | 35059 ft | 541 kts | 51° |
| 2026-04-21 15:47 | 17.57141 | -136.50382 | 35069 ft | 541 kts | 51° |
| 2026-04-21 15:48 | 17.75270 | -136.25061 | 35069 ft | 541 kts | 51° |
| 2026-04-21 15:48 | 17.93312 | -135.99766 | 35064 ft | 541 kts | 52° |
| 2026-04-21 15:49 | 18.11310 | -135.74433 | 35078 ft | 540 kts | 52° |
| 2026-04-21 15:49 | 18.29166 | -135.49203 | 35073 ft | 540 kts | 52° |
| 2026-04-21 15:50 | 18.47080 | -135.23790 | 35073 ft | 540 kts | 52° |
| 2026-04-21 15:50 | 18.61632 | -135.03074 | 35081 ft | 539 kts | 52° |
| 2026-04-21 15:51 | 18.66093 | -134.96708 | 35083 ft | 538 kts | 52° |
| 2026-04-21 15:51 | 18.70517 | -134.90389 | 35080 ft | 538 kts | 52° |
| 2026-04-21 15:52 | 18.74969 | -134.84025 | 35076 ft | 538 kts | 52° |
| 2026-04-21 15:52 | 18.79412 | -134.77668 | 35075 ft | 538 kts | 52° |
| 2026-04-21 15:53 | 18.83822 | -134.71350 | 35088 ft | 538 kts | 52° |
| 2026-04-21 15:53 | 18.88269 | -134.64974 | 35071 ft | 539 kts | 52° |
| 2026-04-21 15:54 | 18.92722 | -134.58581 | 35085 ft | 539 kts | 52° |
| 2026-04-21 15:54 | 18.97175 | -134.52184 | 35088 ft | 540 kts | 52° |
| 2026-04-21 15:55 | 19.01601 | -134.45818 | 35090 ft | 540 kts | 52° |
| 2026-04-21 15:55 | 19.06060 | -134.39397 | 35092 ft | 540 kts | 52° |
| 2026-04-21 15:56 | 19.10473 | -134.33037 | 35097 ft | 540 kts | 52° |
| 2026-04-21 15:56 | 19.14915 | -134.26628 | 35095 ft | 539 kts | 52° |
| 2026-04-21 15:57 | 19.19351 | -134.20221 | 35096 ft | 539 kts | 52° |
| 2026-04-21 15:57 | 19.23786 | -134.13808 | 35094 ft | 539 kts | 52° |
| 2026-04-21 15:58 | 19.28194 | -134.07429 | 35082 ft | 539 kts | 52° |
| 2026-04-21 15:58 | 19.32574 | -134.01084 | 35098 ft | 539 kts | 52° |
| 2026-04-21 15:59 | 19.37020 | -133.94635 | 35097 ft | 539 kts | 52° |
| 2026-04-21 15:59 | 19.41448 | -133.88206 | 35097 ft | 539 kts | 52° |
| 2026-04-21 16:00 | 19.45871 | -133.81778 | 35101 ft | 539 kts | 52° |
| 2026-04-21 16:00 | 19.50293 | -133.75344 | 35101 ft | 539 kts | 52° |
| 2026-04-21 16:01 | 19.54683 | -133.68951 | 35102 ft | 539 kts | 52° |
| 2026-04-21 16:01 | 19.59099 | -133.62513 | 35104 ft | 539 kts | 52° |
| 2026-04-21 16:02 | 19.63506 | -133.56079 | 35106 ft | 538 kts | 52° |
| 2026-04-21 16:02 | 19.67881 | -133.49688 | 35102 ft | 538 kts | 52° |
| 2026-04-21 16:03 | 19.72279 | -133.43254 | 35089 ft | 538 kts | 51° |
| 2026-04-21 16:03 | 19.76680 | -133.36810 | 35096 ft | 538 kts | 51° |
| 2026-04-21 16:04 | 19.81044 | -133.30414 | 35101 ft | 538 kts | 51° |
| 2026-04-21 16:04 | 19.85444 | -133.23957 | 35104 ft | 539 kts | 51° |
| 2026-04-21 16:05 | 19.89843 | -133.17494 | 35114 ft | 539 kts | 51° |
| 2026-04-21 16:05 | 19.94237 | -133.11034 | 35117 ft | 539 kts | 51° |
| 2026-04-21 16:06 | 19.98608 | -133.04598 | 35110 ft | 538 kts | 51° |
| 2026-04-21 16:06 | 20.02997 | -132.98130 | 35117 ft | 538 kts | 51° |
| 2026-04-21 16:07 | 20.07374 | -132.91672 | 35115 ft | 537 kts | 51° |
| 2026-04-21 16:07 | 20.11716 | -132.85259 | 35115 ft | 537 kts | 51° |
| 2026-04-21 16:08 | 20.18269 | -132.75567 | 35101 ft | 538 kts | 51° |
| 2026-04-21 16:09 | 20.22651 | -132.69078 | 35107 ft | 538 kts | 51° |
| 2026-04-21 16:09 | 20.26999 | -132.62632 | 35111 ft | 539 kts | 51° |
| 2026-04-21 16:10 | 20.31381 | -132.56126 | 35122 ft | 539 kts | 51° |
| 2026-04-21 16:10 | 20.35757 | -132.49623 | 35125 ft | 539 kts | 51° |
| 2026-04-21 16:11 | 20.40102 | -132.43159 | 35123 ft | 539 kts | 51° |
| 2026-04-21 16:11 | 20.44473 | -132.36649 | 35131 ft | 539 kts | 51° |
| 2026-04-21 16:12 | 20.48105 | -132.31235 | 35124 ft | 539 kts | 51° |
| 2026-04-21 16:12 | 20.53208 | -132.23619 | 35127 ft | 539 kts | 51° |
| 2026-04-21 16:13 | 20.57547 | -132.17135 | 35119 ft | 538 kts | 51° |
| 2026-04-21 16:13 | 20.61907 | -132.10611 | 35120 ft | 539 kts | 51° |
| 2026-04-21 16:14 | 20.66238 | -132.04125 | 35120 ft | 539 kts | 51° |
| 2026-04-21 16:14 | 20.70594 | -131.97594 | 35124 ft | 539 kts | 51° |
| 2026-04-21 16:15 | 20.74955 | -131.91047 | 35130 ft | 539 kts | 51° |
| 2026-04-21 16:15 | 20.79276 | -131.84554 | 35131 ft | 539 kts | 51° |
| 2026-04-21 16:16 | 20.83626 | -131.78008 | 35129 ft | 539 kts | 51° |
| 2026-04-21 16:16 | 20.87966 | -131.71471 | 35131 ft | 538 kts | 51° |
| 2026-04-21 16:17 | 20.92304 | -131.64930 | 35131 ft | 538 kts | 51° |
| 2026-04-21 16:17 | 20.96637 | -131.58387 | 35132 ft | 538 kts | 51° |
| 2026-04-21 16:18 | 21.00936 | -131.51890 | 35132 ft | 538 kts | 51° |
| 2026-04-21 16:18 | 21.05268 | -131.45335 | 35115 ft | 539 kts | 51° |
| 2026-04-21 16:19 | 21.09599 | -131.38774 | 35123 ft | 539 kts | 51° |
| 2026-04-21 16:19 | 21.13907 | -131.32238 | 35139 ft | 539 kts | 51° |
| 2026-04-21 16:20 | 21.18241 | -131.25657 | 35130 ft | 539 kts | 51° |
| 2026-04-21 16:20 | 21.21841 | -131.20186 | 35132 ft | 540 kts | 51° |
| 2026-04-21 16:21 | 21.26873 | -131.12527 | 35149 ft | 540 kts | 51° |
| 2026-04-21 16:21 | 21.30471 | -131.07044 | 35133 ft | 540 kts | 51° |
| 2026-04-21 16:22 | 21.34791 | -131.00454 | 35139 ft | 540 kts | 51° |
| 2026-04-21 16:22 | 21.39108 | -130.93862 | 35143 ft | 539 kts | 51° |
| 2026-04-21 16:23 | 21.43396 | -130.87308 | 35151 ft | 538 kts | 52° |
| 2026-04-21 16:23 | 21.47692 | -130.80730 | 35137 ft | 537 kts | 52° |
| 2026-04-21 16:24 | 21.51988 | -130.74144 | 35132 ft | 537 kts | 52° |
| 2026-04-21 16:24 | 21.56275 | -130.67565 | 35133 ft | 537 kts | 52° |
| 2026-04-21 16:25 | 21.60559 | -130.60984 | 35127 ft | 537 kts | 52° |
| 2026-04-21 16:25 | 21.64814 | -130.54439 | 35128 ft | 537 kts | 52° |
| 2026-04-21 16:26 | 21.69099 | -130.47841 | 35132 ft | 537 kts | 52° |
| 2026-04-21 16:26 | 21.73382 | -130.41241 | 35144 ft | 537 kts | 52° |
| 2026-04-21 16:27 | 21.77634 | -130.34683 | 35140 ft | 538 kts | 52° |
| 2026-04-21 16:27 | 21.81917 | -130.28069 | 35145 ft | 538 kts | 52° |
| 2026-04-21 16:28 | 21.86197 | -130.21452 | 35142 ft | 538 kts | 52° |
| 2026-04-21 16:28 | 21.90473 | -130.14834 | 35147 ft | 538 kts | 52° |
| 2026-04-21 16:29 | 21.94744 | -130.08213 | 35147 ft | 538 kts | 52° |
| 2026-04-21 16:29 | 21.98983 | -130.01632 | 35148 ft | 537 kts | 53° |
| 2026-04-21 16:30 | 22.02879 | -129.94723 | 35143 ft | 539 kts | 57° |
| 2026-04-21 16:30 | 22.06711 | -129.87779 | 35143 ft | 538 kts | 57° |
| 2026-04-21 16:31 | 22.10533 | -129.80880 | 35141 ft | 539 kts | 57° |
| 2026-04-21 16:31 | 22.14366 | -129.73929 | 35147 ft | 539 kts | 57° |
| 2026-04-21 16:32 | 22.18198 | -129.66965 | 35143 ft | 539 kts | 57° |
| 2026-04-21 16:32 | 22.22001 | -129.60043 | 35146 ft | 539 kts | 57° |
| 2026-04-21 16:33 | 22.25823 | -129.53077 | 35147 ft | 538 kts | 57° |
| 2026-04-21 16:33 | 22.29641 | -129.46110 | 35151 ft | 538 kts | 57° |
| 2026-04-21 16:34 | 22.33427 | -129.39187 | 35145 ft | 538 kts | 57° |
| 2026-04-21 16:34 | 22.37234 | -129.32215 | 35148 ft | 538 kts | 57° |
| 2026-04-21 16:35 | 22.41043 | -129.25228 | 35146 ft | 538 kts | 57° |
| 2026-04-21 16:35 | 22.44846 | -129.18245 | 35147 ft | 538 kts | 57° |
| 2026-04-21 16:36 | 22.48624 | -129.11297 | 35138 ft | 539 kts | 57° |
| 2026-04-21 16:36 | 22.52427 | -129.04294 | 35140 ft | 540 kts | 57° |
| 2026-04-21 16:37 | 22.56233 | -128.97278 | 35146 ft | 540 kts | 57° |
| 2026-04-21 16:37 | 22.60020 | -128.90286 | 35146 ft | 540 kts | 57° |
| 2026-04-21 16:38 | 22.63823 | -128.83254 | 35151 ft | 540 kts | 57° |
| 2026-04-21 16:38 | 22.67622 | -128.76221 | 35150 ft | 541 kts | 57° |
| 2026-04-21 16:39 | 22.71395 | -128.69227 | 35152 ft | 540 kts | 57° |
| 2026-04-21 16:39 | 22.75186 | -128.62189 | 35156 ft | 540 kts | 57° |
| 2026-04-21 16:40 | 22.78976 | -128.55145 | 35153 ft | 540 kts | 57° |
| 2026-04-21 16:40 | 22.82758 | -128.48103 | 35149 ft | 540 kts | 57° |
| 2026-04-21 16:41 | 22.86515 | -128.41102 | 35147 ft | 540 kts | 57° |
| 2026-04-21 16:41 | 22.90286 | -128.34062 | 35143 ft | 539 kts | 57° |
| 2026-04-21 16:42 | 22.94053 | -128.27020 | 35147 ft | 539 kts | 57° |
| 2026-04-21 16:42 | 22.97801 | -128.20006 | 35145 ft | 539 kts | 57° |
| 2026-04-21 16:43 | 23.01569 | -128.12943 | 35167 ft | 539 kts | 57° |
| 2026-04-21 16:43 | 23.05321 | -128.05903 | 35137 ft | 541 kts | 57° |
| 2026-04-21 16:44 | 23.09096 | -127.98806 | 35146 ft | 541 kts | 57° |
| 2026-04-21 16:44 | 23.12872 | -127.91699 | 35143 ft | 543 kts | 57° |
| 2026-04-21 16:45 | 23.16623 | -127.84630 | 35151 ft | 543 kts | 57° |
| 2026-04-21 16:45 | 23.20405 | -127.77491 | 35152 ft | 544 kts | 57° |
| 2026-04-21 16:46 | 23.24182 | -127.70351 | 35160 ft | 544 kts | 57° |
| 2026-04-21 16:46 | 23.27934 | -127.63250 | 35164 ft | 544 kts | 57° |
| 2026-04-21 16:47 | 23.31708 | -127.56095 | 35166 ft | 544 kts | 57° |
| 2026-04-21 16:47 | 23.35474 | -127.48947 | 35158 ft | 544 kts | 57° |
| 2026-04-21 16:48 | 23.39211 | -127.41842 | 35155 ft | 543 kts | 57° |
| 2026-04-21 16:48 | 23.42976 | -127.34675 | 35153 ft | 543 kts | 57° |
| 2026-04-21 16:49 | 23.46702 | -127.27572 | 35149 ft | 543 kts | 57° |
| 2026-04-21 16:49 | 23.50449 | -127.20419 | 35146 ft | 543 kts | 57° |
| 2026-04-21 16:50 | 23.54194 | -127.13258 | 35150 ft | 543 kts | 57° |
| 2026-04-21 16:50 | 23.57919 | -127.06129 | 35137 ft | 544 kts | 57° |
| 2026-04-21 16:51 | 23.61668 | -126.98939 | 35155 ft | 545 kts | 57° |
| 2026-04-21 16:51 | 23.65427 | -126.91722 | 35154 ft | 547 kts | 57° |
| 2026-04-21 16:52 | 23.69188 | -126.84488 | 35162 ft | 548 kts | 57° |
| 2026-04-21 16:52 | 23.72950 | -126.77244 | 35164 ft | 548 kts | 57° |
| 2026-04-21 16:53 | 23.76688 | -126.70035 | 35172 ft | 548 kts | 57° |
| 2026-04-21 16:53 | 23.80445 | -126.62777 | 35173 ft | 548 kts | 57° |
| 2026-04-21 16:54 | 23.84197 | -126.55518 | 35163 ft | 548 kts | 57° |
| 2026-04-21 16:54 | 23.87941 | -126.48265 | 35158 ft | 548 kts | 58° |
| 2026-04-21 16:55 | 23.91658 | -126.41055 | 35158 ft | 547 kts | 58° |
| 2026-04-21 16:55 | 23.95392 | -126.33800 | 35161 ft | 547 kts | 58° |
| 2026-04-21 16:56 | 23.99126 | -126.26534 | 35160 ft | 547 kts | 58° |
| 2026-04-21 16:56 | 24.02831 | -126.19311 | 35156 ft | 547 kts | 58° |
| 2026-04-21 16:57 | 24.06557 | -126.12040 | 35157 ft | 548 kts | 58° |
| 2026-04-21 16:57 | 24.10288 | -126.04747 | 35163 ft | 548 kts | 58° |
| 2026-04-21 16:58 | 24.13984 | -125.97509 | 35183 ft | 547 kts | 57° |
| 2026-04-21 16:58 | 24.17705 | -125.90215 | 35178 ft | 547 kts | 57° |
| 2026-04-21 16:59 | 24.21407 | -125.82947 | 35175 ft | 546 kts | 57° |
| 2026-04-21 16:59 | 24.25109 | -125.75666 | 35172 ft | 545 kts | 57° |
| 2026-04-21 17:00 | 24.28787 | -125.68421 | 35155 ft | 545 kts | 58° |
| 2026-04-21 17:00 | 24.31856 | -125.62368 | 35167 ft | 546 kts | 57° |
| 2026-04-21 17:01 | 24.36144 | -125.53897 | 35172 ft | 546 kts | 57° |
| 2026-04-21 17:01 | 24.39834 | -125.46599 | 35166 ft | 546 kts | 57° |
| 2026-04-21 17:02 | 24.43528 | -125.39280 | 35167 ft | 546 kts | 57° |
| 2026-04-21 17:02 | 24.47187 | -125.32018 | 35170 ft | 547 kts | 57° |
| 2026-04-21 17:03 | 24.50868 | -125.24701 | 35177 ft | 547 kts | 57° |
| 2026-04-21 17:03 | 24.54554 | -125.17365 | 35164 ft | 548 kts | 57° |
| 2026-04-21 17:04 | 24.58239 | -125.10017 | 35170 ft | 549 kts | 57° |
| 2026-04-21 17:04 | 24.61906 | -125.02694 | 35172 ft | 549 kts | 57° |
| 2026-04-21 17:05 | 24.65593 | -124.95321 | 35195 ft | 550 kts | 58° |
| 2026-04-21 17:05 | 24.69276 | -124.87945 | 35138 ft | 554 kts | 58° |
| 2026-04-21 17:06 | 24.72997 | -124.80480 | 35160 ft | 557 kts | 58° |
| 2026-04-21 17:06 | 24.76703 | -124.73031 | 35183 ft | 559 kts | 58° |
| 2026-04-21 17:07 | 24.79812 | -124.66773 | 35197 ft | 560 kts | 58° |
| 2026-04-21 17:07 | 24.84187 | -124.57954 | 35201 ft | 561 kts | 58° |
| 2026-04-21 17:08 | 24.87902 | -124.50452 | 35198 ft | 561 kts | 58° |
| 2026-04-21 17:08 | 24.91631 | -124.42910 | 35196 ft | 560 kts | 58° |
| 2026-04-21 17:09 | 24.97192 | -124.31638 | 35181 ft | 558 kts | 58° |
| 2026-04-21 17:09 | 25.00903 | -124.24102 | 35174 ft | 557 kts | 58° |
| 2026-04-21 17:10 | 25.04579 | -124.16624 | 35164 ft | 557 kts | 58° |
| 2026-04-21 17:10 | 25.07653 | -124.10363 | 35162 ft | 557 kts | 58° |
| 2026-04-21 17:11 | 25.11346 | -124.02831 | 35162 ft | 557 kts | 58° |
| 2026-04-21 17:11 | 25.15010 | -123.95342 | 35165 ft | 557 kts | 58° |
| 2026-04-21 17:12 | 25.18693 | -123.87804 | 35168 ft | 557 kts | 58° |
| 2026-04-21 17:12 | 25.22379 | -123.80247 | 35161 ft | 558 kts | 58° |
| 2026-04-21 17:13 | 25.26043 | -123.72724 | 35165 ft | 559 kts | 58° |
| 2026-04-21 17:13 | 25.29729 | -123.65140 | 35179 ft | 559 kts | 58° |
| 2026-04-21 17:14 | 25.33412 | -123.57553 | 35179 ft | 559 kts | 58° |
| 2026-04-21 17:14 | 25.37085 | -123.49974 | 35176 ft | 559 kts | 58° |
| 2026-04-21 17:15 | 25.40733 | -123.42433 | 35175 ft | 558 kts | 58° |
| 2026-04-21 17:15 | 25.44395 | -123.34850 | 35172 ft | 558 kts | 58° |
| 2026-04-21 17:16 | 25.48034 | -123.27301 | 35170 ft | 558 kts | 58° |
| 2026-04-21 17:16 | 25.51687 | -123.19712 | 35175 ft | 558 kts | 58° |
| 2026-04-21 17:17 | 25.55338 | -123.12114 | 35178 ft | 557 kts | 58° |
| 2026-04-21 17:17 | 25.58982 | -123.04518 | 35176 ft | 557 kts | 58° |
| 2026-04-21 17:18 | 25.62592 | -122.96979 | 35172 ft | 557 kts | 58° |
| 2026-04-21 17:18 | 25.66229 | -122.89372 | 35175 ft | 557 kts | 58° |
| 2026-04-21 17:19 | 25.69853 | -122.81780 | 35177 ft | 556 kts | 58° |
| 2026-04-21 17:19 | 25.73455 | -122.74221 | 35177 ft | 556 kts | 58° |
| 2026-04-21 17:20 | 25.77066 | -122.66628 | 35167 ft | 557 kts | 58° |
| 2026-04-21 17:20 | 25.80681 | -122.59016 | 35180 ft | 556 kts | 58° |
| 2026-04-21 17:21 | 25.84268 | -122.51449 | 35177 ft | 556 kts | 58° |
| 2026-04-21 17:21 | 25.87867 | -122.43843 | 35174 ft | 556 kts | 58° |
| 2026-04-21 17:22 | 25.91462 | -122.36235 | 35170 ft | 556 kts | 58° |
| 2026-04-21 17:22 | 25.95026 | -122.28678 | 35175 ft | 555 kts | 58° |
| 2026-04-21 17:23 | 25.98617 | -122.21052 | 35172 ft | 555 kts | 58° |
| 2026-04-21 17:23 | 26.02198 | -122.13433 | 35169 ft | 555 kts | 58° |
| 2026-04-21 17:24 | 26.05755 | -122.05852 | 35176 ft | 555 kts | 58° |
| 2026-04-21 17:24 | 26.09331 | -121.98218 | 35173 ft | 555 kts | 58° |
| 2026-04-21 17:25 | 26.12873 | -121.90642 | 35173 ft | 554 kts | 58° |
| 2026-04-21 17:25 | 26.16428 | -121.83027 | 35172 ft | 554 kts | 58° |
| 2026-04-21 17:26 | 26.19985 | -121.75394 | 35176 ft | 554 kts | 58° |
| 2026-04-21 17:26 | 26.23534 | -121.67765 | 35175 ft | 554 kts | 58° |
| 2026-04-21 17:27 | 26.27078 | -121.60133 | 35173 ft | 554 kts | 58° |
| 2026-04-21 17:27 | 26.30595 | -121.52546 | 35172 ft | 554 kts | 58° |
| 2026-04-21 17:28 | 26.34133 | -121.44900 | 35175 ft | 554 kts | 59° |
| 2026-04-21 17:28 | 26.37664 | -121.37256 | 35170 ft | 554 kts | 59° |
| 2026-04-21 17:29 | 26.41196 | -121.29596 | 35174 ft | 554 kts | 59° |
| 2026-04-21 17:29 | 26.44699 | -121.21986 | 35176 ft | 554 kts | 59° |
| 2026-04-21 17:30 | 26.48219 | -121.14324 | 35180 ft | 554 kts | 59° |
| 2026-04-21 17:30 | 26.51735 | -121.06660 | 35184 ft | 554 kts | 59° |
| 2026-04-21 17:31 | 26.55223 | -120.99042 | 35169 ft | 553 kts | 59° |
| 2026-04-21 17:31 | 26.58730 | -120.91370 | 35172 ft | 553 kts | 59° |
| 2026-04-21 17:32 | 26.62227 | -120.83704 | 35169 ft | 553 kts | 59° |
| 2026-04-21 17:32 | 26.65703 | -120.76071 | 35167 ft | 553 kts | 59° |
| 2026-04-21 17:33 | 26.69188 | -120.68405 | 35163 ft | 553 kts | 59° |
| 2026-04-21 17:33 | 26.72674 | -120.60723 | 35167 ft | 553 kts | 59° |
| 2026-04-21 17:34 | 26.76154 | -120.53040 | 35165 ft | 553 kts | 59° |
| 2026-04-21 17:34 | 26.79611 | -120.45396 | 35171 ft | 553 kts | 59° |
| 2026-04-21 17:35 | 26.83085 | -120.37708 | 35171 ft | 553 kts | 59° |
| 2026-04-21 17:35 | 26.86559 | -120.30009 | 35194 ft | 553 kts | 59° |
| 2026-04-21 17:36 | 26.90010 | -120.22348 | 35171 ft | 554 kts | 59° |
| 2026-04-21 17:36 | 26.93484 | -120.14620 | 35174 ft | 554 kts | 59° |
| 2026-04-21 17:37 | 26.96950 | -120.06896 | 35176 ft | 553 kts | 59° |
| 2026-04-21 17:37 | 27.00362 | -119.99218 | 35171 ft | 554 kts | 61° |
| 2026-04-21 17:38 | 27.03764 | -119.91478 | 35165 ft | 552 kts | 59° |
| 2026-04-21 17:38 | 27.07285 | -119.83803 | 35168 ft | 552 kts | 59° |
| 2026-04-21 17:39 | 27.10775 | -119.76115 | 35168 ft | 552 kts | 59° |
| 2026-04-21 17:39 | 27.14224 | -119.68467 | 35168 ft | 552 kts | 59° |
| 2026-04-21 17:40 | 27.17692 | -119.60756 | 35166 ft | 552 kts | 59° |
| 2026-04-21 17:40 | 27.21154 | -119.53046 | 35171 ft | 552 kts | 59° |
| 2026-04-21 17:41 | 27.24609 | -119.45334 | 35175 ft | 552 kts | 60° |
| 2026-04-21 17:41 | 27.28038 | -119.37662 | 35173 ft | 552 kts | 60° |
| 2026-04-21 17:42 | 27.31479 | -119.29944 | 35168 ft | 551 kts | 60° |
| 2026-04-21 17:42 | 27.34918 | -119.22218 | 35176 ft | 551 kts | 60° |
| 2026-04-21 17:43 | 27.38325 | -119.14548 | 35174 ft | 550 kts | 60° |
| 2026-04-21 17:43 | 27.41748 | -119.06829 | 35170 ft | 550 kts | 60° |
| 2026-04-21 17:44 | 27.45164 | -118.99109 | 35168 ft | 550 kts | 60° |
| 2026-04-21 17:44 | 27.48555 | -118.91433 | 35175 ft | 549 kts | 60° |
| 2026-04-21 17:45 | 27.51958 | -118.83715 | 35171 ft | 549 kts | 60° |
| 2026-04-21 17:45 | 27.55332 | -118.76049 | 35166 ft | 548 kts | 60° |
| 2026-04-21 17:46 | 27.58726 | -118.68324 | 35163 ft | 548 kts | 60° |
| 2026-04-21 17:46 | 27.62111 | -118.60603 | 35172 ft | 548 kts | 60° |
| 2026-04-21 17:47 | 27.65467 | -118.52935 | 35167 ft | 548 kts | 60° |
| 2026-04-21 17:47 | 27.68843 | -118.45206 | 35165 ft | 547 kts | 60° |
| 2026-04-21 17:48 | 27.72189 | -118.37533 | 35165 ft | 547 kts | 60° |
| 2026-04-21 17:48 | 27.75552 | -118.29804 | 35176 ft | 547 kts | 61° |
| 2026-04-21 17:49 | 27.78886 | -118.22127 | 35168 ft | 546 kts | 61° |
| 2026-04-21 17:49 | 27.82234 | -118.14404 | 35165 ft | 546 kts | 61° |
| 2026-04-21 17:50 | 27.85550 | -118.06742 | 35163 ft | 545 kts | 61° |
| 2026-04-21 17:50 | 27.88877 | -117.99038 | 35168 ft | 545 kts | 61° |
| 2026-04-21 17:51 | 27.92200 | -117.91330 | 35163 ft | 544 kts | 61° |
| 2026-04-21 17:51 | 27.95520 | -117.83613 | 35159 ft | 545 kts | 61° |
| 2026-04-21 17:52 | 27.98810 | -117.75952 | 35159 ft | 545 kts | 61° |
| 2026-04-21 17:52 | 28.02121 | -117.68228 | 35160 ft | 545 kts | 61° |
| 2026-04-21 17:53 | 28.05426 | -117.60502 | 35159 ft | 545 kts | 61° |
| 2026-04-21 17:53 | 28.08728 | -117.52770 | 35158 ft | 545 kts | 61° |
| 2026-04-21 17:54 | 28.12026 | -117.45030 | 35172 ft | 545 kts | 61° |
| 2026-04-21 17:54 | 28.15300 | -117.37331 | 35172 ft | 544 kts | 61° |
| 2026-04-21 17:55 | 28.18580 | -117.29606 | 35164 ft | 544 kts | 61° |
| 2026-04-21 17:55 | 28.21860 | -117.21864 | 35164 ft | 543 kts | 61° |
| 2026-04-21 17:56 | 28.25110 | -117.14177 | 35170 ft | 543 kts | 62° |
| 2026-04-21 17:56 | 28.28375 | -117.06441 | 35162 ft | 542 kts | 62° |
| 2026-04-21 17:57 | 28.31631 | -116.98712 | 35161 ft | 542 kts | 62° |
| 2026-04-21 17:57 | 28.34857 | -116.91037 | 35158 ft | 542 kts | 62° |
| 2026-04-21 17:58 | 28.38101 | -116.83307 | 35154 ft | 541 kts | 62° |
| 2026-04-21 17:58 | 28.41340 | -116.75572 | 35155 ft | 541 kts | 62° |
| 2026-04-21 17:59 | 28.44026 | -116.69147 | 35153 ft | 541 kts | 62° |
| 2026-04-21 17:59 | 28.47778 | -116.60154 | 35174 ft | 541 kts | 62° |
| 2026-04-21 18:00 | 28.50480 | -116.53663 | 35168 ft | 541 kts | 62° |
| 2026-04-21 18:00 | 28.53680 | -116.45964 | 35168 ft | 541 kts | 62° |
| 2026-04-21 18:01 | 28.56901 | -116.38200 | 35166 ft | 542 kts | 62° |
| 2026-04-21 18:01 | 28.60114 | -116.30439 | 35149 ft | 542 kts | 62° |
| 2026-04-21 18:02 | 28.63321 | -116.22674 | 35156 ft | 541 kts | 62° |
| 2026-04-21 18:02 | 28.66507 | -116.14948 | 35153 ft | 541 kts | 62° |
| 2026-04-21 18:03 | 28.69709 | -116.07166 | 35148 ft | 540 kts | 62° |
| 2026-04-21 18:03 | 28.72876 | -115.99455 | 35143 ft | 540 kts | 62° |
| 2026-04-21 18:04 | 28.76058 | -115.91693 | 35166 ft | 540 kts | 62° |
| 2026-04-21 18:04 | 28.79230 | -115.83939 | 35163 ft | 539 kts | 62° |
| 2026-04-21 18:05 | 28.82394 | -115.76189 | 35142 ft | 538 kts | 62° |
| 2026-04-21 18:05 | 28.85534 | -115.68482 | 35141 ft | 538 kts | 62° |
| 2026-04-21 18:06 | 28.88683 | -115.60735 | 35164 ft | 537 kts | 62° |
| 2026-04-21 18:06 | 28.91825 | -115.52992 | 35142 ft | 536 kts | 62° |
| 2026-04-21 18:07 | 28.94944 | -115.45292 | 35142 ft | 536 kts | 62° |
| 2026-04-21 18:07 | 28.98068 | -115.37563 | 35138 ft | 535 kts | 62° |
| 2026-04-21 18:08 | 29.01187 | -115.29828 | 35178 ft | 534 kts | 62° |
| 2026-04-21 18:08 | 29.04272 | -115.22164 | 35145 ft | 533 kts | 62° |
| 2026-04-21 18:09 | 29.07372 | -115.14449 | 35137 ft | 533 kts | 62° |
| 2026-04-21 18:09 | 29.10459 | -115.06750 | 35128 ft | 532 kts | 62° |
| 2026-04-21 18:10 | 29.13519 | -114.99100 | 35132 ft | 531 kts | 62° |
| 2026-04-21 18:10 | 29.16586 | -114.91419 | 35133 ft | 530 kts | 62° |
| 2026-04-21 18:11 | 29.19647 | -114.83738 | 35127 ft | 529 kts | 62° |
| 2026-04-21 18:11 | 29.22685 | -114.76098 | 35120 ft | 529 kts | 62° |
| 2026-04-21 18:12 | 29.25736 | -114.68411 | 35117 ft | 528 kts | 62° |
| 2026-04-21 18:12 | 29.28759 | -114.60779 | 35109 ft | 528 kts | 62° |
| 2026-04-21 18:13 | 29.31789 | -114.53113 | 35104 ft | 528 kts | 62° |
| 2026-04-21 18:13 | 29.34824 | -114.45419 | 35095 ft | 528 kts | 62° |
| 2026-04-21 18:14 | 29.39342 | -114.33939 | 35091 ft | 529 kts | 62° |
| 2026-04-21 18:15 | 29.42366 | -114.26231 | 35088 ft | 530 kts | 62° |
| 2026-04-21 18:15 | 29.45395 | -114.18498 | 35065 ft | 530 kts | 62° |
| 2026-04-21 18:16 | 29.48413 | -114.10777 | 35053 ft | 530 kts | 62° |
| 2026-04-21 18:16 | 29.51429 | -114.03043 | 35049 ft | 531 kts | 62° |
| 2026-04-21 18:17 | 29.54429 | -113.95335 | 35045 ft | 531 kts | 62° |
| 2026-04-21 18:17 | 29.57439 | -113.87583 | 35036 ft | 530 kts | 62° |
| 2026-04-21 18:18 | 29.60442 | -113.79837 | 35032 ft | 530 kts | 62° |
| 2026-04-21 18:18 | 29.63420 | -113.72136 | 35038 ft | 529 kts | 62° |
| 2026-04-21 18:19 | 29.66401 | -113.64412 | 35028 ft | 528 kts | 62° |
| 2026-04-21 18:19 | 29.69375 | -113.56693 | 35022 ft | 527 kts | 62° |
| 2026-04-21 18:20 | 29.72322 | -113.49025 | 35020 ft | 527 kts | 62° |
| 2026-04-21 18:20 | 29.75280 | -113.41313 | 35017 ft | 526 kts | 62° |
| 2026-04-21 18:21 | 29.78237 | -113.33589 | 35006 ft | 526 kts | 62° |
| 2026-04-21 18:21 | 29.81186 | -113.25866 | 35008 ft | 527 kts | 62° |
| 2026-04-21 18:22 | 29.84136 | -113.18127 | 35012 ft | 527 kts | 63° |
| 2026-04-21 18:22 | 29.87062 | -113.10434 | 35033 ft | 528 kts | 63° |
| 2026-04-21 18:23 | 29.90011 | -113.02666 | 35021 ft | 529 kts | 63° |
| 2026-04-21 18:23 | 29.92953 | -112.94895 | 35027 ft | 529 kts | 63° |
| 2026-04-21 18:24 | 29.95898 | -112.87103 | 35027 ft | 529 kts | 63° |
| 2026-04-21 18:24 | 29.98838 | -112.79306 | 35031 ft | 530 kts | 63° |
| 2026-04-21 18:25 | 30.01755 | -112.71555 | 35034 ft | 529 kts | 63° |
| 2026-04-21 18:25 | 30.04685 | -112.63750 | 35050 ft | 529 kts | 63° |
| 2026-04-21 18:26 | 30.07608 | -112.55947 | 35032 ft | 529 kts | 63° |
| 2026-04-21 18:26 | 30.10525 | -112.48145 | 35029 ft | 528 kts | 63° |
| 2026-04-21 18:27 | 30.13432 | -112.40353 | 35024 ft | 527 kts | 63° |
| 2026-04-21 18:27 | 30.16312 | -112.32615 | 35013 ft | 527 kts | 63° |
| 2026-04-21 18:28 | 30.19203 | -112.24830 | 35008 ft | 526 kts | 63° |
| 2026-04-21 18:28 | 30.22071 | -112.17091 | 35004 ft | 526 kts | 63° |
| 2026-04-21 18:29 | 30.24947 | -112.09317 | 34983 ft | 525 kts | 63° |
| 2026-04-21 18:29 | 30.27814 | -112.01550 | 34987 ft | 524 kts | 63° |
| 2026-04-21 18:30 | 30.30675 | -111.93776 | 34989 ft | 524 kts | 63° |
| 2026-04-21 18:30 | 30.33513 | -111.86050 | 34996 ft | 523 kts | 63° |
| 2026-04-21 18:31 | 30.36358 | -111.78291 | 35007 ft | 523 kts | 63° |
| 2026-04-21 18:31 | 30.39202 | -111.70516 | 34993 ft | 523 kts | 63° |
| 2026-04-21 18:32 | 30.42020 | -111.62795 | 34991 ft | 523 kts | 64° |
| 2026-04-21 18:32 | 30.44854 | -111.55013 | 34986 ft | 523 kts | 64° |
| 2026-04-21 18:33 | 30.47663 | -111.47283 | 34989 ft | 523 kts | 64° |
| 2026-04-21 18:33 | 30.50488 | -111.39492 | 34989 ft | 523 kts | 64° |
| 2026-04-21 18:34 | 30.53307 | -111.31701 | 34988 ft | 523 kts | 64° |
| 2026-04-21 18:34 | 30.56109 | -111.23940 | 35001 ft | 524 kts | 64° |
| 2026-04-21 18:35 | 30.58461 | -111.17409 | 35001 ft | 523 kts | 64° |
| 2026-04-21 18:35 | 30.61719 | -111.08346 | 35011 ft | 522 kts | 64° |
| 2026-04-21 18:36 | 30.64497 | -111.00595 | 35009 ft | 522 kts | 64° |
| 2026-04-21 18:36 | 30.67283 | -110.92808 | 35011 ft | 521 kts | 64° |
| 2026-04-21 18:37 | 30.70064 | -110.85017 | 35014 ft | 521 kts | 64° |
| 2026-04-21 18:37 | 30.72826 | -110.77265 | 35023 ft | 521 kts | 65° |
| 2026-04-21 18:38 | 30.75593 | -110.69477 | 35022 ft | 520 kts | 65° |
| 2026-04-21 18:38 | 30.78351 | -110.61699 | 35016 ft | 520 kts | 65° |
| 2026-04-21 18:39 | 30.81107 | -110.53908 | 35014 ft | 520 kts | 65° |
| 2026-04-21 18:39 | 30.83836 | -110.46178 | 35024 ft | 519 kts | 65° |
| 2026-04-21 18:40 | 30.86580 | -110.38399 | 35010 ft | 519 kts | 65° |
| 2026-04-21 18:40 | 30.88856 | -110.31934 | 35014 ft | 519 kts | 65° |
| 2026-04-21 18:41 | 30.92039 | -110.22874 | 35010 ft | 519 kts | 65° |
| 2026-04-21 18:41 | 30.94770 | -110.15080 | 35010 ft | 519 kts | 65° |
| 2026-04-21 18:42 | 30.97488 | -110.07313 | 35014 ft | 519 kts | 66° |
| 2026-04-21 18:42 | 31.00213 | -109.99500 | 35018 ft | 519 kts | 66° |
| 2026-04-21 18:43 | 31.03485 | -109.92027 | 35003 ft | 517 kts | 58° |
| 2026-04-21 18:43 | 31.07052 | -109.84747 | 35010 ft | 517 kts | 58° |
| 2026-04-21 18:44 | 31.10513 | -109.77431 | 34994 ft | 517 kts | 60° |
| 2026-04-21 18:44 | 31.13947 | -109.70047 | 34995 ft | 517 kts | 60° |
| 2026-04-21 18:45 | 31.17375 | -109.62643 | 34987 ft | 517 kts | 60° |
| 2026-04-21 18:45 | 31.20796 | -109.55238 | 34986 ft | 517 kts | 60° |
| 2026-04-21 18:46 | 31.24190 | -109.47880 | 34992 ft | 518 kts | 60° |
| 2026-04-21 18:46 | 31.27610 | -109.40451 | 34986 ft | 518 kts | 60° |
| 2026-04-21 18:47 | 31.31027 | -109.33012 | 35000 ft | 519 kts | 60° |
| 2026-04-21 18:47 | 31.34420 | -109.25610 | 35003 ft | 519 kts | 60° |
| 2026-04-21 18:48 | 31.37830 | -109.18158 | 35015 ft | 519 kts | 60° |
| 2026-04-21 18:48 | 31.40671 | -109.11938 | 35022 ft | 519 kts | 60° |
| 2026-04-21 18:49 | 31.44635 | -109.03242 | 35050 ft | 519 kts | 61° |
| 2026-04-21 18:49 | 31.46906 | -108.98251 | 35044 ft | 519 kts | 61° |
| 2026-04-21 18:50 | 31.50842 | -108.89584 | 35032 ft | 517 kts | 61° |
| 2026-04-21 18:50 | 31.54223 | -108.82123 | 35015 ft | 517 kts | 61° |
| 2026-04-21 18:51 | 31.57596 | -108.74665 | 34993 ft | 517 kts | 61° |
| 2026-04-21 18:51 | 31.60944 | -108.67248 | 34986 ft | 517 kts | 61° |
| 2026-04-21 18:52 | 31.64310 | -108.59775 | 34984 ft | 517 kts | 61° |
| 2026-04-21 18:52 | 31.67648 | -108.52351 | 34976 ft | 517 kts | 61° |
| 2026-04-21 18:53 | 31.71001 | -108.44876 | 34976 ft | 517 kts | 61° |
| 2026-04-21 18:53 | 31.74352 | -108.37395 | 34969 ft | 517 kts | 62° |
| 2026-04-21 18:54 | 31.77705 | -108.29890 | 34975 ft | 518 kts | 62° |
| 2026-04-21 18:54 | 31.81036 | -108.22419 | 34981 ft | 518 kts | 62° |
| 2026-04-21 18:55 | 31.84386 | -108.14892 | 35001 ft | 518 kts | 62° |
| 2026-04-21 18:55 | 31.87708 | -108.07412 | 34999 ft | 518 kts | 62° |
| 2026-04-21 18:56 | 31.91041 | -107.99891 | 34995 ft | 517 kts | 62° |
| 2026-04-21 18:56 | 31.94365 | -107.92376 | 34990 ft | 517 kts | 62° |
| 2026-04-21 18:57 | 31.97686 | -107.84853 | 34988 ft | 516 kts | 62° |
| 2026-04-21 18:57 | 32.00995 | -107.77339 | 35063 ft | 516 kts | 62° |
| 2026-04-21 18:58 | 32.04279 | -107.69869 | 35083 ft | 516 kts | 62° |
| 2026-04-21 18:58 | 32.07581 | -107.62342 | 35102 ft | 516 kts | 62° |
| 2026-04-21 18:59 | 32.10865 | -107.54839 | 35093 ft | 516 kts | 62° |
| 2026-04-21 18:59 | 32.14161 | -107.47295 | 35072 ft | 516 kts | 62° |
| 2026-04-21 19:00 | 32.17455 | -107.39739 | 35025 ft | 517 kts | 62° |
| 2026-04-21 19:00 | 32.20718 | -107.32238 | 34992 ft | 517 kts | 62° |
| 2026-04-21 19:01 | 32.24004 | -107.24669 | 35041 ft | 517 kts | 62° |
| 2026-04-21 19:01 | 32.27287 | -107.17092 | 35086 ft | 517 kts | 62° |
| 2026-04-21 19:02 | 32.30545 | -107.09554 | 35133 ft | 517 kts | 62° |
| 2026-04-21 19:02 | 32.33818 | -107.01968 | 35178 ft | 517 kts | 62° |
| 2026-04-21 19:02 | 32.35454 | -106.98171 | 34976 ft | 517 kts | 62° |
| 2026-04-21 19:03 | 32.37085 | -106.94380 | 34972 ft | 517 kts | 62° |
| 2026-04-21 19:03 | 32.40347 | -106.86787 | 34970 ft | 517 kts | 63° |
| 2026-04-21 19:04 | 32.43581 | -106.79242 | 34972 ft | 517 kts | 63° |
| 2026-04-21 19:04 | 32.46837 | -106.71632 | 34970 ft | 516 kts | 63° |
| 2026-04-21 19:05 | 32.50057 | -106.64088 | 34972 ft | 516 kts | 63° |
| 2026-04-21 19:05 | 32.53297 | -106.56482 | 34967 ft | 516 kts | 63° |
| 2026-04-21 19:06 | 32.56532 | -106.48872 | 34965 ft | 516 kts | 63° |
| 2026-04-21 19:06 | 32.59758 | -106.41267 | 34990 ft | 515 kts | 63° |
| 2026-04-21 19:07 | 32.62945 | -106.33737 | 35045 ft | 514 kts | 63° |
| 2026-04-21 19:07 | 32.66149 | -106.26149 | 35093 ft | 513 kts | 63° |
| 2026-04-21 19:08 | 32.69342 | -106.18572 | 35141 ft | 512 kts | 63° |
| 2026-04-21 19:08 | 32.72508 | -106.11045 | 35173 ft | 511 kts | 63° |
| 2026-04-21 19:09 | 32.75685 | -106.03475 | 35180 ft | 511 kts | 63° |
| 2026-04-21 19:09 | 32.78832 | -105.95957 | 35138 ft | 511 kts | 63° |
| 2026-04-21 19:09 | 32.80416 | -105.92169 | 35001 ft | 511 kts | 63° |
| 2026-04-21 19:10 | 32.82004 | -105.88366 | 34990 ft | 512 kts | 63° |
| 2026-04-21 19:10 | 32.85181 | -105.80747 | 35010 ft | 513 kts | 63° |
| 2026-04-21 19:11 | 32.88330 | -105.73180 | 35019 ft | 514 kts | 63° |
| 2026-04-21 19:11 | 32.91506 | -105.65527 | 35051 ft | 515 kts | 63° |
| 2026-04-21 19:12 | 32.94681 | -105.57864 | 35048 ft | 515 kts | 63° |
| 2026-04-21 19:12 | 32.97830 | -105.50246 | 35058 ft | 515 kts | 63° |
| 2026-04-21 19:13 | 33.00994 | -105.42575 | 35036 ft | 515 kts | 63° |
| 2026-04-21 19:13 | 33.04150 | -105.34905 | 35007 ft | 514 kts | 63° |
| 2026-04-21 19:14 | 33.07295 | -105.27245 | 34989 ft | 514 kts | 63° |
| 2026-04-21 19:14 | 33.10408 | -105.19648 | 34969 ft | 513 kts | 63° |
| 2026-04-21 19:15 | 33.13540 | -105.11986 | 34968 ft | 513 kts | 63° |
| 2026-04-21 19:15 | 33.16665 | -105.04326 | 34959 ft | 512 kts | 63° |
| 2026-04-21 19:16 | 33.19786 | -104.96659 | 34957 ft | 512 kts | 63° |
| 2026-04-21 19:16 | 33.22879 | -104.89040 | 34973 ft | 512 kts | 63° |
| 2026-04-21 19:17 | 33.27552 | -104.77513 | 35029 ft | 512 kts | 63° |
| 2026-04-21 19:17 | 33.30636 | -104.69889 | 35064 ft | 513 kts | 63° |
| 2026-04-21 19:18 | 33.33317 | -104.61961 | 35092 ft | 514 kts | 72° |
| 2026-04-21 19:18 | 33.34874 | -104.53610 | 35096 ft | 514 kts | 82° |
| 2026-04-21 19:19 | 33.35964 | -104.45204 | 35100 ft | 515 kts | 81° |
| 2026-04-21 19:19 | 33.37094 | -104.36735 | 35072 ft | 515 kts | 81° |
| 2026-04-21 19:20 | 33.38210 | -104.28243 | 35043 ft | 515 kts | 81° |
| 2026-04-21 19:20 | 33.39310 | -104.19764 | 35017 ft | 516 kts | 81° |
| 2026-04-21 19:21 | 33.40398 | -104.11327 | 34986 ft | 516 kts | 81° |
| 2026-04-21 19:21 | 33.41489 | -104.02829 | 34994 ft | 516 kts | 81° |
| 2026-04-21 19:22 | 33.42575 | -103.94325 | 34993 ft | 516 kts | 81° |
| 2026-04-21 19:22 | 33.43650 | -103.85859 | 35005 ft | 516 kts | 81° |
| 2026-04-21 19:23 | 33.44725 | -103.77339 | 34994 ft | 517 kts | 81° |
| 2026-04-21 19:23 | 33.45797 | -103.68798 | 34999 ft | 518 kts | 81° |
| 2026-04-21 19:24 | 33.46863 | -103.60260 | 35006 ft | 519 kts | 81° |
| 2026-04-21 19:24 | 33.47918 | -103.51752 | 35009 ft | 519 kts | 81° |
| 2026-04-21 19:25 | 33.48975 | -103.43182 | 34999 ft | 520 kts | 81° |
| 2026-04-21 19:25 | 33.50029 | -103.34586 | 35005 ft | 521 kts | 81° |
| 2026-04-21 19:26 | 33.51072 | -103.26039 | 35008 ft | 521 kts | 81° |
| 2026-04-21 19:26 | 33.52115 | -103.17426 | 35011 ft | 521 kts | 81° |
| 2026-04-21 19:27 | 33.53152 | -103.08817 | 34987 ft | 522 kts | 81° |
| 2026-04-21 19:27 | 33.54186 | -103.00183 | 35008 ft | 523 kts | 81° |
| 2026-04-21 19:28 | 33.55215 | -102.91541 | 35019 ft | 523 kts | 81° |
| 2026-04-21 19:28 | 33.56231 | -102.82956 | 35021 ft | 523 kts | 81° |
| 2026-04-21 19:29 | 33.57248 | -102.74301 | 35045 ft | 524 kts | 81° |
| 2026-04-21 19:29 | 33.58262 | -102.65630 | 35069 ft | 524 kts | 81° |
| 2026-04-21 19:30 | 33.59269 | -102.56956 | 35100 ft | 524 kts | 81° |
| 2026-04-21 19:30 | 33.60261 | -102.48364 | 35135 ft | 524 kts | 81° |
| 2026-04-21 19:31 | 33.61259 | -102.39661 | 35316 ft | 528 kts | 81° |
| 2026-04-21 19:31 | 33.61756 | -102.35308 | 35785 ft | 526 kts | 81° |
| 2026-04-21 19:31 | 33.62253 | -102.30948 | 36293 ft | 525 kts | 81° |
| 2026-04-21 19:32 | 33.62745 | -102.26605 | 36751 ft | 524 kts | 81° |
| 2026-04-21 19:32 | 33.63229 | -102.22329 | 37194 ft | 523 kts | 81° |
| 2026-04-21 19:32 | 33.63718 | -102.17993 | 37608 ft | 522 kts | 81° |
| 2026-04-21 19:32 | 33.64203 | -102.13671 | 38082 ft | 521 kts | 81° |
| 2026-04-21 19:33 | 33.64524 | -102.10812 | 38388 ft | 521 kts | 82° |
| 2026-04-21 19:33 | 33.65168 | -102.05046 | 38944 ft | 520 kts | 82° |
| 2026-04-21 19:33 | 33.65649 | -102.00721 | 39098 ft | 525 kts | 82° |
| 2026-04-21 19:33 | 33.66124 | -101.96438 | 39127 ft | 521 kts | 82° |
| 2026-04-21 19:34 | 33.67073 | -101.87836 | 39138 ft | 520 kts | 82° |
| 2026-04-21 19:34 | 33.68020 | -101.79203 | 39137 ft | 521 kts | 82° |
| 2026-04-21 19:35 | 33.69422 | -101.66304 | 39134 ft | 521 kts | 82° |
| 2026-04-21 19:36 | 33.70357 | -101.57638 | 39104 ft | 522 kts | 82° |
| 2026-04-21 19:36 | 33.71284 | -101.48984 | 39089 ft | 522 kts | 82° |
| 2026-04-21 19:37 | 33.72201 | -101.40366 | 39076 ft | 522 kts | 82° |
| 2026-04-21 19:37 | 33.73118 | -101.31690 | 39074 ft | 523 kts | 82° |
| 2026-04-21 19:38 | 33.73876 | -101.24477 | 39077 ft | 523 kts | 82° |
| 2026-04-21 19:38 | 33.74782 | -101.15790 | 39076 ft | 523 kts | 82° |
| 2026-04-21 19:39 | 33.75677 | -101.07157 | 39076 ft | 523 kts | 82° |
| 2026-04-21 19:39 | 33.76573 | -100.98455 | 39084 ft | 523 kts | 82° |
| 2026-04-21 19:40 | 33.77456 | -100.89821 | 39080 ft | 523 kts | 82° |
| 2026-04-21 19:40 | 33.78341 | -100.81122 | 39081 ft | 523 kts | 82° |
| 2026-04-21 19:41 | 33.79221 | -100.72439 | 39078 ft | 523 kts | 82° |
| 2026-04-21 19:41 | 33.80081 | -100.63795 | 39077 ft | 523 kts | 82° |
| 2026-04-21 19:42 | 33.80943 | -100.55084 | 39086 ft | 525 kts | 82° |
| 2026-04-21 19:42 | 33.81820 | -100.46213 | 39081 ft | 542 kts | 82° |
| 2026-04-21 19:43 | 33.82711 | -100.37113 | 39081 ft | 546 kts | 82° |
| 2026-04-21 19:43 | 33.83590 | -100.28052 | 39081 ft | 546 kts | 82° |
| 2026-04-21 19:44 | 33.84465 | -100.18965 | 39088 ft | 547 kts | 82° |
| 2026-04-21 19:44 | 33.85335 | -100.09869 | 39088 ft | 547 kts | 82° |
| 2026-04-21 19:45 | 33.86199 | -100.00767 | 39091 ft | 547 kts | 82° |
| 2026-04-21 19:45 | 33.87050 | -99.91722 | 39092 ft | 547 kts | 82° |
| 2026-04-21 19:46 | 33.87901 | -99.82608 | 39108 ft | 547 kts | 82° |
| 2026-04-21 19:46 | 33.88746 | -99.73482 | 39099 ft | 548 kts | 82° |
| 2026-04-21 19:47 | 33.89584 | -99.64352 | 39115 ft | 548 kts | 83° |
| 2026-04-21 19:47 | 33.90411 | -99.55274 | 39113 ft | 548 kts | 83° |
| 2026-04-21 19:48 | 33.91236 | -99.46141 | 39126 ft | 548 kts | 83° |
| 2026-04-21 19:48 | 33.92056 | -99.36996 | 39124 ft | 548 kts | 83° |
| 2026-04-21 19:49 | 33.92867 | -99.27855 | 39124 ft | 548 kts | 83° |
| 2026-04-21 19:49 | 33.93668 | -99.18768 | 39126 ft | 548 kts | 83° |
| 2026-04-21 19:50 | 33.94468 | -99.09607 | 39127 ft | 548 kts | 83° |
| 2026-04-21 19:50 | 33.95253 | -99.00530 | 39133 ft | 545 kts | 83° |
| 2026-04-21 19:51 | 33.96035 | -98.91425 | 39139 ft | 546 kts | 83° |
| 2026-04-21 19:51 | 33.96810 | -98.82309 | 39151 ft | 546 kts | 83° |
| 2026-04-21 19:52 | 33.97573 | -98.73265 | 39165 ft | 546 kts | 83° |
| 2026-04-21 19:52 | 33.98369 | -98.64182 | 39176 ft | 544 kts | 80° |
| 2026-04-21 19:53 | 34.00187 | -98.55350 | 39180 ft | 542 kts | 69° |
| 2026-04-21 19:53 | 34.03047 | -98.46940 | 39183 ft | 542 kts | 65° |
| 2026-04-21 19:54 | 34.05922 | -98.38606 | 39161 ft | 541 kts | 66° |
| 2026-04-21 19:54 | 34.08816 | -98.30205 | 39175 ft | 542 kts | 66° |
| 2026-04-21 19:55 | 34.11709 | -98.21794 | 39174 ft | 542 kts | 66° |
| 2026-04-21 19:55 | 34.14575 | -98.13437 | 39185 ft | 542 kts | 66° |
| 2026-04-21 19:56 | 34.17456 | -98.05014 | 39183 ft | 542 kts | 66° |
| 2026-04-21 19:56 | 34.20333 | -97.96579 | 39200 ft | 541 kts | 66° |
| 2026-04-21 19:57 | 34.23172 | -97.88234 | 39198 ft | 538 kts | 66° |
| 2026-04-21 19:57 | 34.26002 | -97.79892 | 39195 ft | 536 kts | 66° |
| 2026-04-21 19:58 | 34.28827 | -97.71544 | 39199 ft | 535 kts | 66° |
| 2026-04-21 19:58 | 34.31645 | -97.63195 | 39199 ft | 536 kts | 66° |
| 2026-04-21 19:59 | 34.34442 | -97.54885 | 39206 ft | 536 kts | 66° |
| 2026-04-21 19:59 | 34.37251 | -97.46519 | 39206 ft | 536 kts | 66° |
| 2026-04-21 20:00 | 34.40061 | -97.38123 | 39210 ft | 536 kts | 66° |
| 2026-04-21 20:00 | 34.42844 | -97.29788 | 39216 ft | 537 kts | 66° |
| 2026-04-21 20:01 | 34.45638 | -97.21397 | 39228 ft | 536 kts | 66° |
| 2026-04-21 20:01 | 34.48427 | -97.12996 | 39230 ft | 536 kts | 66° |
| 2026-04-21 20:02 | 34.51212 | -97.04588 | 39228 ft | 536 kts | 66° |
| 2026-04-21 20:02 | 34.53969 | -96.96240 | 39237 ft | 535 kts | 66° |
| 2026-04-21 20:03 | 34.56696 | -96.87954 | 39226 ft | 523 kts | 66° |
| 2026-04-21 20:03 | 34.59397 | -96.79732 | 39222 ft | 525 kts | 66° |
| 2026-04-21 20:04 | 34.62090 | -96.71515 | 39225 ft | 525 kts | 66° |
| 2026-04-21 20:04 | 34.64792 | -96.63244 | 39229 ft | 525 kts | 67° |
| 2026-04-21 20:05 | 34.67470 | -96.55024 | 39218 ft | 526 kts | 67° |
| 2026-04-21 20:05 | 34.70157 | -96.46755 | 39237 ft | 526 kts | 67° |
| 2026-04-21 20:06 | 34.72848 | -96.38450 | 39241 ft | 528 kts | 67° |
| 2026-04-21 20:06 | 34.75538 | -96.30125 | 39240 ft | 528 kts | 67° |
| 2026-04-21 20:07 | 34.78205 | -96.21849 | 39240 ft | 527 kts | 67° |
| 2026-04-21 20:07 | 34.80882 | -96.13519 | 39244 ft | 527 kts | 67° |
| 2026-04-21 20:08 | 34.83534 | -96.05245 | 39246 ft | 526 kts | 67° |
| 2026-04-21 20:08 | 34.86183 | -95.96954 | 39252 ft | 519 kts | 67° |
| 2026-04-21 20:09 | 34.88785 | -95.88792 | 39258 ft | 519 kts | 67° |
| 2026-04-21 20:09 | 34.91394 | -95.80583 | 39260 ft | 520 kts | 67° |
| 2026-04-21 20:10 | 34.94003 | -95.72353 | 39253 ft | 520 kts | 67° |
| 2026-04-21 20:10 | 34.96619 | -95.64078 | 39258 ft | 522 kts | 67° |
| 2026-04-21 20:11 | 34.99208 | -95.55864 | 39250 ft | 522 kts | 67° |
| 2026-04-21 20:11 | 35.01813 | -95.47576 | 39254 ft | 522 kts | 67° |
| 2026-04-21 20:12 | 35.04416 | -95.39273 | 39248 ft | 522 kts | 67° |
| 2026-04-21 20:12 | 35.06575 | -95.32369 | 39257 ft | 522 kts | 67° |
| 2026-04-21 20:13 | 35.09582 | -95.22724 | 39244 ft | 523 kts | 67° |
| 2026-04-21 20:13 | 35.12164 | -95.14417 | 39247 ft | 523 kts | 67° |
| 2026-04-21 20:14 | 35.14739 | -95.06107 | 39250 ft | 522 kts | 67° |
| 2026-04-21 20:14 | 35.17283 | -94.97877 | 39238 ft | 519 kts | 67° |
| 2026-04-21 20:15 | 35.19841 | -94.89580 | 39238 ft | 521 kts | 67° |
| 2026-04-21 20:15 | 35.22393 | -94.81275 | 39249 ft | 521 kts | 68° |
| 2026-04-21 20:16 | 35.24942 | -94.72956 | 39252 ft | 521 kts | 68° |
| 2026-04-21 20:16 | 35.27470 | -94.64686 | 39242 ft | 521 kts | 68° |
| 2026-04-21 20:17 | 35.30008 | -94.56356 | 39248 ft | 522 kts | 68° |
| 2026-04-21 20:17 | 35.32523 | -94.48080 | 39248 ft | 523 kts | 68° |
| 2026-04-21 20:18 | 35.34657 | -94.41042 | 39247 ft | 523 kts | 68° |
| 2026-04-21 20:18 | 35.37604 | -94.31307 | 39248 ft | 523 kts | 68° |
| 2026-04-21 20:19 | 35.40165 | -94.22949 | 39244 ft | 523 kts | 66° |
| 2026-04-21 20:19 | 35.42870 | -94.14707 | 39238 ft | 525 kts | 66° |
| 2026-04-21 20:20 | 35.45594 | -94.06420 | 39232 ft | 523 kts | 66° |
| 2026-04-21 20:20 | 35.48302 | -93.98106 | 39229 ft | 524 kts | 66° |
| 2026-04-21 20:21 | 35.50978 | -93.89849 | 39224 ft | 524 kts | 66° |
| 2026-04-21 20:21 | 35.53664 | -93.81526 | 39221 ft | 524 kts | 66° |
| 2026-04-21 20:22 | 35.56351 | -93.73177 | 39215 ft | 525 kts | 66° |
| 2026-04-21 20:22 | 35.60372 | -93.60634 | 39214 ft | 525 kts | 66° |
| 2026-04-21 20:23 | 35.63027 | -93.52326 | 39218 ft | 525 kts | 66° |
| 2026-04-21 20:23 | 35.65694 | -93.43954 | 39215 ft | 525 kts | 66° |
| 2026-04-21 20:24 | 35.68355 | -93.35579 | 39209 ft | 525 kts | 66° |
| 2026-04-21 20:24 | 35.70560 | -93.28616 | 39209 ft | 525 kts | 66° |
| 2026-04-21 20:25 | 35.73627 | -93.18911 | 39207 ft | 524 kts | 66° |
| 2026-04-21 20:25 | 35.75822 | -93.11947 | 39195 ft | 524 kts | 66° |
| 2026-04-21 20:26 | 35.78452 | -93.03577 | 39215 ft | 526 kts | 66° |
| 2026-04-21 20:26 | 35.81089 | -92.95165 | 39213 ft | 526 kts | 66° |
| 2026-04-21 20:27 | 35.83722 | -92.86736 | 39211 ft | 526 kts | 66° |
| 2026-04-21 20:27 | 35.86345 | -92.78317 | 39213 ft | 526 kts | 66° |
| 2026-04-21 20:28 | 35.88947 | -92.69942 | 39205 ft | 526 kts | 67° |
| 2026-04-21 20:28 | 35.91571 | -92.61470 | 39203 ft | 528 kts | 67° |
| 2026-04-21 20:29 | 35.94173 | -92.53047 | 39201 ft | 528 kts | 67° |
| 2026-04-21 20:29 | 35.96788 | -92.44553 | 39200 ft | 528 kts | 67° |
| 2026-04-21 20:30 | 35.99394 | -92.36065 | 39208 ft | 528 kts | 67° |
| 2026-04-21 20:30 | 36.01994 | -92.27569 | 39215 ft | 529 kts | 67° |
| 2026-04-21 20:31 | 36.04578 | -92.19105 | 39207 ft | 530 kts | 67° |
| 2026-04-21 20:31 | 36.07176 | -92.10567 | 39211 ft | 530 kts | 67° |
| 2026-04-21 20:32 | 36.09769 | -92.02020 | 39211 ft | 529 kts | 67° |
| 2026-04-21 20:32 | 36.12333 | -91.93543 | 39210 ft | 530 kts | 67° |
| 2026-04-21 20:33 | 36.14920 | -91.84965 | 39212 ft | 533 kts | 67° |
| 2026-04-21 20:33 | 36.17510 | -91.76351 | 39213 ft | 533 kts | 67° |
| 2026-04-21 20:34 | 36.20088 | -91.67753 | 39208 ft | 532 kts | 67° |
| 2026-04-21 20:34 | 36.22644 | -91.59199 | 39211 ft | 532 kts | 67° |
| 2026-04-21 20:35 | 36.25205 | -91.50601 | 39209 ft | 533 kts | 67° |
| 2026-04-21 20:35 | 36.27778 | -91.41939 | 39208 ft | 533 kts | 67° |
| 2026-04-21 20:36 | 36.30317 | -91.33365 | 39206 ft | 533 kts | 67° |
| 2026-04-21 20:36 | 36.32871 | -91.24713 | 39205 ft | 533 kts | 67° |
| 2026-04-21 20:37 | 36.35417 | -91.16061 | 39203 ft | 533 kts | 68° |
| 2026-04-21 20:37 | 36.37928 | -91.07502 | 39203 ft | 535 kts | 68° |
| 2026-04-21 20:38 | 36.40471 | -90.98808 | 39203 ft | 535 kts | 68° |
| 2026-04-21 20:38 | 36.43001 | -90.90130 | 39209 ft | 534 kts | 68° |
| 2026-04-21 20:39 | 36.45515 | -90.81481 | 39202 ft | 534 kts | 68° |
| 2026-04-21 20:39 | 36.48037 | -90.72777 | 39201 ft | 535 kts | 68° |
| 2026-04-21 20:40 | 36.50553 | -90.64066 | 39210 ft | 534 kts | 68° |
| 2026-04-21 20:40 | 36.53044 | -90.55411 | 39203 ft | 534 kts | 68° |
| 2026-04-21 20:41 | 36.55543 | -90.46705 | 39197 ft | 534 kts | 68° |
| 2026-04-21 20:41 | 36.58038 | -90.37986 | 39206 ft | 534 kts | 68° |
| 2026-04-21 20:42 | 36.60530 | -90.29245 | 39202 ft | 535 kts | 68° |
| 2026-04-21 20:42 | 36.62999 | -90.20560 | 39201 ft | 535 kts | 68° |
| 2026-04-21 20:43 | 36.65479 | -90.11806 | 39203 ft | 535 kts | 68° |
| 2026-04-21 20:43 | 36.67946 | -90.03071 | 39202 ft | 535 kts | 68° |
| 2026-04-21 20:44 | 36.70421 | -89.94282 | 39210 ft | 535 kts | 68° |
| 2026-04-21 20:44 | 36.72868 | -89.85559 | 39210 ft | 536 kts | 68° |
| 2026-04-21 20:45 | 36.75326 | -89.76773 | 39204 ft | 536 kts | 68° |
| 2026-04-21 20:45 | 36.77773 | -89.67995 | 39189 ft | 535 kts | 68° |
| 2026-04-21 20:46 | 36.80216 | -89.59204 | 39184 ft | 535 kts | 69° |
| 2026-04-21 20:46 | 36.82636 | -89.50463 | 39183 ft | 535 kts | 69° |
| 2026-04-21 20:47 | 36.85057 | -89.41695 | 39186 ft | 535 kts | 69° |
| 2026-04-21 20:47 | 36.87460 | -89.32960 | 39192 ft | 535 kts | 69° |
| 2026-04-21 20:48 | 36.89879 | -89.24141 | 39196 ft | 535 kts | 69° |
| 2026-04-21 20:48 | 36.92289 | -89.15324 | 39195 ft | 537 kts | 69° |
| 2026-04-21 20:49 | 36.94682 | -89.06538 | 39193 ft | 536 kts | 69° |
| 2026-04-21 20:49 | 36.97087 | -88.97695 | 39200 ft | 537 kts | 69° |
| 2026-04-21 20:50 | 36.99491 | -88.88838 | 39206 ft | 536 kts | 69° |
| 2026-04-21 20:50 | 37.01695 | -88.79910 | 39203 ft | 538 kts | 73° |
| 2026-04-21 20:51 | 37.03663 | -88.70919 | 39201 ft | 538 kts | 72° |
| 2026-04-21 20:51 | 37.05689 | -88.61895 | 39199 ft | 538 kts | 72° |
| 2026-04-21 20:52 | 37.07685 | -88.52918 | 39195 ft | 537 kts | 72° |
| 2026-04-21 20:52 | 37.09683 | -88.43874 | 39186 ft | 538 kts | 72° |
| 2026-04-21 20:53 | 37.11660 | -88.34862 | 39190 ft | 538 kts | 72° |
| 2026-04-21 20:53 | 37.13642 | -88.25779 | 39187 ft | 538 kts | 72° |
| 2026-04-21 20:54 | 37.15613 | -88.16709 | 39190 ft | 539 kts | 72° |
| 2026-04-21 20:54 | 37.17565 | -88.07693 | 39191 ft | 539 kts | 72° |
| 2026-04-21 20:55 | 37.19526 | -87.98596 | 39187 ft | 539 kts | 72° |
| 2026-04-21 20:55 | 37.21479 | -87.89500 | 39185 ft | 540 kts | 72° |
| 2026-04-21 20:56 | 37.23423 | -87.80409 | 39181 ft | 539 kts | 73° |
| 2026-04-21 20:56 | 37.25347 | -87.71379 | 39183 ft | 539 kts | 73° |
| 2026-04-21 20:57 | 37.27279 | -87.62267 | 39188 ft | 540 kts | 73° |
| 2026-04-21 20:57 | 37.29202 | -87.53163 | 39182 ft | 539 kts | 73° |
| 2026-04-21 20:58 | 37.31123 | -87.44026 | 39184 ft | 540 kts | 73° |
| 2026-04-21 20:58 | 37.33021 | -87.34963 | 39187 ft | 539 kts | 73° |
| 2026-04-21 20:59 | 37.34928 | -87.25824 | 39189 ft | 540 kts | 73° |
| 2026-04-21 20:59 | 37.36827 | -87.16681 | 39193 ft | 540 kts | 73° |
| 2026-04-21 21:00 | 37.38722 | -87.07523 | 39195 ft | 540 kts | 73° |
| 2026-04-21 21:00 | 37.40595 | -86.98428 | 39200 ft | 540 kts | 73° |
| 2026-04-21 21:01 | 37.42474 | -86.89268 | 39194 ft | 541 kts | 73° |
| 2026-04-21 21:01 | 37.44347 | -86.80095 | 39196 ft | 541 kts | 73° |
| 2026-04-21 21:02 | 37.46206 | -86.70955 | 39197 ft | 541 kts | 73° |
| 2026-04-21 21:02 | 37.48068 | -86.61762 | 39192 ft | 541 kts | 73° |
| 2026-04-21 21:03 | 37.49910 | -86.52621 | 39192 ft | 541 kts | 73° |
| 2026-04-21 21:03 | 37.51757 | -86.43422 | 39191 ft | 542 kts | 73° |
| 2026-04-21 21:04 | 37.53599 | -86.34208 | 39190 ft | 542 kts | 73° |
| 2026-04-21 21:04 | 37.55425 | -86.25030 | 39192 ft | 541 kts | 73° |
| 2026-04-21 21:05 | 37.57254 | -86.15799 | 39188 ft | 542 kts | 73° |
| 2026-04-21 21:05 | 37.59074 | -86.06569 | 39182 ft | 542 kts | 73° |
| 2026-04-21 21:06 | 37.60889 | -85.97325 | 39186 ft | 542 kts | 73° |
| 2026-04-21 21:06 | 37.62688 | -85.88121 | 39186 ft | 542 kts | 73° |
| 2026-04-21 21:07 | 37.64488 | -85.78875 | 39200 ft | 543 kts | 73° |
| 2026-04-21 21:07 | 37.66283 | -85.69611 | 39186 ft | 542 kts | 73° |
| 2026-04-21 21:08 | 37.68051 | -85.60442 | 39170 ft | 543 kts | 73° |
| 2026-04-21 21:08 | 37.69830 | -85.51173 | 39168 ft | 543 kts | 73° |
| 2026-04-21 21:09 | 37.71607 | -85.41874 | 39176 ft | 543 kts | 73° |
| 2026-04-21 21:09 | 37.73362 | -85.32649 | 39173 ft | 543 kts | 73° |
| 2026-04-21 21:10 | 37.75125 | -85.23341 | 39194 ft | 543 kts | 73° |
| 2026-04-21 21:10 | 37.76878 | -85.14045 | 39198 ft | 543 kts | 73° |
| 2026-04-21 21:11 | 37.78612 | -85.04802 | 39198 ft | 543 kts | 73° |
| 2026-04-21 21:11 | 37.80354 | -84.95473 | 39197 ft | 543 kts | 73° |
| 2026-04-21 21:12 | 37.82088 | -84.86145 | 39198 ft | 544 kts | 73° |
| 2026-04-21 21:12 | 37.83805 | -84.76863 | 39199 ft | 544 kts | 74° |
| 2026-04-21 21:13 | 37.85523 | -84.67532 | 39196 ft | 544 kts | 74° |
| 2026-04-21 21:13 | 37.87226 | -84.58238 | 39194 ft | 545 kts | 74° |
| 2026-04-21 21:14 | 37.88657 | -84.50397 | 39187 ft | 545 kts | 74° |
| 2026-04-21 21:14 | 37.90346 | -84.41095 | 39187 ft | 545 kts | 74° |
| 2026-04-21 21:15 | 37.92043 | -84.31707 | 39196 ft | 545 kts | 74° |
| 2026-04-21 21:15 | 37.93730 | -84.22331 | 39190 ft | 546 kts | 74° |
| 2026-04-21 21:16 | 37.95400 | -84.13006 | 39181 ft | 546 kts | 74° |
| 2026-04-21 21:16 | 37.97075 | -84.03604 | 39192 ft | 546 kts | 74° |
| 2026-04-21 21:17 | 37.98739 | -83.94213 | 39192 ft | 546 kts | 74° |
| 2026-04-21 21:17 | 38.00389 | -83.84859 | 39192 ft | 546 kts | 74° |
| 2026-04-21 21:18 | 38.02041 | -83.75449 | 39188 ft | 546 kts | 74° |
| 2026-04-21 21:18 | 38.03687 | -83.66030 | 39175 ft | 546 kts | 74° |
| 2026-04-21 21:19 | 38.05310 | -83.56686 | 39175 ft | 545 kts | 74° |
| 2026-04-21 21:19 | 38.06939 | -83.47264 | 39176 ft | 545 kts | 74° |
| 2026-04-21 21:20 | 38.08557 | -83.37854 | 39175 ft | 545 kts | 74° |
| 2026-04-21 21:20 | 38.10159 | -83.28507 | 39174 ft | 545 kts | 74° |
| 2026-04-21 21:21 | 38.11767 | -83.19061 | 39174 ft | 545 kts | 74° |
| 2026-04-21 21:21 | 38.13361 | -83.09644 | 39174 ft | 544 kts | 74° |
| 2026-04-21 21:22 | 38.14939 | -83.00283 | 39174 ft | 544 kts | 74° |
| 2026-04-21 21:22 | 38.16518 | -82.90868 | 39174 ft | 545 kts | 74° |
| 2026-04-21 21:23 | 38.18091 | -82.81435 | 39164 ft | 544 kts | 75° |
| 2026-04-21 21:23 | 38.19648 | -82.72050 | 39158 ft | 543 kts | 74° |
| 2026-04-21 21:24 | 38.21194 | -82.62689 | 39149 ft | 544 kts | 74° |
| 2026-04-21 21:24 | 38.22741 | -82.53269 | 39153 ft | 544 kts | 75° |
| 2026-04-21 21:25 | 38.24283 | -82.43830 | 39165 ft | 544 kts | 75° |
| 2026-04-21 21:25 | 38.25802 | -82.34477 | 39170 ft | 543 kts | 74° |
| 2026-04-21 21:26 | 38.27326 | -82.25052 | 39165 ft | 543 kts | 74° |
| 2026-04-21 21:26 | 38.28842 | -82.15620 | 39171 ft | 543 kts | 75° |
| 2026-04-21 21:27 | 38.30340 | -82.06249 | 39171 ft | 543 kts | 75° |
| 2026-04-21 21:27 | 38.31844 | -81.96829 | 39163 ft | 543 kts | 75° |
| 2026-04-21 21:28 | 38.33343 | -81.87400 | 39156 ft | 543 kts | 75° |
| 2026-04-21 21:29 | 38.34754 | -81.73045 | 39150 ft | 549 kts | 86° |
| 2026-04-21 21:29 | 38.34515 | -81.63361 | 39148 ft | 550 kts | 90° |
| 2026-04-21 21:30 | 38.34222 | -81.53610 | 39170 ft | 549 kts | 89° |
| 2026-04-21 21:30 | 38.33921 | -81.43923 | 39188 ft | 549 kts | 90° |
| 2026-04-21 21:31 | 38.33600 | -81.34203 | 39187 ft | 549 kts | 90° |
| 2026-04-21 21:31 | 38.33267 | -81.24485 | 39179 ft | 547 kts | 90° |
| 2026-04-21 21:32 | 38.32929 | -81.14844 | 39183 ft | 547 kts | 90° |
| 2026-04-21 21:32 | 38.32583 | -81.05162 | 39189 ft | 547 kts | 90° |
| 2026-04-21 21:33 | 38.32229 | -80.95477 | 39189 ft | 547 kts | 90° |
| 2026-04-21 21:33 | 38.31868 | -80.85843 | 39037 ft | 546 kts | 90° |
| 2026-04-21 21:33 | 38.31684 | -80.81014 | 38797 ft | 543 kts | 90° |
| 2026-04-21 21:34 | 38.31499 | -80.76200 | 38515 ft | 543 kts | 90° |
| 2026-04-21 21:34 | 38.31314 | -80.71399 | 38243 ft | 540 kts | 90° |
| 2026-04-21 21:34 | 38.31128 | -80.66661 | 37962 ft | 530 kts | 90° |
| 2026-04-21 21:34 | 38.30946 | -80.62073 | 37684 ft | 520 kts | 90° |
| 2026-04-21 21:35 | 38.30762 | -80.57415 | 37433 ft | 520 kts | 90° |
| 2026-04-21 21:35 | 38.30581 | -80.52850 | 37238 ft | 525 kts | 90° |
| 2026-04-21 21:35 | 38.30518 | -80.48197 | 37219 ft | 527 kts | 83° |
| 2026-04-21 21:36 | 38.31694 | -80.39097 | 37214 ft | 516 kts | 70° |
| 2026-04-21 21:36 | 38.32625 | -80.34678 | 36996 ft | 516 kts | 70° |
| 2026-04-21 21:36 | 38.33538 | -80.30248 | 36737 ft | 516 kts | 70° |
| 2026-04-21 21:36 | 38.34442 | -80.25821 | 36475 ft | 517 kts | 70° |
| 2026-04-21 21:37 | 38.35345 | -80.21379 | 36228 ft | 518 kts | 70° |
| 2026-04-21 21:37 | 38.36252 | -80.16913 | 35984 ft | 520 kts | 70° |
| 2026-04-21 21:37 | 38.37143 | -80.12519 | 35734 ft | 519 kts | 70° |
| 2026-04-21 21:37 | 38.38046 | -80.08055 | 35480 ft | 520 kts | 70° |
| 2026-04-21 21:38 | 38.38949 | -80.03585 | 34957 ft | 520 kts | 70° |
| 2026-04-21 21:38 | 38.39856 | -79.99102 | 34091 ft | 524 kts | 70° |
| 2026-04-21 21:38 | 38.40765 | -79.94592 | 33360 ft | 522 kts | 70° |
| 2026-04-21 21:38 | 38.41660 | -79.90133 | 32935 ft | 513 kts | 70° |
| 2026-04-21 21:39 | 38.42535 | -79.85754 | 32363 ft | 507 kts | 70° |
| 2026-04-21 21:39 | 38.43397 | -79.81449 | 31768 ft | 503 kts | 70° |
| 2026-04-21 21:39 | 38.44266 | -79.77137 | 31174 ft | 499 kts | 71° |
| 2026-04-21 21:39 | 38.45138 | -79.72857 | 30525 ft | 497 kts | 70° |
| 2026-04-21 21:40 | 38.46003 | -79.68612 | 29934 ft | 491 kts | 70° |
| 2026-04-21 21:40 | 38.46856 | -79.64405 | 29325 ft | 485 kts | 70° |
| 2026-04-21 21:40 | 38.47696 | -79.60261 | 28746 ft | 479 kts | 70° |
| 2026-04-21 21:40 | 38.48524 | -79.56222 | 28163 ft | 474 kts | 70° |
| 2026-04-21 21:41 | 38.49358 | -79.52173 | 27720 ft | 466 kts | 70° |
| 2026-04-21 21:41 | 38.50165 | -79.48220 | 27515 ft | 453 kts | 70° |
| 2026-04-21 21:41 | 38.50950 | -79.44326 | 26879 ft | 452 kts | 70° |
| 2026-04-21 21:41 | 38.51726 | -79.40434 | 26142 ft | 453 kts | 71° |
| 2026-04-21 21:42 | 38.52483 | -79.36607 | 25834 ft | 443 kts | 72° |
| 2026-04-21 21:42 | 38.53226 | -79.32834 | 25401 ft | 436 kts | 71° |
| 2026-04-21 21:42 | 38.53972 | -79.29065 | 24801 ft | 435 kts | 71° |
| 2026-04-21 21:42 | 38.54710 | -79.25330 | 24247 ft | 433 kts | 72° |
| 2026-04-21 21:43 | 38.55445 | -79.21598 | 23742 ft | 430 kts | 72° |
| 2026-04-21 21:43 | 38.56162 | -79.17954 | 23195 ft | 426 kts | 72° |
| 2026-04-21 21:43 | 38.56876 | -79.14303 | 22611 ft | 422 kts | 71° |
| 2026-04-21 21:43 | 38.57588 | -79.10669 | 22064 ft | 419 kts | 71° |
| 2026-04-21 21:44 | 38.58293 | -79.07071 | 21533 ft | 415 kts | 71° |
| 2026-04-21 21:44 | 38.58989 | -79.03495 | 21084 ft | 409 kts | 73° |
| 2026-04-21 21:44 | 38.59604 | -78.99977 | 20642 ft | 404 kts | 74° |
| 2026-04-21 21:44 | 38.60178 | -78.96470 | 20140 ft | 402 kts | 74° |
| 2026-04-21 21:45 | 38.60736 | -78.93027 | 19636 ft | 399 kts | 73° |
| 2026-04-21 21:45 | 38.61310 | -78.89533 | 19161 ft | 395 kts | 73° |
| 2026-04-21 21:45 | 38.61874 | -78.86140 | 18632 ft | 393 kts | 73° |
| 2026-04-21 21:45 | 38.62442 | -78.82741 | 18151 ft | 387 kts | 71° |
| 2026-04-21 21:46 | 38.63184 | -78.79463 | 17562 ft | 382 kts | 67° |
| 2026-04-21 21:46 | 38.63968 | -78.76222 | 17019 ft | 379 kts | 67° |
| 2026-04-21 21:46 | 38.64739 | -78.73002 | 16478 ft | 376 kts | 67° |
| 2026-04-21 21:46 | 38.65497 | -78.69818 | 15965 ft | 372 kts | 66° |
| 2026-04-21 21:47 | 38.66248 | -78.66658 | 15512 ft | 368 kts | 67° |
| 2026-04-21 21:47 | 38.66979 | -78.63578 | 15020 ft | 365 kts | 66° |
| 2026-04-21 21:47 | 38.67705 | -78.60513 | 14573 ft | 362 kts | 66° |
| 2026-04-21 21:47 | 38.68433 | -78.57438 | 14106 ft | 359 kts | 66° |
| 2026-04-21 21:48 | 38.69154 | -78.54388 | 13551 ft | 357 kts | 66° |
| 2026-04-21 21:48 | 38.69870 | -78.51355 | 12860 ft | 357 kts | 66° |
| 2026-04-21 21:48 | 38.70587 | -78.48323 | 12318 ft | 354 kts | 66° |
| 2026-04-21 21:48 | 38.71301 | -78.45299 | 11866 ft | 350 kts | 66° |
| 2026-04-21 21:49 | 38.71982 | -78.42374 | 11623 ft | 334 kts | 65° |
| 2026-04-21 21:49 | 38.72638 | -78.39598 | 11430 ft | 315 kts | 62° |
| 2026-04-21 21:49 | 38.73557 | -78.37178 | 11070 ft | 298 kts | 47° |
| 2026-04-21 21:49 | 38.74856 | -78.35165 | 10963 ft | 290 kts | 36° |
| 2026-04-21 21:50 | 38.76254 | -78.33300 | 10801 ft | 290 kts | 37° |
| 2026-04-21 21:50 | 38.77657 | -78.31379 | 10219 ft | 301 kts | 38° |
| 2026-04-21 21:50 | 38.79079 | -78.29409 | 9941 ft | 297 kts | 38° |
| 2026-04-21 21:50 | 38.80479 | -78.27459 | 9708 ft | 297 kts | 38° |
| 2026-04-21 21:51 | 38.81882 | -78.25504 | 9497 ft | 296 kts | 38° |
| 2026-04-21 21:51 | 38.83262 | -78.23582 | 9269 ft | 296 kts | 38° |
| 2026-04-21 21:51 | 38.84639 | -78.21623 | 9049 ft | 297 kts | 43° |
| 2026-04-21 21:51 | 38.85723 | -78.19331 | 8930 ft | 306 kts | 59° |
| 2026-04-21 21:52 | 38.86422 | -78.16716 | 8734 ft | 311 kts | 67° |
| 2026-04-21 21:52 | 38.87071 | -78.14057 | 8347 ft | 314 kts | 66° |
| 2026-04-21 21:52 | 38.87729 | -78.11429 | 7880 ft | 311 kts | 67° |
| 2026-04-21 21:52 | 38.88397 | -78.08789 | 7366 ft | 310 kts | 68° |
| 2026-04-21 21:53 | 38.89052 | -78.06177 | 7049 ft | 304 kts | 68° |
| 2026-04-21 21:53 | 38.89695 | -78.03613 | 6962 ft | 300 kts | 68° |
| 2026-04-21 21:53 | 38.90334 | -78.01059 | 6962 ft | 301 kts | 68° |
| 2026-04-21 21:53 | 38.90975 | -77.98490 | 6945 ft | 300 kts | 68° |
| 2026-04-21 21:54 | 38.91601 | -77.95981 | 6719 ft | 300 kts | 69° |
| 2026-04-21 21:54 | 38.92246 | -77.93405 | 6319 ft | 302 kts | 69° |
| 2026-04-21 21:54 | 38.92885 | -77.90849 | 6039 ft | 298 kts | 70° |
| 2026-04-21 21:54 | 38.93508 | -77.88336 | 5995 ft | 292 kts | 70° |
| 2026-04-21 21:55 | 38.94128 | -77.85842 | 6003 ft | 295 kts | 70° |
| 2026-04-21 21:55 | 38.94753 | -77.83328 | 6008 ft | 297 kts | 70° |
| 2026-04-21 21:55 | 38.95384 | -77.80786 | 6003 ft | 298 kts | 70° |
| 2026-04-21 21:55 | 38.96005 | -77.78280 | 6010 ft | 298 kts | 70° |
| 2026-04-21 21:56 | 38.96427 | -77.75667 | 6009 ft | 299 kts | 85° |
| 2026-04-21 21:56 | 38.96296 | -77.73005 | 6008 ft | 299 kts | 99° |
| 2026-04-21 21:56 | 38.95983 | -77.70367 | 5827 ft | 298 kts | 98° |
| 2026-04-21 21:56 | 38.95698 | -77.67735 | 5586 ft | 297 kts | 98° |
| 2026-04-21 21:57 | 38.95440 | -77.65129 | 5223 ft | 291 kts | 94° |
| 2026-04-21 21:57 | 38.95747 | -77.62602 | 5045 ft | 285 kts | 66° |
| 2026-04-21 21:57 | 38.96850 | -77.60549 | 4968 ft | 282 kts | 40° |
| 2026-04-21 21:57 | 38.98457 | -77.59135 | 4865 ft | 280 kts | 26° |
| 2026-04-21 21:58 | 39.00178 | -77.58000 | 4716 ft | 275 kts | 20° |
| 2026-04-21 21:58 | 39.02007 | -77.57375 | 4587 ft | 271 kts | 3° |
| 2026-04-21 21:58 | 39.03885 | -77.57381 | 4431 ft | 270 kts | 354° |
| 2026-04-21 21:58 | 39.05751 | -77.57458 | 4306 ft | 271 kts | 356° |
| 2026-04-21 21:59 | 39.07646 | -77.57479 | 4127 ft | 273 kts | 358° |
| 2026-04-21 21:59 | 39.09573 | -77.57480 | 3681 ft | 281 kts | 359° |
| 2026-04-21 21:59 | 39.11541 | -77.57477 | 3196 ft | 281 kts | 359° |
| 2026-04-21 21:59 | 39.13445 | -77.57187 | 3003 ft | 275 kts | 20° |
| 2026-04-21 22:00 | 39.15007 | -77.55916 | 2975 ft | 257 kts | 50° |
| 2026-04-21 22:00 | 39.15838 | -77.54025 | 2980 ft | 233 kts | 81° |
| 2026-04-21 22:00 | 39.15888 | -77.52056 | 2981 ft | 217 kts | 100° |
| 2026-04-21 22:00 | 39.15549 | -77.50190 | 2978 ft | 212 kts | 112° |
| 2026-04-21 22:01 | 39.15073 | -77.48407 | 2991 ft | 208 kts | 112° |
| 2026-04-21 22:01 | 39.14442 | -77.46755 | 2978 ft | 205 kts | 137° |
| 2026-04-21 22:01 | 39.13221 | -77.45893 | 2994 ft | 199 kts | 166° |
| 2026-04-21 22:01 | 39.12328 | -77.45720 | 2970 ft | 194 kts | 176° |
| 2026-04-21 22:02 | 39.10539 | -77.45736 | 2952 ft | 191 kts | 182° |
| 2026-04-21 22:02 | 39.09635 | -77.45756 | 2788 ft | 194 kts | 180° |
| 2026-04-21 22:02 | 39.08323 | -77.45764 | 2507 ft | 179 kts | 182° |
| 2026-04-21 22:02 | 39.07178 | -77.45787 | 2269 ft | 151 kts | 180° |
| 2026-04-21 22:03 | 39.06190 | -77.45796 | 2085 ft | 137 kts | 181° |
| 2026-04-21 22:03 | 39.05236 | -77.45823 | 1895 ft | 137 kts | 181° |
| 2026-04-21 22:03 | 39.04310 | -77.45826 | 1721 ft | 134 kts | 180° |
| 2026-04-21 22:03 | 39.03373 | -77.45845 | 1529 ft | 133 kts | 181° |
| 2026-04-21 22:04 | 39.02446 | -77.45855 | 1358 ft | 135 kts | 181° |
| 2026-04-21 22:04 | 39.01504 | -77.45873 | 1157 ft | 137 kts | 180° |
| 2026-04-21 22:04 | 39.00571 | -77.45873 | 971 ft | 135 kts | 180° |
| 2026-04-21 22:04 | 38.99633 | -77.45900 | 797 ft | 135 kts | 182° |
| 2026-04-21 22:05 | 38.98705 | -77.45901 | 647 ft | 136 kts | 180° |
| 2026-04-21 22:05 | 38.97786 | -77.45917 | 467 ft | 131 kts | 183° |
| 2026-04-21 22:05 | 38.96878 | -77.45938 | 320 ft | 130 kts | 181° |
| 2026-04-21 22:05 | 38.96119 | -77.45950 | 305 ft | 87 kts | 180° |
| 2026-04-21 22:06 | 38.95631 | -77.45955 | 309 ft | 56 kts | 181° |
| 2026-04-21 22:06 | 38.95321 | -77.45961 | 307 ft | 33 kts | 181° |
| 2026-04-21 22:06 | 38.95116 | -77.45961 | 306 ft | 27 kts | 176° |
| 2026-04-21 22:06 | 38.94952 | -77.45892 | 307 ft | 16 kts | 147° |
| 2026-04-21 22:07 | 38.94876 | -77.45829 | 308 ft | 13 kts | 147° |
| 2026-04-21 22:07 | 38.94796 | -77.45764 | 309 ft | 14 kts | 146° |
| 2026-04-21 22:07 | 38.94757 | -77.45694 | 309 ft | 4 kts | 97° |
| 2026-04-21 22:07 | 38.94754 | -77.45671 | 308 ft | 6 kts | 97° |
| 2026-04-21 22:08 | 38.94741 | -77.45593 | 309 ft | 11 kts | 105° |
| 2026-04-21 22:08 | 38.94731 | -77.45480 | 307 ft | 15 kts | 89° |
| 2026-04-21 22:08 | 38.94732 | -77.45335 | 305 ft | 18 kts | 89° |
| 2026-04-21 22:08 | 38.94732 | -77.45163 | 305 ft | 20 kts | 90° |
| 2026-04-21 22:09 | 38.94732 | -77.45074 | 305 ft | 2 kts | 91° |
| 2026-04-21 22:09 | 38.94731 | -77.45024 | 305 ft | 8 kts | 92° |
| 2026-04-21 22:09 | 38.94749 | -77.44959 | 307 ft | 9 kts | 31° |
| 2026-04-21 22:09 | 38.94786 | -77.44938 | 309 ft | 2 kts | 15° |
| 2026-04-21 22:10 | 38.94797 | -77.44934 | 306 ft | 0 kts | 15° |